<?xml version="1.0" encoding="UTF-8" standalone="no" ?>
<gpx xmlns="http://www.topografix.com/GPX/1/1" creator="www.cicloide.com" version="1.1" xmlns:xsi="http://www.w3.org/2001/XMLSchema-instance" xsi:schemaLocation="http://www.topografix.com/GPX/1/1 http://www.topografix.com/GPX/1/1/gpx.xsd">
  <trk>
    <name>www.cicloide.com 13313</name>
    <desc>www.cicloide.com 13313</desc>
    <trkseg>
      <trkpt lat="41.543946000" lon="1.887016000">
        <ele>100.40</ele>
        <time>2013-04-30T17:14:20Z</time>
      </trkpt>
      <trkpt lat="41.543932000" lon="1.886770000">
        <ele>102.90</ele>
        <time>2013-04-30T17:14:30Z</time>
      </trkpt>
      <trkpt lat="41.544039000" lon="1.886537000">
        <ele>105.50</ele>
        <time>2013-04-30T17:14:40Z</time>
      </trkpt>
      <trkpt lat="41.544154000" lon="1.886348000">
        <ele>106.90</ele>
        <time>2013-04-30T17:14:49Z</time>
      </trkpt>
      <trkpt lat="41.544286000" lon="1.886129000">
        <ele>108.70</ele>
        <time>2013-04-30T17:14:58Z</time>
      </trkpt>
      <trkpt lat="41.544432000" lon="1.885911000">
        <ele>108.30</ele>
        <time>2013-04-30T17:15:06Z</time>
      </trkpt>
      <trkpt lat="41.544568000" lon="1.885698000">
        <ele>107.70</ele>
        <time>2013-04-30T17:15:12Z</time>
      </trkpt>
      <trkpt lat="41.544707000" lon="1.885529000">
        <ele>106.80</ele>
        <time>2013-04-30T17:15:17Z</time>
      </trkpt>
      <trkpt lat="41.544864000" lon="1.885344000">
        <ele>106.10</ele>
        <time>2013-04-30T17:15:22Z</time>
      </trkpt>
      <trkpt lat="41.545014000" lon="1.885194000">
        <ele>105.70</ele>
        <time>2013-04-30T17:15:26Z</time>
      </trkpt>
      <trkpt lat="41.545147000" lon="1.885034000">
        <ele>104.20</ele>
        <time>2013-04-30T17:15:29Z</time>
      </trkpt>
      <trkpt lat="41.545301000" lon="1.884847000">
        <ele>102.60</ele>
        <time>2013-04-30T17:15:32Z</time>
      </trkpt>
      <trkpt lat="41.545447000" lon="1.884638000">
        <ele>100.80</ele>
        <time>2013-04-30T17:15:35Z</time>
      </trkpt>
      <trkpt lat="41.545594000" lon="1.884445000">
        <ele>101.20</ele>
        <time>2013-04-30T17:15:38Z</time>
      </trkpt>
      <trkpt lat="41.545722000" lon="1.884263000">
        <ele>101.80</ele>
        <time>2013-04-30T17:15:41Z</time>
      </trkpt>
      <trkpt lat="41.545764000" lon="1.884033000">
        <ele>101.60</ele>
        <time>2013-04-30T17:15:44Z</time>
      </trkpt>
      <trkpt lat="41.545620000" lon="1.883877000">
        <ele>100.00</ele>
        <time>2013-04-30T17:15:47Z</time>
      </trkpt>
      <trkpt lat="41.545419000" lon="1.883789000">
        <ele>99.30</ele>
        <time>2013-04-30T17:15:50Z</time>
      </trkpt>
      <trkpt lat="41.545206000" lon="1.883698000">
        <ele>99.30</ele>
        <time>2013-04-30T17:15:53Z</time>
      </trkpt>
      <trkpt lat="41.545002000" lon="1.883610000">
        <ele>98.80</ele>
        <time>2013-04-30T17:15:56Z</time>
      </trkpt>
      <trkpt lat="41.544819000" lon="1.883497000">
        <ele>99.20</ele>
        <time>2013-04-30T17:15:59Z</time>
      </trkpt>
      <trkpt lat="41.544671000" lon="1.883254000">
        <ele>101.60</ele>
        <time>2013-04-30T17:16:03Z</time>
      </trkpt>
      <trkpt lat="41.544636000" lon="1.883017000">
        <ele>102.10</ele>
        <time>2013-04-30T17:16:07Z</time>
      </trkpt>
      <trkpt lat="41.544741000" lon="1.882766000">
        <ele>101.90</ele>
        <time>2013-04-30T17:16:11Z</time>
      </trkpt>
      <trkpt lat="41.544797000" lon="1.882449000">
        <ele>101.00</ele>
        <time>2013-04-30T17:16:15Z</time>
      </trkpt>
      <trkpt lat="41.544750000" lon="1.882186000">
        <ele>99.90</ele>
        <time>2013-04-30T17:16:18Z</time>
      </trkpt>
      <trkpt lat="41.544629000" lon="1.881963000">
        <ele>98.80</ele>
        <time>2013-04-30T17:16:21Z</time>
      </trkpt>
      <trkpt lat="41.544444000" lon="1.881827000">
        <ele>98.50</ele>
        <time>2013-04-30T17:16:24Z</time>
      </trkpt>
      <trkpt lat="41.544239000" lon="1.881800000">
        <ele>97.70</ele>
        <time>2013-04-30T17:16:27Z</time>
      </trkpt>
      <trkpt lat="41.544031000" lon="1.881891000">
        <ele>97.30</ele>
        <time>2013-04-30T17:16:30Z</time>
      </trkpt>
      <trkpt lat="41.543844000" lon="1.882057000">
        <ele>97.80</ele>
        <time>2013-04-30T17:16:33Z</time>
      </trkpt>
      <trkpt lat="41.543567000" lon="1.881955000">
        <ele>96.90</ele>
        <time>2013-04-30T17:16:37Z</time>
      </trkpt>
      <trkpt lat="41.542892000" lon="1.881510000">
        <ele>92.00</ele>
        <time>2013-04-30T17:16:45Z</time>
      </trkpt>
      <trkpt lat="41.542612000" lon="1.881326000">
        <ele>87.30</ele>
        <time>2013-04-30T17:16:48Z</time>
      </trkpt>
      <trkpt lat="41.542431000" lon="1.881205000">
        <ele>86.30</ele>
        <time>2013-04-30T17:16:50Z</time>
      </trkpt>
      <trkpt lat="41.542258000" lon="1.881092000">
        <ele>86.40</ele>
        <time>2013-04-30T17:16:52Z</time>
      </trkpt>
      <trkpt lat="41.542097000" lon="1.880989000">
        <ele>86.80</ele>
        <time>2013-04-30T17:16:54Z</time>
      </trkpt>
      <trkpt lat="41.541864000" lon="1.880834000">
        <ele>87.20</ele>
        <time>2013-04-30T17:16:57Z</time>
      </trkpt>
      <trkpt lat="41.541641000" lon="1.880690000">
        <ele>87.20</ele>
        <time>2013-04-30T17:17:00Z</time>
      </trkpt>
      <trkpt lat="41.541426000" lon="1.880554000">
        <ele>87.70</ele>
        <time>2013-04-30T17:17:03Z</time>
      </trkpt>
      <trkpt lat="41.541227000" lon="1.880448000">
        <ele>87.50</ele>
        <time>2013-04-30T17:17:06Z</time>
      </trkpt>
      <trkpt lat="41.541086000" lon="1.880289000">
        <ele>88.30</ele>
        <time>2013-04-30T17:17:09Z</time>
      </trkpt>
      <trkpt lat="41.541127000" lon="1.880036000">
        <ele>88.70</ele>
        <time>2013-04-30T17:17:12Z</time>
      </trkpt>
      <trkpt lat="41.541179000" lon="1.879776000">
        <ele>88.80</ele>
        <time>2013-04-30T17:17:15Z</time>
      </trkpt>
      <trkpt lat="41.541221000" lon="1.879519000">
        <ele>88.70</ele>
        <time>2013-04-30T17:17:18Z</time>
      </trkpt>
      <trkpt lat="41.541284000" lon="1.879272000">
        <ele>89.00</ele>
        <time>2013-04-30T17:17:21Z</time>
      </trkpt>
      <trkpt lat="41.541365000" lon="1.879039000">
        <ele>89.40</ele>
        <time>2013-04-30T17:17:24Z</time>
      </trkpt>
      <trkpt lat="41.541461000" lon="1.878815000">
        <ele>89.60</ele>
        <time>2013-04-30T17:17:27Z</time>
      </trkpt>
      <trkpt lat="41.541558000" lon="1.878589000">
        <ele>89.20</ele>
        <time>2013-04-30T17:17:30Z</time>
      </trkpt>
      <trkpt lat="41.541674000" lon="1.878379000">
        <ele>88.80</ele>
        <time>2013-04-30T17:17:33Z</time>
      </trkpt>
      <trkpt lat="41.541807000" lon="1.878186000">
        <ele>89.10</ele>
        <time>2013-04-30T17:17:36Z</time>
      </trkpt>
      <trkpt lat="41.541943000" lon="1.877999000">
        <ele>88.10</ele>
        <time>2013-04-30T17:17:39Z</time>
      </trkpt>
      <trkpt lat="41.542068000" lon="1.877726000">
        <ele>89.50</ele>
        <time>2013-04-30T17:17:43Z</time>
      </trkpt>
      <trkpt lat="41.542113000" lon="1.877429000">
        <ele>90.60</ele>
        <time>2013-04-30T17:17:47Z</time>
      </trkpt>
      <trkpt lat="41.542148000" lon="1.877164000">
        <ele>91.60</ele>
        <time>2013-04-30T17:17:51Z</time>
      </trkpt>
      <trkpt lat="41.542181000" lon="1.876914000">
        <ele>92.30</ele>
        <time>2013-04-30T17:17:55Z</time>
      </trkpt>
      <trkpt lat="41.542231000" lon="1.876618000">
        <ele>93.10</ele>
        <time>2013-04-30T17:18:00Z</time>
      </trkpt>
      <trkpt lat="41.542265000" lon="1.876376000">
        <ele>93.40</ele>
        <time>2013-04-30T17:18:04Z</time>
      </trkpt>
      <trkpt lat="41.542302000" lon="1.876121000">
        <ele>93.50</ele>
        <time>2013-04-30T17:18:08Z</time>
      </trkpt>
      <trkpt lat="41.542341000" lon="1.875876000">
        <ele>94.20</ele>
        <time>2013-04-30T17:18:12Z</time>
      </trkpt>
      <trkpt lat="41.542383000" lon="1.875581000">
        <ele>94.80</ele>
        <time>2013-04-30T17:18:17Z</time>
      </trkpt>
      <trkpt lat="41.542414000" lon="1.875306000">
        <ele>95.30</ele>
        <time>2013-04-30T17:18:22Z</time>
      </trkpt>
      <trkpt lat="41.542448000" lon="1.875018000">
        <ele>95.30</ele>
        <time>2013-04-30T17:18:27Z</time>
      </trkpt>
      <trkpt lat="41.542480000" lon="1.874779000">
        <ele>95.70</ele>
        <time>2013-04-30T17:18:31Z</time>
      </trkpt>
      <trkpt lat="41.542537000" lon="1.874554000">
        <ele>95.90</ele>
        <time>2013-04-30T17:18:35Z</time>
      </trkpt>
      <trkpt lat="41.542617000" lon="1.874305000">
        <ele>95.50</ele>
        <time>2013-04-30T17:18:39Z</time>
      </trkpt>
      <trkpt lat="41.542691000" lon="1.874019000">
        <ele>95.70</ele>
        <time>2013-04-30T17:18:43Z</time>
      </trkpt>
      <trkpt lat="41.542761000" lon="1.873751000">
        <ele>96.30</ele>
        <time>2013-04-30T17:18:47Z</time>
      </trkpt>
      <trkpt lat="41.542828000" lon="1.873486000">
        <ele>96.30</ele>
        <time>2013-04-30T17:18:51Z</time>
      </trkpt>
      <trkpt lat="41.542921000" lon="1.873223000">
        <ele>96.20</ele>
        <time>2013-04-30T17:18:55Z</time>
      </trkpt>
      <trkpt lat="41.543072000" lon="1.872994000">
        <ele>95.10</ele>
        <time>2013-04-30T17:18:59Z</time>
      </trkpt>
      <trkpt lat="41.543216000" lon="1.872846000">
        <ele>94.40</ele>
        <time>2013-04-30T17:19:02Z</time>
      </trkpt>
      <trkpt lat="41.543355000" lon="1.872675000">
        <ele>93.40</ele>
        <time>2013-04-30T17:19:05Z</time>
      </trkpt>
      <trkpt lat="41.543507000" lon="1.872501000">
        <ele>92.60</ele>
        <time>2013-04-30T17:19:08Z</time>
      </trkpt>
      <trkpt lat="41.543676000" lon="1.872315000">
        <ele>91.20</ele>
        <time>2013-04-30T17:19:11Z</time>
      </trkpt>
      <trkpt lat="41.543880000" lon="1.872190000">
        <ele>90.40</ele>
        <time>2013-04-30T17:19:14Z</time>
      </trkpt>
      <trkpt lat="41.544106000" lon="1.872134000">
        <ele>89.60</ele>
        <time>2013-04-30T17:19:17Z</time>
      </trkpt>
      <trkpt lat="41.544332000" lon="1.872097000">
        <ele>89.00</ele>
        <time>2013-04-30T17:19:20Z</time>
      </trkpt>
      <trkpt lat="41.544562000" lon="1.872068000">
        <ele>88.60</ele>
        <time>2013-04-30T17:19:23Z</time>
      </trkpt>
      <trkpt lat="41.544781000" lon="1.872123000">
        <ele>87.60</ele>
        <time>2013-04-30T17:19:26Z</time>
      </trkpt>
      <trkpt lat="41.544979000" lon="1.872224000">
        <ele>88.80</ele>
        <time>2013-04-30T17:19:29Z</time>
      </trkpt>
      <trkpt lat="41.545185000" lon="1.872273000">
        <ele>88.20</ele>
        <time>2013-04-30T17:19:32Z</time>
      </trkpt>
      <trkpt lat="41.545385000" lon="1.872246000">
        <ele>89.20</ele>
        <time>2013-04-30T17:19:35Z</time>
      </trkpt>
      <trkpt lat="41.545563000" lon="1.872157000">
        <ele>90.10</ele>
        <time>2013-04-30T17:19:38Z</time>
      </trkpt>
      <trkpt lat="41.545736000" lon="1.872048000">
        <ele>89.60</ele>
        <time>2013-04-30T17:19:41Z</time>
      </trkpt>
      <trkpt lat="41.545903000" lon="1.871929000">
        <ele>89.80</ele>
        <time>2013-04-30T17:19:44Z</time>
      </trkpt>
      <trkpt lat="41.546080000" lon="1.871837000">
        <ele>89.70</ele>
        <time>2013-04-30T17:19:47Z</time>
      </trkpt>
      <trkpt lat="41.546261000" lon="1.871819000">
        <ele>89.50</ele>
        <time>2013-04-30T17:19:50Z</time>
      </trkpt>
      <trkpt lat="41.546500000" lon="1.871867000">
        <ele>89.30</ele>
        <time>2013-04-30T17:19:54Z</time>
      </trkpt>
      <trkpt lat="41.546731000" lon="1.871918000">
        <ele>88.70</ele>
        <time>2013-04-30T17:19:58Z</time>
      </trkpt>
      <trkpt lat="41.546913000" lon="1.871949000">
        <ele>88.90</ele>
        <time>2013-04-30T17:20:01Z</time>
      </trkpt>
      <trkpt lat="41.547095000" lon="1.871977000">
        <ele>88.70</ele>
        <time>2013-04-30T17:20:04Z</time>
      </trkpt>
      <trkpt lat="41.547351000" lon="1.871923000">
        <ele>88.50</ele>
        <time>2013-04-30T17:20:08Z</time>
      </trkpt>
      <trkpt lat="41.547542000" lon="1.871846000">
        <ele>87.90</ele>
        <time>2013-04-30T17:20:11Z</time>
      </trkpt>
      <trkpt lat="41.547693000" lon="1.871681000">
        <ele>88.50</ele>
        <time>2013-04-30T17:20:14Z</time>
      </trkpt>
      <trkpt lat="41.547866000" lon="1.871473000">
        <ele>89.10</ele>
        <time>2013-04-30T17:20:18Z</time>
      </trkpt>
      <trkpt lat="41.548008000" lon="1.871293000">
        <ele>90.50</ele>
        <time>2013-04-30T17:20:22Z</time>
      </trkpt>
      <trkpt lat="41.548168000" lon="1.871100000">
        <ele>91.60</ele>
        <time>2013-04-30T17:20:27Z</time>
      </trkpt>
      <trkpt lat="41.548331000" lon="1.870925000">
        <ele>92.20</ele>
        <time>2013-04-30T17:20:32Z</time>
      </trkpt>
      <trkpt lat="41.548484000" lon="1.870744000">
        <ele>93.10</ele>
        <time>2013-04-30T17:20:37Z</time>
      </trkpt>
      <trkpt lat="41.548639000" lon="1.870567000">
        <ele>94.00</ele>
        <time>2013-04-30T17:20:42Z</time>
      </trkpt>
      <trkpt lat="41.548781000" lon="1.870390000">
        <ele>95.30</ele>
        <time>2013-04-30T17:20:47Z</time>
      </trkpt>
      <trkpt lat="41.548928000" lon="1.870316000">
        <ele>96.80</ele>
        <time>2013-04-30T17:20:53Z</time>
      </trkpt>
      <trkpt lat="41.549062000" lon="1.870290000">
        <ele>97.20</ele>
        <time>2013-04-30T17:21:02Z</time>
      </trkpt>
      <trkpt lat="41.549215000" lon="1.870111000">
        <ele>97.60</ele>
        <time>2013-04-30T17:21:10Z</time>
      </trkpt>
      <trkpt lat="41.549348000" lon="1.869915000">
        <ele>98.30</ele>
        <time>2013-04-30T17:21:17Z</time>
      </trkpt>
      <trkpt lat="41.549477000" lon="1.869723000">
        <ele>99.00</ele>
        <time>2013-04-30T17:21:24Z</time>
      </trkpt>
      <trkpt lat="41.549594000" lon="1.869503000">
        <ele>100.30</ele>
        <time>2013-04-30T17:21:31Z</time>
      </trkpt>
      <trkpt lat="41.549697000" lon="1.869266000">
        <ele>101.90</ele>
        <time>2013-04-30T17:21:38Z</time>
      </trkpt>
      <trkpt lat="41.549809000" lon="1.869042000">
        <ele>103.20</ele>
        <time>2013-04-30T17:21:45Z</time>
      </trkpt>
      <trkpt lat="41.549907000" lon="1.868830000">
        <ele>104.30</ele>
        <time>2013-04-30T17:21:51Z</time>
      </trkpt>
      <trkpt lat="41.550018000" lon="1.868631000">
        <ele>105.10</ele>
        <time>2013-04-30T17:21:57Z</time>
      </trkpt>
      <trkpt lat="41.550138000" lon="1.868429000">
        <ele>106.00</ele>
        <time>2013-04-30T17:22:03Z</time>
      </trkpt>
      <trkpt lat="41.550297000" lon="1.868271000">
        <ele>107.70</ele>
        <time>2013-04-30T17:22:10Z</time>
      </trkpt>
      <trkpt lat="41.550423000" lon="1.868202000">
        <ele>109.10</ele>
        <time>2013-04-30T17:22:28Z</time>
      </trkpt>
      <trkpt lat="41.550534000" lon="1.867995000">
        <ele>108.80</ele>
        <time>2013-04-30T17:22:44Z</time>
      </trkpt>
      <trkpt lat="41.550703000" lon="1.867804000">
        <ele>108.90</ele>
        <time>2013-04-30T17:22:52Z</time>
      </trkpt>
      <trkpt lat="41.550787000" lon="1.867580000">
        <ele>109.90</ele>
        <time>2013-04-30T17:23:00Z</time>
      </trkpt>
      <trkpt lat="41.550950000" lon="1.867416000">
        <ele>111.20</ele>
        <time>2013-04-30T17:23:09Z</time>
      </trkpt>
      <trkpt lat="41.551132000" lon="1.867231000">
        <ele>112.30</ele>
        <time>2013-04-30T17:23:18Z</time>
      </trkpt>
      <trkpt lat="41.551273000" lon="1.867075000">
        <ele>113.00</ele>
        <time>2013-04-30T17:23:26Z</time>
      </trkpt>
      <trkpt lat="41.551386000" lon="1.866882000">
        <ele>114.30</ele>
        <time>2013-04-30T17:23:34Z</time>
      </trkpt>
      <trkpt lat="41.551538000" lon="1.866711000">
        <ele>115.30</ele>
        <time>2013-04-30T17:23:43Z</time>
      </trkpt>
      <trkpt lat="41.551691000" lon="1.866531000">
        <ele>116.40</ele>
        <time>2013-04-30T17:23:52Z</time>
      </trkpt>
      <trkpt lat="41.551866000" lon="1.866369000">
        <ele>117.40</ele>
        <time>2013-04-30T17:24:01Z</time>
      </trkpt>
      <trkpt lat="41.551975000" lon="1.866188000">
        <ele>118.50</ele>
        <time>2013-04-30T17:24:09Z</time>
      </trkpt>
      <trkpt lat="41.552020000" lon="1.865943000">
        <ele>119.60</ele>
        <time>2013-04-30T17:24:17Z</time>
      </trkpt>
      <trkpt lat="41.552120000" lon="1.865730000">
        <ele>120.90</ele>
        <time>2013-04-30T17:24:25Z</time>
      </trkpt>
      <trkpt lat="41.552230000" lon="1.865544000">
        <ele>121.80</ele>
        <time>2013-04-30T17:24:33Z</time>
      </trkpt>
      <trkpt lat="41.552371000" lon="1.865365000">
        <ele>122.80</ele>
        <time>2013-04-30T17:24:41Z</time>
      </trkpt>
      <trkpt lat="41.552511000" lon="1.865156000">
        <ele>123.90</ele>
        <time>2013-04-30T17:24:50Z</time>
      </trkpt>
      <trkpt lat="41.552656000" lon="1.864966000">
        <ele>124.80</ele>
        <time>2013-04-30T17:24:59Z</time>
      </trkpt>
      <trkpt lat="41.552809000" lon="1.864801000">
        <ele>126.00</ele>
        <time>2013-04-30T17:25:08Z</time>
      </trkpt>
      <trkpt lat="41.552926000" lon="1.864596000">
        <ele>126.90</ele>
        <time>2013-04-30T17:25:16Z</time>
      </trkpt>
      <trkpt lat="41.553018000" lon="1.864375000">
        <ele>127.70</ele>
        <time>2013-04-30T17:25:24Z</time>
      </trkpt>
      <trkpt lat="41.553076000" lon="1.864140000">
        <ele>128.60</ele>
        <time>2013-04-30T17:25:32Z</time>
      </trkpt>
      <trkpt lat="41.553087000" lon="1.863888000">
        <ele>129.50</ele>
        <time>2013-04-30T17:25:40Z</time>
      </trkpt>
      <trkpt lat="41.553130000" lon="1.863640000">
        <ele>130.80</ele>
        <time>2013-04-30T17:25:48Z</time>
      </trkpt>
      <trkpt lat="41.553180000" lon="1.863406000">
        <ele>131.80</ele>
        <time>2013-04-30T17:25:56Z</time>
      </trkpt>
      <trkpt lat="41.553238000" lon="1.863163000">
        <ele>132.80</ele>
        <time>2013-04-30T17:26:05Z</time>
      </trkpt>
      <trkpt lat="41.553281000" lon="1.862896000">
        <ele>133.90</ele>
        <time>2013-04-30T17:26:14Z</time>
      </trkpt>
      <trkpt lat="41.553299000" lon="1.862632000">
        <ele>134.70</ele>
        <time>2013-04-30T17:26:23Z</time>
      </trkpt>
      <trkpt lat="41.553369000" lon="1.862406000">
        <ele>136.00</ele>
        <time>2013-04-30T17:26:32Z</time>
      </trkpt>
      <trkpt lat="41.553412000" lon="1.862125000">
        <ele>136.90</ele>
        <time>2013-04-30T17:26:41Z</time>
      </trkpt>
      <trkpt lat="41.553433000" lon="1.861868000">
        <ele>138.20</ele>
        <time>2013-04-30T17:26:50Z</time>
      </trkpt>
      <trkpt lat="41.553411000" lon="1.861637000">
        <ele>139.10</ele>
        <time>2013-04-30T17:26:58Z</time>
      </trkpt>
      <trkpt lat="41.553422000" lon="1.861383000">
        <ele>141.30</ele>
        <time>2013-04-30T17:27:09Z</time>
      </trkpt>
      <trkpt lat="41.553512000" lon="1.861157000">
        <ele>143.50</ele>
        <time>2013-04-30T17:27:18Z</time>
      </trkpt>
      <trkpt lat="41.553653000" lon="1.861020000">
        <ele>145.80</ele>
        <time>2013-04-30T17:27:31Z</time>
      </trkpt>
      <trkpt lat="41.553726000" lon="1.860776000">
        <ele>148.20</ele>
        <time>2013-04-30T17:27:44Z</time>
      </trkpt>
      <trkpt lat="41.553822000" lon="1.860934000">
        <ele>149.80</ele>
        <time>2013-04-30T17:27:56Z</time>
      </trkpt>
      <trkpt lat="41.553823000" lon="1.861181000">
        <ele>151.30</ele>
        <time>2013-04-30T17:28:07Z</time>
      </trkpt>
      <trkpt lat="41.553827000" lon="1.861418000">
        <ele>153.00</ele>
        <time>2013-04-30T17:28:17Z</time>
      </trkpt>
      <trkpt lat="41.553824000" lon="1.861692000">
        <ele>154.60</ele>
        <time>2013-04-30T17:28:28Z</time>
      </trkpt>
      <trkpt lat="41.553846000" lon="1.861953000">
        <ele>155.90</ele>
        <time>2013-04-30T17:28:38Z</time>
      </trkpt>
      <trkpt lat="41.553860000" lon="1.862196000">
        <ele>157.50</ele>
        <time>2013-04-30T17:28:48Z</time>
      </trkpt>
      <trkpt lat="41.553936000" lon="1.862355000">
        <ele>161.20</ele>
        <time>2013-04-30T17:29:00Z</time>
      </trkpt>
      <trkpt lat="41.554034000" lon="1.862157000">
        <ele>164.20</ele>
        <time>2013-04-30T17:29:12Z</time>
      </trkpt>
      <trkpt lat="41.554160000" lon="1.862023000">
        <ele>166.80</ele>
        <time>2013-04-30T17:29:23Z</time>
      </trkpt>
      <trkpt lat="41.554142000" lon="1.862292000">
        <ele>168.70</ele>
        <time>2013-04-30T17:29:33Z</time>
      </trkpt>
      <trkpt lat="41.554164000" lon="1.862541000">
        <ele>169.70</ele>
        <time>2013-04-30T17:29:44Z</time>
      </trkpt>
      <trkpt lat="41.554287000" lon="1.862504000">
        <ele>171.50</ele>
        <time>2013-04-30T17:29:54Z</time>
      </trkpt>
      <trkpt lat="41.554303000" lon="1.862236000">
        <ele>173.30</ele>
        <time>2013-04-30T17:30:04Z</time>
      </trkpt>
      <trkpt lat="41.554317000" lon="1.861971000">
        <ele>174.40</ele>
        <time>2013-04-30T17:30:14Z</time>
      </trkpt>
      <trkpt lat="41.554323000" lon="1.861727000">
        <ele>175.70</ele>
        <time>2013-04-30T17:30:23Z</time>
      </trkpt>
      <trkpt lat="41.554363000" lon="1.861474000">
        <ele>177.10</ele>
        <time>2013-04-30T17:30:32Z</time>
      </trkpt>
      <trkpt lat="41.554416000" lon="1.861218000">
        <ele>178.70</ele>
        <time>2013-04-30T17:30:41Z</time>
      </trkpt>
      <trkpt lat="41.554478000" lon="1.860986000">
        <ele>180.50</ele>
        <time>2013-04-30T17:30:50Z</time>
      </trkpt>
      <trkpt lat="41.554551000" lon="1.861153000">
        <ele>182.40</ele>
        <time>2013-04-30T17:31:00Z</time>
      </trkpt>
      <trkpt lat="41.554578000" lon="1.861377000">
        <ele>183.50</ele>
        <time>2013-04-30T17:31:10Z</time>
      </trkpt>
      <trkpt lat="41.554663000" lon="1.861602000">
        <ele>184.90</ele>
        <time>2013-04-30T17:31:20Z</time>
      </trkpt>
      <trkpt lat="41.554711000" lon="1.861856000">
        <ele>186.50</ele>
        <time>2013-04-30T17:31:30Z</time>
      </trkpt>
      <trkpt lat="41.554718000" lon="1.862109000">
        <ele>187.80</ele>
        <time>2013-04-30T17:31:40Z</time>
      </trkpt>
      <trkpt lat="41.554715000" lon="1.862364000">
        <ele>190.40</ele>
        <time>2013-04-30T17:31:50Z</time>
      </trkpt>
      <trkpt lat="41.554666000" lon="1.862637000">
        <ele>191.90</ele>
        <time>2013-04-30T17:32:00Z</time>
      </trkpt>
      <trkpt lat="41.554768000" lon="1.862612000">
        <ele>193.10</ele>
        <time>2013-04-30T17:32:10Z</time>
      </trkpt>
      <trkpt lat="41.554806000" lon="1.862361000">
        <ele>194.80</ele>
        <time>2013-04-30T17:32:20Z</time>
      </trkpt>
      <trkpt lat="41.554880000" lon="1.862122000">
        <ele>195.90</ele>
        <time>2013-04-30T17:32:30Z</time>
      </trkpt>
      <trkpt lat="41.554949000" lon="1.861883000">
        <ele>197.20</ele>
        <time>2013-04-30T17:32:40Z</time>
      </trkpt>
      <trkpt lat="41.554996000" lon="1.861641000">
        <ele>198.40</ele>
        <time>2013-04-30T17:32:49Z</time>
      </trkpt>
      <trkpt lat="41.554970000" lon="1.861398000">
        <ele>199.50</ele>
        <time>2013-04-30T17:32:58Z</time>
      </trkpt>
      <trkpt lat="41.554973000" lon="1.861170000">
        <ele>200.60</ele>
        <time>2013-04-30T17:33:07Z</time>
      </trkpt>
      <trkpt lat="41.555033000" lon="1.860928000">
        <ele>202.00</ele>
        <time>2013-04-30T17:33:17Z</time>
      </trkpt>
      <trkpt lat="41.555085000" lon="1.860696000">
        <ele>203.40</ele>
        <time>2013-04-30T17:33:26Z</time>
      </trkpt>
      <trkpt lat="41.555113000" lon="1.860444000">
        <ele>205.60</ele>
        <time>2013-04-30T17:33:35Z</time>
      </trkpt>
      <trkpt lat="41.555250000" lon="1.860340000">
        <ele>208.10</ele>
        <time>2013-04-30T17:33:45Z</time>
      </trkpt>
      <trkpt lat="41.555283000" lon="1.860581000">
        <ele>210.30</ele>
        <time>2013-04-30T17:33:55Z</time>
      </trkpt>
      <trkpt lat="41.555295000" lon="1.860838000">
        <ele>212.40</ele>
        <time>2013-04-30T17:34:05Z</time>
      </trkpt>
      <trkpt lat="41.555364000" lon="1.861089000">
        <ele>213.90</ele>
        <time>2013-04-30T17:34:15Z</time>
      </trkpt>
      <trkpt lat="41.555541000" lon="1.861164000">
        <ele>215.90</ele>
        <time>2013-04-30T17:34:24Z</time>
      </trkpt>
      <trkpt lat="41.555652000" lon="1.860972000">
        <ele>219.30</ele>
        <time>2013-04-30T17:34:32Z</time>
      </trkpt>
      <trkpt lat="41.555728000" lon="1.860735000">
        <ele>223.00</ele>
        <time>2013-04-30T17:34:41Z</time>
      </trkpt>
      <trkpt lat="41.555829000" lon="1.860535000">
        <ele>225.60</ele>
        <time>2013-04-30T17:34:51Z</time>
      </trkpt>
      <trkpt lat="41.555951000" lon="1.860343000">
        <ele>227.80</ele>
        <time>2013-04-30T17:35:01Z</time>
      </trkpt>
      <trkpt lat="41.556043000" lon="1.860126000">
        <ele>230.70</ele>
        <time>2013-04-30T17:35:11Z</time>
      </trkpt>
      <trkpt lat="41.555995000" lon="1.859896000">
        <ele>233.20</ele>
        <time>2013-04-30T17:35:20Z</time>
      </trkpt>
      <trkpt lat="41.555922000" lon="1.859689000">
        <ele>236.80</ele>
        <time>2013-04-30T17:35:29Z</time>
      </trkpt>
      <trkpt lat="41.555971000" lon="1.859473000">
        <ele>237.60</ele>
        <time>2013-04-30T17:35:42Z</time>
      </trkpt>
      <trkpt lat="41.556044000" lon="1.859239000">
        <ele>240.00</ele>
        <time>2013-04-30T17:35:59Z</time>
      </trkpt>
      <trkpt lat="41.556122000" lon="1.859021000">
        <ele>240.60</ele>
        <time>2013-04-30T17:36:15Z</time>
      </trkpt>
      <trkpt lat="41.556197000" lon="1.858804000">
        <ele>240.10</ele>
        <time>2013-04-30T17:36:26Z</time>
      </trkpt>
      <trkpt lat="41.556218000" lon="1.858576000">
        <ele>240.90</ele>
        <time>2013-04-30T17:36:42Z</time>
      </trkpt>
      <trkpt lat="41.556256000" lon="1.858331000">
        <ele>238.80</ele>
        <time>2013-04-30T17:36:56Z</time>
      </trkpt>
      <trkpt lat="41.556309000" lon="1.858036000">
        <ele>237.80</ele>
        <time>2013-04-30T17:37:02Z</time>
      </trkpt>
      <trkpt lat="41.556394000" lon="1.857766000">
        <ele>233.80</ele>
        <time>2013-04-30T17:37:06Z</time>
      </trkpt>
      <trkpt lat="41.556536000" lon="1.857556000">
        <ele>229.50</ele>
        <time>2013-04-30T17:37:09Z</time>
      </trkpt>
      <trkpt lat="41.556733000" lon="1.857390000">
        <ele>225.00</ele>
        <time>2013-04-30T17:37:12Z</time>
      </trkpt>
      <trkpt lat="41.556911000" lon="1.857163000">
        <ele>222.40</ele>
        <time>2013-04-30T17:37:15Z</time>
      </trkpt>
      <trkpt lat="41.557021000" lon="1.856866000">
        <ele>222.30</ele>
        <time>2013-04-30T17:37:18Z</time>
      </trkpt>
      <trkpt lat="41.557174000" lon="1.856620000">
        <ele>222.00</ele>
        <time>2013-04-30T17:37:21Z</time>
      </trkpt>
      <trkpt lat="41.557339000" lon="1.856504000">
        <ele>220.40</ele>
        <time>2013-04-30T17:37:24Z</time>
      </trkpt>
      <trkpt lat="41.557536000" lon="1.856459000">
        <ele>216.90</ele>
        <time>2013-04-30T17:37:28Z</time>
      </trkpt>
      <trkpt lat="41.557679000" lon="1.856332000">
        <ele>218.10</ele>
        <time>2013-04-30T17:37:32Z</time>
      </trkpt>
      <trkpt lat="41.557548000" lon="1.856158000">
        <ele>222.90</ele>
        <time>2013-04-30T17:37:39Z</time>
      </trkpt>
      <trkpt lat="41.557378000" lon="1.856048000">
        <ele>224.70</ele>
        <time>2013-04-30T17:37:48Z</time>
      </trkpt>
      <trkpt lat="41.557215000" lon="1.855937000">
        <ele>226.60</ele>
        <time>2013-04-30T17:37:58Z</time>
      </trkpt>
      <trkpt lat="41.557027000" lon="1.855932000">
        <ele>227.50</ele>
        <time>2013-04-30T17:38:08Z</time>
      </trkpt>
      <trkpt lat="41.556844000" lon="1.855986000">
        <ele>230.70</ele>
        <time>2013-04-30T17:38:18Z</time>
      </trkpt>
      <trkpt lat="41.556685000" lon="1.856088000">
        <ele>232.40</ele>
        <time>2013-04-30T17:38:27Z</time>
      </trkpt>
      <trkpt lat="41.556510000" lon="1.856204000">
        <ele>233.50</ele>
        <time>2013-04-30T17:38:36Z</time>
      </trkpt>
      <trkpt lat="41.556344000" lon="1.856307000">
        <ele>234.90</ele>
        <time>2013-04-30T17:38:44Z</time>
      </trkpt>
      <trkpt lat="41.556149000" lon="1.856313000">
        <ele>236.80</ele>
        <time>2013-04-30T17:38:53Z</time>
      </trkpt>
      <trkpt lat="41.556063000" lon="1.856143000">
        <ele>238.40</ele>
        <time>2013-04-30T17:39:03Z</time>
      </trkpt>
      <trkpt lat="41.556131000" lon="1.855916000">
        <ele>239.60</ele>
        <time>2013-04-30T17:39:11Z</time>
      </trkpt>
      <trkpt lat="41.556171000" lon="1.855679000">
        <ele>240.40</ele>
        <time>2013-04-30T17:39:19Z</time>
      </trkpt>
      <trkpt lat="41.556252000" lon="1.855437000">
        <ele>241.10</ele>
        <time>2013-04-30T17:39:28Z</time>
      </trkpt>
      <trkpt lat="41.556354000" lon="1.855228000">
        <ele>242.10</ele>
        <time>2013-04-30T17:39:36Z</time>
      </trkpt>
      <trkpt lat="41.556494000" lon="1.855042000">
        <ele>242.90</ele>
        <time>2013-04-30T17:39:45Z</time>
      </trkpt>
      <trkpt lat="41.556558000" lon="1.854814000">
        <ele>242.50</ele>
        <time>2013-04-30T17:39:52Z</time>
      </trkpt>
      <trkpt lat="41.556642000" lon="1.854585000">
        <ele>243.80</ele>
        <time>2013-04-30T17:39:59Z</time>
      </trkpt>
      <trkpt lat="41.556803000" lon="1.854479000">
        <ele>245.00</ele>
        <time>2013-04-30T17:40:08Z</time>
      </trkpt>
      <trkpt lat="41.556910000" lon="1.854260000">
        <ele>244.70</ele>
        <time>2013-04-30T17:40:16Z</time>
      </trkpt>
      <trkpt lat="41.556874000" lon="1.854032000">
        <ele>245.10</ele>
        <time>2013-04-30T17:40:22Z</time>
      </trkpt>
      <trkpt lat="41.556716000" lon="1.854030000">
        <ele>246.60</ele>
        <time>2013-04-30T17:40:29Z</time>
      </trkpt>
      <trkpt lat="41.556542000" lon="1.853969000">
        <ele>247.50</ele>
        <time>2013-04-30T17:40:37Z</time>
      </trkpt>
      <trkpt lat="41.556360000" lon="1.854011000">
        <ele>248.20</ele>
        <time>2013-04-30T17:40:45Z</time>
      </trkpt>
      <trkpt lat="41.556206000" lon="1.854141000">
        <ele>248.70</ele>
        <time>2013-04-30T17:40:52Z</time>
      </trkpt>
      <trkpt lat="41.556041000" lon="1.854251000">
        <ele>249.30</ele>
        <time>2013-04-30T17:41:00Z</time>
      </trkpt>
      <trkpt lat="41.555918000" lon="1.854048000">
        <ele>250.90</ele>
        <time>2013-04-30T17:41:08Z</time>
      </trkpt>
      <trkpt lat="41.555890000" lon="1.853808000">
        <ele>253.10</ele>
        <time>2013-04-30T17:41:17Z</time>
      </trkpt>
      <trkpt lat="41.555836000" lon="1.853566000">
        <ele>249.90</ele>
        <time>2013-04-30T17:41:22Z</time>
      </trkpt>
      <trkpt lat="41.555710000" lon="1.853389000">
        <ele>251.70</ele>
        <time>2013-04-30T17:41:27Z</time>
      </trkpt>
      <trkpt lat="41.555539000" lon="1.853347000">
        <ele>253.80</ele>
        <time>2013-04-30T17:41:33Z</time>
      </trkpt>
      <trkpt lat="41.555492000" lon="1.853299000">
        <ele>256.30</ele>
        <time>2013-04-30T17:43:12Z</time>
      </trkpt>
      <trkpt lat="41.555296000" lon="1.853240000">
        <ele>255.30</ele>
        <time>2013-04-30T17:43:23Z</time>
      </trkpt>
      <trkpt lat="41.555107000" lon="1.853195000">
        <ele>255.30</ele>
        <time>2013-04-30T17:43:33Z</time>
      </trkpt>
      <trkpt lat="41.554902000" lon="1.853230000">
        <ele>254.00</ele>
        <time>2013-04-30T17:43:39Z</time>
      </trkpt>
      <trkpt lat="41.554711000" lon="1.853262000">
        <ele>253.20</ele>
        <time>2013-04-30T17:43:44Z</time>
      </trkpt>
      <trkpt lat="41.554511000" lon="1.853257000">
        <ele>252.50</ele>
        <time>2013-04-30T17:43:49Z</time>
      </trkpt>
      <trkpt lat="41.554295000" lon="1.853267000">
        <ele>252.80</ele>
        <time>2013-04-30T17:43:55Z</time>
      </trkpt>
      <trkpt lat="41.554085000" lon="1.853273000">
        <ele>251.40</ele>
        <time>2013-04-30T17:44:01Z</time>
      </trkpt>
      <trkpt lat="41.553912000" lon="1.853212000">
        <ele>252.40</ele>
        <time>2013-04-30T17:44:07Z</time>
      </trkpt>
      <trkpt lat="41.553809000" lon="1.853010000">
        <ele>248.90</ele>
        <time>2013-04-30T17:44:13Z</time>
      </trkpt>
      <trkpt lat="41.553822000" lon="1.852766000">
        <ele>246.40</ele>
        <time>2013-04-30T17:44:17Z</time>
      </trkpt>
      <trkpt lat="41.553904000" lon="1.852456000">
        <ele>245.80</ele>
        <time>2013-04-30T17:44:21Z</time>
      </trkpt>
      <trkpt lat="41.554040000" lon="1.852189000">
        <ele>245.40</ele>
        <time>2013-04-30T17:44:25Z</time>
      </trkpt>
      <trkpt lat="41.554127000" lon="1.851943000">
        <ele>245.70</ele>
        <time>2013-04-30T17:44:29Z</time>
      </trkpt>
      <trkpt lat="41.554156000" lon="1.851630000">
        <ele>244.70</ele>
        <time>2013-04-30T17:44:34Z</time>
      </trkpt>
      <trkpt lat="41.554203000" lon="1.851363000">
        <ele>243.50</ele>
        <time>2013-04-30T17:44:38Z</time>
      </trkpt>
      <trkpt lat="41.554109000" lon="1.851116000">
        <ele>242.70</ele>
        <time>2013-04-30T17:44:42Z</time>
      </trkpt>
      <trkpt lat="41.554033000" lon="1.850883000">
        <ele>243.20</ele>
        <time>2013-04-30T17:44:46Z</time>
      </trkpt>
      <trkpt lat="41.554063000" lon="1.850617000">
        <ele>245.70</ele>
        <time>2013-04-30T17:44:51Z</time>
      </trkpt>
      <trkpt lat="41.554029000" lon="1.850352000">
        <ele>248.00</ele>
        <time>2013-04-30T17:45:01Z</time>
      </trkpt>
      <trkpt lat="41.553943000" lon="1.850455000">
        <ele>247.80</ele>
        <time>2013-04-30T17:45:09Z</time>
      </trkpt>
      <trkpt lat="41.553784000" lon="1.850706000">
        <ele>245.70</ele>
        <time>2013-04-30T17:45:17Z</time>
      </trkpt>
      <trkpt lat="41.553632000" lon="1.850930000">
        <ele>243.50</ele>
        <time>2013-04-30T17:45:22Z</time>
      </trkpt>
      <trkpt lat="41.553455000" lon="1.850982000">
        <ele>242.40</ele>
        <time>2013-04-30T17:45:28Z</time>
      </trkpt>
      <trkpt lat="41.553339000" lon="1.850756000">
        <ele>240.20</ele>
        <time>2013-04-30T17:45:36Z</time>
      </trkpt>
      <trkpt lat="41.553261000" lon="1.850472000">
        <ele>236.50</ele>
        <time>2013-04-30T17:45:41Z</time>
      </trkpt>
      <trkpt lat="41.553258000" lon="1.850222000">
        <ele>236.60</ele>
        <time>2013-04-30T17:45:45Z</time>
      </trkpt>
      <trkpt lat="41.553281000" lon="1.849959000">
        <ele>236.70</ele>
        <time>2013-04-30T17:45:50Z</time>
      </trkpt>
      <trkpt lat="41.553305000" lon="1.849685000">
        <ele>237.20</ele>
        <time>2013-04-30T17:45:55Z</time>
      </trkpt>
      <trkpt lat="41.553318000" lon="1.849444000">
        <ele>237.80</ele>
        <time>2013-04-30T17:46:00Z</time>
      </trkpt>
      <trkpt lat="41.553482000" lon="1.849313000">
        <ele>238.80</ele>
        <time>2013-04-30T17:46:06Z</time>
      </trkpt>
      <trkpt lat="41.553674000" lon="1.849366000">
        <ele>239.00</ele>
        <time>2013-04-30T17:46:12Z</time>
      </trkpt>
      <trkpt lat="41.553854000" lon="1.849295000">
        <ele>239.30</ele>
        <time>2013-04-30T17:46:18Z</time>
      </trkpt>
      <trkpt lat="41.554002000" lon="1.849133000">
        <ele>239.80</ele>
        <time>2013-04-30T17:46:24Z</time>
      </trkpt>
      <trkpt lat="41.554149000" lon="1.848967000">
        <ele>240.40</ele>
        <time>2013-04-30T17:46:30Z</time>
      </trkpt>
      <trkpt lat="41.554294000" lon="1.848782000">
        <ele>241.30</ele>
        <time>2013-04-30T17:46:36Z</time>
      </trkpt>
      <trkpt lat="41.554445000" lon="1.848625000">
        <ele>242.10</ele>
        <time>2013-04-30T17:46:43Z</time>
      </trkpt>
      <trkpt lat="41.554544000" lon="1.848378000">
        <ele>242.60</ele>
        <time>2013-04-30T17:46:56Z</time>
      </trkpt>
      <trkpt lat="41.554455000" lon="1.848143000">
        <ele>241.60</ele>
        <time>2013-04-30T17:47:02Z</time>
      </trkpt>
      <trkpt lat="41.554358000" lon="1.847887000">
        <ele>242.40</ele>
        <time>2013-04-30T17:47:08Z</time>
      </trkpt>
      <trkpt lat="41.554294000" lon="1.847672000">
        <ele>242.40</ele>
        <time>2013-04-30T17:47:13Z</time>
      </trkpt>
      <trkpt lat="41.554243000" lon="1.847444000">
        <ele>242.20</ele>
        <time>2013-04-30T17:47:18Z</time>
      </trkpt>
      <trkpt lat="41.554153000" lon="1.847234000">
        <ele>242.90</ele>
        <time>2013-04-30T17:47:23Z</time>
      </trkpt>
      <trkpt lat="41.554042000" lon="1.846993000">
        <ele>242.70</ele>
        <time>2013-04-30T17:47:29Z</time>
      </trkpt>
      <trkpt lat="41.553890000" lon="1.846809000">
        <ele>243.10</ele>
        <time>2013-04-30T17:47:35Z</time>
      </trkpt>
      <trkpt lat="41.553727000" lon="1.846663000">
        <ele>243.20</ele>
        <time>2013-04-30T17:47:41Z</time>
      </trkpt>
      <trkpt lat="41.553665000" lon="1.846415000">
        <ele>243.70</ele>
        <time>2013-04-30T17:47:47Z</time>
      </trkpt>
      <trkpt lat="41.553669000" lon="1.846173000">
        <ele>243.10</ele>
        <time>2013-04-30T17:47:52Z</time>
      </trkpt>
      <trkpt lat="41.553679000" lon="1.845925000">
        <ele>242.90</ele>
        <time>2013-04-30T17:47:57Z</time>
      </trkpt>
      <trkpt lat="41.553685000" lon="1.845649000">
        <ele>243.30</ele>
        <time>2013-04-30T17:48:03Z</time>
      </trkpt>
      <trkpt lat="41.553712000" lon="1.845404000">
        <ele>245.30</ele>
        <time>2013-04-30T17:48:09Z</time>
      </trkpt>
      <trkpt lat="41.553756000" lon="1.845135000">
        <ele>246.80</ele>
        <time>2013-04-30T17:48:16Z</time>
      </trkpt>
      <trkpt lat="41.553794000" lon="1.844869000">
        <ele>247.10</ele>
        <time>2013-04-30T17:48:23Z</time>
      </trkpt>
      <trkpt lat="41.553827000" lon="1.844627000">
        <ele>248.20</ele>
        <time>2013-04-30T17:48:29Z</time>
      </trkpt>
      <trkpt lat="41.553867000" lon="1.844396000">
        <ele>249.10</ele>
        <time>2013-04-30T17:48:35Z</time>
      </trkpt>
      <trkpt lat="41.553911000" lon="1.844131000">
        <ele>249.10</ele>
        <time>2013-04-30T17:48:42Z</time>
      </trkpt>
      <trkpt lat="41.553948000" lon="1.843859000">
        <ele>249.60</ele>
        <time>2013-04-30T17:48:49Z</time>
      </trkpt>
      <trkpt lat="41.553983000" lon="1.843586000">
        <ele>250.40</ele>
        <time>2013-04-30T17:48:56Z</time>
      </trkpt>
      <trkpt lat="41.554025000" lon="1.843315000">
        <ele>251.20</ele>
        <time>2013-04-30T17:49:03Z</time>
      </trkpt>
      <trkpt lat="41.554100000" lon="1.843062000">
        <ele>252.40</ele>
        <time>2013-04-30T17:49:10Z</time>
      </trkpt>
      <trkpt lat="41.554185000" lon="1.842849000">
        <ele>253.20</ele>
        <time>2013-04-30T17:49:16Z</time>
      </trkpt>
      <trkpt lat="41.554285000" lon="1.842620000">
        <ele>253.80</ele>
        <time>2013-04-30T17:49:22Z</time>
      </trkpt>
      <trkpt lat="41.554380000" lon="1.842377000">
        <ele>254.00</ele>
        <time>2013-04-30T17:49:28Z</time>
      </trkpt>
      <trkpt lat="41.554476000" lon="1.842144000">
        <ele>255.00</ele>
        <time>2013-04-30T17:49:34Z</time>
      </trkpt>
      <trkpt lat="41.554553000" lon="1.841908000">
        <ele>255.60</ele>
        <time>2013-04-30T17:49:40Z</time>
      </trkpt>
      <trkpt lat="41.554567000" lon="1.841638000">
        <ele>256.80</ele>
        <time>2013-04-30T17:49:46Z</time>
      </trkpt>
      <trkpt lat="41.554663000" lon="1.841408000">
        <ele>257.60</ele>
        <time>2013-04-30T17:49:52Z</time>
      </trkpt>
      <trkpt lat="41.554751000" lon="1.841191000">
        <ele>258.20</ele>
        <time>2013-04-30T17:49:58Z</time>
      </trkpt>
      <trkpt lat="41.554845000" lon="1.840958000">
        <ele>258.30</ele>
        <time>2013-04-30T17:50:04Z</time>
      </trkpt>
      <trkpt lat="41.554938000" lon="1.840722000">
        <ele>259.00</ele>
        <time>2013-04-30T17:50:10Z</time>
      </trkpt>
      <trkpt lat="41.555026000" lon="1.840495000">
        <ele>259.80</ele>
        <time>2013-04-30T17:50:16Z</time>
      </trkpt>
      <trkpt lat="41.555090000" lon="1.840246000">
        <ele>260.30</ele>
        <time>2013-04-30T17:50:22Z</time>
      </trkpt>
      <trkpt lat="41.555168000" lon="1.840017000">
        <ele>261.30</ele>
        <time>2013-04-30T17:50:28Z</time>
      </trkpt>
      <trkpt lat="41.555101000" lon="1.839764000">
        <ele>260.60</ele>
        <time>2013-04-30T17:50:34Z</time>
      </trkpt>
      <trkpt lat="41.554977000" lon="1.839556000">
        <ele>262.00</ele>
        <time>2013-04-30T17:50:40Z</time>
      </trkpt>
      <trkpt lat="41.554795000" lon="1.839438000">
        <ele>261.10</ele>
        <time>2013-04-30T17:50:47Z</time>
      </trkpt>
      <trkpt lat="41.554593000" lon="1.839391000">
        <ele>260.00</ele>
        <time>2013-04-30T17:50:52Z</time>
      </trkpt>
      <trkpt lat="41.554406000" lon="1.839606000">
        <ele>255.50</ele>
        <time>2013-04-30T17:50:56Z</time>
      </trkpt>
      <trkpt lat="41.554258000" lon="1.839863000">
        <ele>252.80</ele>
        <time>2013-04-30T17:50:59Z</time>
      </trkpt>
      <trkpt lat="41.554106000" lon="1.840139000">
        <ele>252.50</ele>
        <time>2013-04-30T17:51:02Z</time>
      </trkpt>
      <trkpt lat="41.553941000" lon="1.840407000">
        <ele>252.30</ele>
        <time>2013-04-30T17:51:05Z</time>
      </trkpt>
      <trkpt lat="41.553786000" lon="1.840639000">
        <ele>249.80</ele>
        <time>2013-04-30T17:51:08Z</time>
      </trkpt>
      <trkpt lat="41.553784000" lon="1.840942000">
        <ele>247.40</ele>
        <time>2013-04-30T17:51:11Z</time>
      </trkpt>
      <trkpt lat="41.553734000" lon="1.841224000">
        <ele>247.80</ele>
        <time>2013-04-30T17:51:14Z</time>
      </trkpt>
      <trkpt lat="41.553579000" lon="1.841461000">
        <ele>249.00</ele>
        <time>2013-04-30T17:51:18Z</time>
      </trkpt>
      <trkpt lat="41.553454000" lon="1.841682000">
        <ele>249.20</ele>
        <time>2013-04-30T17:51:22Z</time>
      </trkpt>
      <trkpt lat="41.553330000" lon="1.841919000">
        <ele>248.50</ele>
        <time>2013-04-30T17:51:26Z</time>
      </trkpt>
      <trkpt lat="41.553198000" lon="1.842175000">
        <ele>248.80</ele>
        <time>2013-04-30T17:51:30Z</time>
      </trkpt>
      <trkpt lat="41.553051000" lon="1.842406000">
        <ele>248.20</ele>
        <time>2013-04-30T17:51:34Z</time>
      </trkpt>
      <trkpt lat="41.552888000" lon="1.842505000">
        <ele>249.80</ele>
        <time>2013-04-30T17:51:38Z</time>
      </trkpt>
      <trkpt lat="41.552704000" lon="1.842354000">
        <ele>250.60</ele>
        <time>2013-04-30T17:51:43Z</time>
      </trkpt>
      <trkpt lat="41.552527000" lon="1.842178000">
        <ele>250.70</ele>
        <time>2013-04-30T17:51:48Z</time>
      </trkpt>
      <trkpt lat="41.552438000" lon="1.841969000">
        <ele>252.20</ele>
        <time>2013-04-30T17:51:53Z</time>
      </trkpt>
      <trkpt lat="41.552564000" lon="1.841782000">
        <ele>253.10</ele>
        <time>2013-04-30T17:51:58Z</time>
      </trkpt>
      <trkpt lat="41.552700000" lon="1.841560000">
        <ele>253.80</ele>
        <time>2013-04-30T17:52:04Z</time>
      </trkpt>
      <trkpt lat="41.552825000" lon="1.841342000">
        <ele>254.40</ele>
        <time>2013-04-30T17:52:10Z</time>
      </trkpt>
      <trkpt lat="41.552966000" lon="1.841152000">
        <ele>252.90</ele>
        <time>2013-04-30T17:52:15Z</time>
      </trkpt>
      <trkpt lat="41.553113000" lon="1.840918000">
        <ele>251.60</ele>
        <time>2013-04-30T17:52:19Z</time>
      </trkpt>
      <trkpt lat="41.553239000" lon="1.840715000">
        <ele>252.40</ele>
        <time>2013-04-30T17:52:23Z</time>
      </trkpt>
      <trkpt lat="41.553351000" lon="1.840524000">
        <ele>253.20</ele>
        <time>2013-04-30T17:52:27Z</time>
      </trkpt>
      <trkpt lat="41.553482000" lon="1.840293000">
        <ele>253.40</ele>
        <time>2013-04-30T17:52:32Z</time>
      </trkpt>
      <trkpt lat="41.553609000" lon="1.840066000">
        <ele>255.10</ele>
        <time>2013-04-30T17:52:37Z</time>
      </trkpt>
      <trkpt lat="41.553743000" lon="1.839844000">
        <ele>254.90</ele>
        <time>2013-04-30T17:52:42Z</time>
      </trkpt>
      <trkpt lat="41.553835000" lon="1.839577000">
        <ele>256.00</ele>
        <time>2013-04-30T17:52:47Z</time>
      </trkpt>
      <trkpt lat="41.553902000" lon="1.839306000">
        <ele>256.90</ele>
        <time>2013-04-30T17:52:52Z</time>
      </trkpt>
      <trkpt lat="41.553933000" lon="1.839021000">
        <ele>256.90</ele>
        <time>2013-04-30T17:52:57Z</time>
      </trkpt>
      <trkpt lat="41.553942000" lon="1.838722000">
        <ele>256.20</ele>
        <time>2013-04-30T17:53:02Z</time>
      </trkpt>
      <trkpt lat="41.553957000" lon="1.838469000">
        <ele>258.30</ele>
        <time>2013-04-30T17:53:07Z</time>
      </trkpt>
      <trkpt lat="41.554046000" lon="1.838212000">
        <ele>259.90</ele>
        <time>2013-04-30T17:53:13Z</time>
      </trkpt>
      <trkpt lat="41.554096000" lon="1.837979000">
        <ele>260.80</ele>
        <time>2013-04-30T17:53:18Z</time>
      </trkpt>
      <trkpt lat="41.554146000" lon="1.837718000">
        <ele>259.30</ele>
        <time>2013-04-30T17:53:24Z</time>
      </trkpt>
      <trkpt lat="41.554159000" lon="1.837463000">
        <ele>261.90</ele>
        <time>2013-04-30T17:53:30Z</time>
      </trkpt>
      <trkpt lat="41.554152000" lon="1.837224000">
        <ele>263.40</ele>
        <time>2013-04-30T17:53:36Z</time>
      </trkpt>
      <trkpt lat="41.554228000" lon="1.836963000">
        <ele>265.10</ele>
        <time>2013-04-30T17:53:43Z</time>
      </trkpt>
      <trkpt lat="41.554274000" lon="1.836727000">
        <ele>264.90</ele>
        <time>2013-04-30T17:53:49Z</time>
      </trkpt>
      <trkpt lat="41.554301000" lon="1.836452000">
        <ele>266.70</ele>
        <time>2013-04-30T17:53:56Z</time>
      </trkpt>
      <trkpt lat="41.554320000" lon="1.836191000">
        <ele>267.90</ele>
        <time>2013-04-30T17:54:02Z</time>
      </trkpt>
      <trkpt lat="41.554446000" lon="1.836007000">
        <ele>269.20</ele>
        <time>2013-04-30T17:54:08Z</time>
      </trkpt>
      <trkpt lat="41.554587000" lon="1.835854000">
        <ele>270.00</ele>
        <time>2013-04-30T17:54:14Z</time>
      </trkpt>
      <trkpt lat="41.554682000" lon="1.835630000">
        <ele>271.20</ele>
        <time>2013-04-30T17:54:20Z</time>
      </trkpt>
      <trkpt lat="41.554763000" lon="1.835396000">
        <ele>272.30</ele>
        <time>2013-04-30T17:54:26Z</time>
      </trkpt>
      <trkpt lat="41.554864000" lon="1.835174000">
        <ele>272.50</ele>
        <time>2013-04-30T17:54:32Z</time>
      </trkpt>
      <trkpt lat="41.554963000" lon="1.834952000">
        <ele>273.40</ele>
        <time>2013-04-30T17:54:38Z</time>
      </trkpt>
      <trkpt lat="41.555066000" lon="1.834746000">
        <ele>273.80</ele>
        <time>2013-04-30T17:54:44Z</time>
      </trkpt>
      <trkpt lat="41.555127000" lon="1.834499000">
        <ele>273.70</ele>
        <time>2013-04-30T17:54:50Z</time>
      </trkpt>
      <trkpt lat="41.555108000" lon="1.834259000">
        <ele>274.10</ele>
        <time>2013-04-30T17:54:56Z</time>
      </trkpt>
      <trkpt lat="41.555096000" lon="1.834008000">
        <ele>275.50</ele>
        <time>2013-04-30T17:55:02Z</time>
      </trkpt>
      <trkpt lat="41.555075000" lon="1.833757000">
        <ele>276.00</ele>
        <time>2013-04-30T17:55:08Z</time>
      </trkpt>
      <trkpt lat="41.555046000" lon="1.833516000">
        <ele>277.00</ele>
        <time>2013-04-30T17:55:14Z</time>
      </trkpt>
      <trkpt lat="41.555230000" lon="1.833416000">
        <ele>277.20</ele>
        <time>2013-04-30T17:55:20Z</time>
      </trkpt>
      <trkpt lat="41.555437000" lon="1.833316000">
        <ele>278.10</ele>
        <time>2013-04-30T17:55:26Z</time>
      </trkpt>
      <trkpt lat="41.555599000" lon="1.833179000">
        <ele>278.70</ele>
        <time>2013-04-30T17:55:31Z</time>
      </trkpt>
      <trkpt lat="41.555775000" lon="1.833005000">
        <ele>278.80</ele>
        <time>2013-04-30T17:55:37Z</time>
      </trkpt>
      <trkpt lat="41.555931000" lon="1.832673000">
        <ele>279.60</ele>
        <time>2013-04-30T17:55:45Z</time>
      </trkpt>
      <trkpt lat="41.556028000" lon="1.832407000">
        <ele>281.10</ele>
        <time>2013-04-30T17:55:51Z</time>
      </trkpt>
      <trkpt lat="41.556124000" lon="1.832195000">
        <ele>281.80</ele>
        <time>2013-04-30T17:55:56Z</time>
      </trkpt>
      <trkpt lat="41.556256000" lon="1.831961000">
        <ele>283.40</ele>
        <time>2013-04-30T17:56:02Z</time>
      </trkpt>
      <trkpt lat="41.556333000" lon="1.831744000">
        <ele>283.90</ele>
        <time>2013-04-30T17:56:07Z</time>
      </trkpt>
      <trkpt lat="41.556420000" lon="1.831526000">
        <ele>285.10</ele>
        <time>2013-04-30T17:56:12Z</time>
      </trkpt>
      <trkpt lat="41.556473000" lon="1.831257000">
        <ele>285.90</ele>
        <time>2013-04-30T17:56:18Z</time>
      </trkpt>
      <trkpt lat="41.556536000" lon="1.830991000">
        <ele>286.50</ele>
        <time>2013-04-30T17:56:24Z</time>
      </trkpt>
      <trkpt lat="41.556625000" lon="1.830733000">
        <ele>287.50</ele>
        <time>2013-04-30T17:56:30Z</time>
      </trkpt>
      <trkpt lat="41.556719000" lon="1.830525000">
        <ele>287.40</ele>
        <time>2013-04-30T17:56:35Z</time>
      </trkpt>
      <trkpt lat="41.556798000" lon="1.830312000">
        <ele>288.30</ele>
        <time>2013-04-30T17:56:40Z</time>
      </trkpt>
      <trkpt lat="41.556914000" lon="1.830066000">
        <ele>289.00</ele>
        <time>2013-04-30T17:56:46Z</time>
      </trkpt>
      <trkpt lat="41.557008000" lon="1.829852000">
        <ele>289.30</ele>
        <time>2013-04-30T17:56:51Z</time>
      </trkpt>
      <trkpt lat="41.557069000" lon="1.829580000">
        <ele>290.70</ele>
        <time>2013-04-30T17:56:57Z</time>
      </trkpt>
      <trkpt lat="41.557192000" lon="1.829350000">
        <ele>291.20</ele>
        <time>2013-04-30T17:57:03Z</time>
      </trkpt>
      <trkpt lat="41.557222000" lon="1.829110000">
        <ele>291.80</ele>
        <time>2013-04-30T17:57:08Z</time>
      </trkpt>
      <trkpt lat="41.557247000" lon="1.828873000">
        <ele>291.80</ele>
        <time>2013-04-30T17:57:13Z</time>
      </trkpt>
      <trkpt lat="41.557327000" lon="1.828619000">
        <ele>293.00</ele>
        <time>2013-04-30T17:57:19Z</time>
      </trkpt>
      <trkpt lat="41.557402000" lon="1.828372000">
        <ele>293.90</ele>
        <time>2013-04-30T17:57:25Z</time>
      </trkpt>
      <trkpt lat="41.557435000" lon="1.828156000">
        <ele>294.90</ele>
        <time>2013-04-30T17:59:39Z</time>
      </trkpt>
      <trkpt lat="41.557535000" lon="1.827963000">
        <ele>295.30</ele>
        <time>2013-04-30T17:59:56Z</time>
      </trkpt>
      <trkpt lat="41.557622000" lon="1.827730000">
        <ele>295.40</ele>
        <time>2013-04-30T18:00:04Z</time>
      </trkpt>
      <trkpt lat="41.557726000" lon="1.827478000">
        <ele>296.10</ele>
        <time>2013-04-30T18:00:11Z</time>
      </trkpt>
      <trkpt lat="41.557816000" lon="1.827228000">
        <ele>296.90</ele>
        <time>2013-04-30T18:00:18Z</time>
      </trkpt>
      <trkpt lat="41.557914000" lon="1.826989000">
        <ele>297.70</ele>
        <time>2013-04-30T18:00:25Z</time>
      </trkpt>
      <trkpt lat="41.557993000" lon="1.826768000">
        <ele>298.10</ele>
        <time>2013-04-30T18:00:31Z</time>
      </trkpt>
      <trkpt lat="41.558077000" lon="1.826528000">
        <ele>299.40</ele>
        <time>2013-04-30T18:00:38Z</time>
      </trkpt>
      <trkpt lat="41.558161000" lon="1.826292000">
        <ele>300.30</ele>
        <time>2013-04-30T18:00:45Z</time>
      </trkpt>
      <trkpt lat="41.558256000" lon="1.826043000">
        <ele>301.60</ele>
        <time>2013-04-30T18:00:52Z</time>
      </trkpt>
      <trkpt lat="41.558336000" lon="1.825820000">
        <ele>302.00</ele>
        <time>2013-04-30T18:00:58Z</time>
      </trkpt>
      <trkpt lat="41.558415000" lon="1.825604000">
        <ele>302.40</ele>
        <time>2013-04-30T18:01:04Z</time>
      </trkpt>
      <trkpt lat="41.558490000" lon="1.825377000">
        <ele>303.40</ele>
        <time>2013-04-30T18:01:10Z</time>
      </trkpt>
      <trkpt lat="41.558519000" lon="1.825132000">
        <ele>303.90</ele>
        <time>2013-04-30T18:01:16Z</time>
      </trkpt>
      <trkpt lat="41.558477000" lon="1.824868000">
        <ele>304.10</ele>
        <time>2013-04-30T18:01:22Z</time>
      </trkpt>
      <trkpt lat="41.558419000" lon="1.824617000">
        <ele>305.30</ele>
        <time>2013-04-30T18:01:28Z</time>
      </trkpt>
      <trkpt lat="41.558374000" lon="1.824380000">
        <ele>306.40</ele>
        <time>2013-04-30T18:01:34Z</time>
      </trkpt>
      <trkpt lat="41.558326000" lon="1.824141000">
        <ele>306.80</ele>
        <time>2013-04-30T18:01:40Z</time>
      </trkpt>
      <trkpt lat="41.558287000" lon="1.823898000">
        <ele>308.00</ele>
        <time>2013-04-30T18:01:46Z</time>
      </trkpt>
      <trkpt lat="41.558247000" lon="1.823641000">
        <ele>308.80</ele>
        <time>2013-04-30T18:01:52Z</time>
      </trkpt>
      <trkpt lat="41.558205000" lon="1.823386000">
        <ele>309.60</ele>
        <time>2013-04-30T18:01:58Z</time>
      </trkpt>
      <trkpt lat="41.558162000" lon="1.823132000">
        <ele>310.60</ele>
        <time>2013-04-30T18:02:04Z</time>
      </trkpt>
      <trkpt lat="41.558110000" lon="1.822881000">
        <ele>311.70</ele>
        <time>2013-04-30T18:02:10Z</time>
      </trkpt>
      <trkpt lat="41.558059000" lon="1.822646000">
        <ele>313.20</ele>
        <time>2013-04-30T18:02:16Z</time>
      </trkpt>
      <trkpt lat="41.558115000" lon="1.822430000">
        <ele>315.20</ele>
        <time>2013-04-30T18:02:25Z</time>
      </trkpt>
      <trkpt lat="41.558295000" lon="1.822330000">
        <ele>315.30</ele>
        <time>2013-04-30T18:02:36Z</time>
      </trkpt>
      <trkpt lat="41.558459000" lon="1.822210000">
        <ele>315.30</ele>
        <time>2013-04-30T18:02:45Z</time>
      </trkpt>
      <trkpt lat="41.558609000" lon="1.822055000">
        <ele>314.70</ele>
        <time>2013-04-30T18:02:52Z</time>
      </trkpt>
      <trkpt lat="41.558758000" lon="1.821854000">
        <ele>314.80</ele>
        <time>2013-04-30T18:02:58Z</time>
      </trkpt>
      <trkpt lat="41.558883000" lon="1.821623000">
        <ele>314.60</ele>
        <time>2013-04-30T18:03:04Z</time>
      </trkpt>
      <trkpt lat="41.559018000" lon="1.821402000">
        <ele>314.90</ele>
        <time>2013-04-30T18:03:10Z</time>
      </trkpt>
      <trkpt lat="41.559117000" lon="1.821189000">
        <ele>315.20</ele>
        <time>2013-04-30T18:03:15Z</time>
      </trkpt>
      <trkpt lat="41.559207000" lon="1.820976000">
        <ele>315.00</ele>
        <time>2013-04-30T18:03:20Z</time>
      </trkpt>
      <trkpt lat="41.559284000" lon="1.820757000">
        <ele>315.00</ele>
        <time>2013-04-30T18:03:25Z</time>
      </trkpt>
      <trkpt lat="41.559367000" lon="1.820534000">
        <ele>315.60</ele>
        <time>2013-04-30T18:03:30Z</time>
      </trkpt>
      <trkpt lat="41.559454000" lon="1.820313000">
        <ele>316.00</ele>
        <time>2013-04-30T18:03:35Z</time>
      </trkpt>
      <trkpt lat="41.559536000" lon="1.820070000">
        <ele>316.30</ele>
        <time>2013-04-30T18:03:40Z</time>
      </trkpt>
      <trkpt lat="41.559608000" lon="1.819830000">
        <ele>316.10</ele>
        <time>2013-04-30T18:03:45Z</time>
      </trkpt>
      <trkpt lat="41.559694000" lon="1.819592000">
        <ele>315.90</ele>
        <time>2013-04-30T18:03:50Z</time>
      </trkpt>
      <trkpt lat="41.559773000" lon="1.819335000">
        <ele>316.10</ele>
        <time>2013-04-30T18:03:55Z</time>
      </trkpt>
      <trkpt lat="41.559854000" lon="1.819073000">
        <ele>316.30</ele>
        <time>2013-04-30T18:04:00Z</time>
      </trkpt>
      <trkpt lat="41.559935000" lon="1.818806000">
        <ele>316.00</ele>
        <time>2013-04-30T18:04:05Z</time>
      </trkpt>
      <trkpt lat="41.560018000" lon="1.818539000">
        <ele>315.80</ele>
        <time>2013-04-30T18:04:10Z</time>
      </trkpt>
      <trkpt lat="41.560112000" lon="1.818288000">
        <ele>314.70</ele>
        <time>2013-04-30T18:04:15Z</time>
      </trkpt>
      <trkpt lat="41.560156000" lon="1.818041000">
        <ele>314.00</ele>
        <time>2013-04-30T18:04:19Z</time>
      </trkpt>
      <trkpt lat="41.560181000" lon="1.817785000">
        <ele>315.10</ele>
        <time>2013-04-30T18:04:23Z</time>
      </trkpt>
      <trkpt lat="41.560197000" lon="1.817545000">
        <ele>315.50</ele>
        <time>2013-04-30T18:04:27Z</time>
      </trkpt>
      <trkpt lat="41.560332000" lon="1.817415000">
        <ele>316.40</ele>
        <time>2013-04-30T18:04:32Z</time>
      </trkpt>
      <trkpt lat="41.560523000" lon="1.817454000">
        <ele>316.90</ele>
        <time>2013-04-30T18:04:37Z</time>
      </trkpt>
      <trkpt lat="41.560628000" lon="1.817316000">
        <ele>318.20</ele>
        <time>2013-04-30T18:04:44Z</time>
      </trkpt>
      <trkpt lat="41.560636000" lon="1.817052000">
        <ele>319.50</ele>
        <time>2013-04-30T18:04:51Z</time>
      </trkpt>
      <trkpt lat="41.560649000" lon="1.816793000">
        <ele>320.60</ele>
        <time>2013-04-30T18:04:58Z</time>
      </trkpt>
      <trkpt lat="41.560679000" lon="1.816537000">
        <ele>322.10</ele>
        <time>2013-04-30T18:05:05Z</time>
      </trkpt>
      <trkpt lat="41.560712000" lon="1.816271000">
        <ele>323.90</ele>
        <time>2013-04-30T18:05:12Z</time>
      </trkpt>
      <trkpt lat="41.560756000" lon="1.816016000">
        <ele>324.70</ele>
        <time>2013-04-30T18:05:19Z</time>
      </trkpt>
      <trkpt lat="41.560824000" lon="1.815765000">
        <ele>325.20</ele>
        <time>2013-04-30T18:05:26Z</time>
      </trkpt>
      <trkpt lat="41.560884000" lon="1.815506000">
        <ele>325.70</ele>
        <time>2013-04-30T18:05:33Z</time>
      </trkpt>
      <trkpt lat="41.560932000" lon="1.815241000">
        <ele>327.20</ele>
        <time>2013-04-30T18:05:40Z</time>
      </trkpt>
      <trkpt lat="41.560985000" lon="1.814979000">
        <ele>327.80</ele>
        <time>2013-04-30T18:05:47Z</time>
      </trkpt>
      <trkpt lat="41.561036000" lon="1.814747000">
        <ele>329.50</ele>
        <time>2013-04-30T18:05:53Z</time>
      </trkpt>
      <trkpt lat="41.561087000" lon="1.814494000">
        <ele>330.30</ele>
        <time>2013-04-30T18:06:00Z</time>
      </trkpt>
      <trkpt lat="41.561124000" lon="1.814216000">
        <ele>331.60</ele>
        <time>2013-04-30T18:06:07Z</time>
      </trkpt>
      <trkpt lat="41.561155000" lon="1.813955000">
        <ele>332.60</ele>
        <time>2013-04-30T18:06:14Z</time>
      </trkpt>
      <trkpt lat="41.561264000" lon="1.813759000">
        <ele>334.60</ele>
        <time>2013-04-30T18:06:21Z</time>
      </trkpt>
      <trkpt lat="41.561413000" lon="1.813611000">
        <ele>335.50</ele>
        <time>2013-04-30T18:06:28Z</time>
      </trkpt>
      <trkpt lat="41.561439000" lon="1.813365000">
        <ele>335.50</ele>
        <time>2013-04-30T18:06:35Z</time>
      </trkpt>
      <trkpt lat="41.561371000" lon="1.813115000">
        <ele>335.20</ele>
        <time>2013-04-30T18:06:41Z</time>
      </trkpt>
      <trkpt lat="41.561293000" lon="1.812852000">
        <ele>335.50</ele>
        <time>2013-04-30T18:06:47Z</time>
      </trkpt>
      <trkpt lat="41.561277000" lon="1.812564000">
        <ele>335.50</ele>
        <time>2013-04-30T18:06:53Z</time>
      </trkpt>
      <trkpt lat="41.561249000" lon="1.812323000">
        <ele>336.20</ele>
        <time>2013-04-30T18:06:58Z</time>
      </trkpt>
      <trkpt lat="41.561257000" lon="1.812087000">
        <ele>336.10</ele>
        <time>2013-04-30T18:07:03Z</time>
      </trkpt>
      <trkpt lat="41.561220000" lon="1.811819000">
        <ele>336.00</ele>
        <time>2013-04-30T18:07:08Z</time>
      </trkpt>
      <trkpt lat="41.561199000" lon="1.811573000">
        <ele>336.70</ele>
        <time>2013-04-30T18:07:13Z</time>
      </trkpt>
      <trkpt lat="41.561339000" lon="1.811402000">
        <ele>337.70</ele>
        <time>2013-04-30T18:07:19Z</time>
      </trkpt>
      <trkpt lat="41.561443000" lon="1.811151000">
        <ele>334.20</ele>
        <time>2013-04-30T18:07:26Z</time>
      </trkpt>
      <trkpt lat="41.561610000" lon="1.811023000">
        <ele>332.80</ele>
        <time>2013-04-30T18:07:34Z</time>
      </trkpt>
      <trkpt lat="41.561796000" lon="1.810896000">
        <ele>333.60</ele>
        <time>2013-04-30T18:07:44Z</time>
      </trkpt>
      <trkpt lat="41.561916000" lon="1.810722000">
        <ele>334.40</ele>
        <time>2013-04-30T18:07:52Z</time>
      </trkpt>
      <trkpt lat="41.562112000" lon="1.810591000">
        <ele>335.40</ele>
        <time>2013-04-30T18:08:20Z</time>
      </trkpt>
      <trkpt lat="41.562321000" lon="1.810521000">
        <ele>336.50</ele>
        <time>2013-04-30T18:08:30Z</time>
      </trkpt>
      <trkpt lat="41.562513000" lon="1.810412000">
        <ele>337.10</ele>
        <time>2013-04-30T18:08:38Z</time>
      </trkpt>
      <trkpt lat="41.562638000" lon="1.810246000">
        <ele>338.20</ele>
        <time>2013-04-30T18:08:47Z</time>
      </trkpt>
      <trkpt lat="41.562541000" lon="1.810023000">
        <ele>338.80</ele>
        <time>2013-04-30T18:08:56Z</time>
      </trkpt>
      <trkpt lat="41.562500000" lon="1.809785000">
        <ele>339.40</ele>
        <time>2013-04-30T18:09:04Z</time>
      </trkpt>
      <trkpt lat="41.562418000" lon="1.809528000">
        <ele>340.60</ele>
        <time>2013-04-30T18:09:12Z</time>
      </trkpt>
      <trkpt lat="41.562350000" lon="1.809278000">
        <ele>341.40</ele>
        <time>2013-04-30T18:09:20Z</time>
      </trkpt>
      <trkpt lat="41.562278000" lon="1.809023000">
        <ele>342.50</ele>
        <time>2013-04-30T18:09:28Z</time>
      </trkpt>
      <trkpt lat="41.562153000" lon="1.808833000">
        <ele>344.30</ele>
        <time>2013-04-30T18:09:37Z</time>
      </trkpt>
      <trkpt lat="41.562154000" lon="1.808810000">
        <ele>344.40</ele>
        <time>2013-04-30T18:09:59Z</time>
      </trkpt>
      <trkpt lat="41.562055000" lon="1.808585000">
        <ele>345.50</ele>
        <time>2013-04-30T18:10:08Z</time>
      </trkpt>
      <trkpt lat="41.561965000" lon="1.808375000">
        <ele>346.80</ele>
        <time>2013-04-30T18:10:16Z</time>
      </trkpt>
      <trkpt lat="41.561879000" lon="1.808150000">
        <ele>348.00</ele>
        <time>2013-04-30T18:10:24Z</time>
      </trkpt>
      <trkpt lat="41.561802000" lon="1.807916000">
        <ele>350.40</ele>
        <time>2013-04-30T18:10:33Z</time>
      </trkpt>
      <trkpt lat="41.561716000" lon="1.807692000">
        <ele>352.50</ele>
        <time>2013-04-30T18:10:41Z</time>
      </trkpt>
      <trkpt lat="41.561632000" lon="1.807452000">
        <ele>353.90</ele>
        <time>2013-04-30T18:10:49Z</time>
      </trkpt>
      <trkpt lat="41.561571000" lon="1.807208000">
        <ele>356.10</ele>
        <time>2013-04-30T18:10:58Z</time>
      </trkpt>
      <trkpt lat="41.561474000" lon="1.806968000">
        <ele>359.10</ele>
        <time>2013-04-30T18:11:09Z</time>
      </trkpt>
      <trkpt lat="41.561480000" lon="1.806728000">
        <ele>361.60</ele>
        <time>2013-04-30T18:11:22Z</time>
      </trkpt>
      <trkpt lat="41.561385000" lon="1.806491000">
        <ele>365.30</ele>
        <time>2013-04-30T18:11:35Z</time>
      </trkpt>
      <trkpt lat="41.561308000" lon="1.806274000">
        <ele>369.70</ele>
        <time>2013-04-30T18:11:48Z</time>
      </trkpt>
      <trkpt lat="41.561221000" lon="1.806057000">
        <ele>374.30</ele>
        <time>2013-04-30T18:12:01Z</time>
      </trkpt>
      <trkpt lat="41.561137000" lon="1.805853000">
        <ele>378.90</ele>
        <time>2013-04-30T18:12:14Z</time>
      </trkpt>
      <trkpt lat="41.561053000" lon="1.805638000">
        <ele>382.70</ele>
        <time>2013-04-30T18:12:27Z</time>
      </trkpt>
      <trkpt lat="41.560964000" lon="1.805431000">
        <ele>386.00</ele>
        <time>2013-04-30T18:12:42Z</time>
      </trkpt>
      <trkpt lat="41.560908000" lon="1.805215000">
        <ele>387.30</ele>
        <time>2013-04-30T18:14:27Z</time>
      </trkpt>
      <trkpt lat="41.560808000" lon="1.804992000">
        <ele>390.10</ele>
        <time>2013-04-30T18:14:35Z</time>
      </trkpt>
      <trkpt lat="41.560800000" lon="1.804736000">
        <ele>393.30</ele>
        <time>2013-04-30T18:14:43Z</time>
      </trkpt>
      <trkpt lat="41.560776000" lon="1.804465000">
        <ele>396.10</ele>
        <time>2013-04-30T18:14:52Z</time>
      </trkpt>
      <trkpt lat="41.560707000" lon="1.804208000">
        <ele>399.30</ele>
        <time>2013-04-30T18:15:01Z</time>
      </trkpt>
      <trkpt lat="41.560542000" lon="1.804244000">
        <ele>401.20</ele>
        <time>2013-04-30T18:15:17Z</time>
      </trkpt>
      <trkpt lat="41.560355000" lon="1.804274000">
        <ele>403.80</ele>
        <time>2013-04-30T18:15:28Z</time>
      </trkpt>
      <trkpt lat="41.560227000" lon="1.804109000">
        <ele>406.80</ele>
        <time>2013-04-30T18:15:37Z</time>
      </trkpt>
      <trkpt lat="41.560092000" lon="1.803930000">
        <ele>408.30</ele>
        <time>2013-04-30T18:15:47Z</time>
      </trkpt>
      <trkpt lat="41.559980000" lon="1.803727000">
        <ele>409.10</ele>
        <time>2013-04-30T18:15:57Z</time>
      </trkpt>
      <trkpt lat="41.559870000" lon="1.803516000">
        <ele>411.00</ele>
        <time>2013-04-30T18:16:07Z</time>
      </trkpt>
      <trkpt lat="41.559801000" lon="1.803259000">
        <ele>414.40</ele>
        <time>2013-04-30T18:16:16Z</time>
      </trkpt>
      <trkpt lat="41.559745000" lon="1.803028000">
        <ele>417.00</ele>
        <time>2013-04-30T18:16:24Z</time>
      </trkpt>
      <trkpt lat="41.559670000" lon="1.802802000">
        <ele>418.70</ele>
        <time>2013-04-30T18:16:33Z</time>
      </trkpt>
      <trkpt lat="41.559522000" lon="1.802644000">
        <ele>419.00</ele>
        <time>2013-04-30T18:16:49Z</time>
      </trkpt>
      <trkpt lat="41.559366000" lon="1.802512000">
        <ele>419.30</ele>
        <time>2013-04-30T18:17:00Z</time>
      </trkpt>
      <trkpt lat="41.559179000" lon="1.802566000">
        <ele>419.10</ele>
        <time>2013-04-30T18:17:09Z</time>
      </trkpt>
      <trkpt lat="41.558991000" lon="1.802550000">
        <ele>420.30</ele>
        <time>2013-04-30T18:17:16Z</time>
      </trkpt>
      <trkpt lat="41.558805000" lon="1.802543000">
        <ele>422.80</ele>
        <time>2013-04-30T18:17:24Z</time>
      </trkpt>
      <trkpt lat="41.558623000" lon="1.802545000">
        <ele>425.00</ele>
        <time>2013-04-30T18:17:33Z</time>
      </trkpt>
      <trkpt lat="41.558439000" lon="1.802498000">
        <ele>426.50</ele>
        <time>2013-04-30T18:17:44Z</time>
      </trkpt>
      <trkpt lat="41.558254000" lon="1.802379000">
        <ele>424.50</ele>
        <time>2013-04-30T18:17:53Z</time>
      </trkpt>
      <trkpt lat="41.558126000" lon="1.802166000">
        <ele>422.60</ele>
        <time>2013-04-30T18:17:57Z</time>
      </trkpt>
      <trkpt lat="41.558026000" lon="1.801926000">
        <ele>424.10</ele>
        <time>2013-04-30T18:18:02Z</time>
      </trkpt>
      <trkpt lat="41.557969000" lon="1.801685000">
        <ele>427.00</ele>
        <time>2013-04-30T18:18:09Z</time>
      </trkpt>
      <trkpt lat="41.557908000" lon="1.801418000">
        <ele>431.00</ele>
        <time>2013-04-30T18:18:18Z</time>
      </trkpt>
      <trkpt lat="41.557892000" lon="1.801184000">
        <ele>433.70</ele>
        <time>2013-04-30T18:18:29Z</time>
      </trkpt>
      <trkpt lat="41.557976000" lon="1.800966000">
        <ele>433.00</ele>
        <time>2013-04-30T18:18:40Z</time>
      </trkpt>
      <trkpt lat="41.558087000" lon="1.800754000">
        <ele>430.60</ele>
        <time>2013-04-30T18:18:45Z</time>
      </trkpt>
      <trkpt lat="41.558130000" lon="1.800490000">
        <ele>431.40</ele>
        <time>2013-04-30T18:18:51Z</time>
      </trkpt>
      <trkpt lat="41.558242000" lon="1.800292000">
        <ele>431.90</ele>
        <time>2013-04-30T18:18:59Z</time>
      </trkpt>
      <trkpt lat="41.558390000" lon="1.800134000">
        <ele>431.40</ele>
        <time>2013-04-30T18:19:07Z</time>
      </trkpt>
      <trkpt lat="41.558487000" lon="1.799900000">
        <ele>431.70</ele>
        <time>2013-04-30T18:19:15Z</time>
      </trkpt>
      <trkpt lat="41.558555000" lon="1.799683000">
        <ele>432.40</ele>
        <time>2013-04-30T18:19:22Z</time>
      </trkpt>
      <trkpt lat="41.558631000" lon="1.799444000">
        <ele>433.40</ele>
        <time>2013-04-30T18:19:30Z</time>
      </trkpt>
      <trkpt lat="41.558645000" lon="1.799209000">
        <ele>433.20</ele>
        <time>2013-04-30T18:19:37Z</time>
      </trkpt>
      <trkpt lat="41.558615000" lon="1.798964000">
        <ele>432.90</ele>
        <time>2013-04-30T18:19:43Z</time>
      </trkpt>
      <trkpt lat="41.558644000" lon="1.798709000">
        <ele>433.20</ele>
        <time>2013-04-30T18:19:49Z</time>
      </trkpt>
      <trkpt lat="41.558735000" lon="1.798472000">
        <ele>433.50</ele>
        <time>2013-04-30T18:19:55Z</time>
      </trkpt>
      <trkpt lat="41.558846000" lon="1.798243000">
        <ele>433.70</ele>
        <time>2013-04-30T18:20:01Z</time>
      </trkpt>
      <trkpt lat="41.558944000" lon="1.798017000">
        <ele>434.70</ele>
        <time>2013-04-30T18:20:07Z</time>
      </trkpt>
      <trkpt lat="41.559011000" lon="1.797772000">
        <ele>435.80</ele>
        <time>2013-04-30T18:20:13Z</time>
      </trkpt>
      <trkpt lat="41.559019000" lon="1.797514000">
        <ele>435.60</ele>
        <time>2013-04-30T18:20:19Z</time>
      </trkpt>
      <trkpt lat="41.558935000" lon="1.797248000">
        <ele>435.70</ele>
        <time>2013-04-30T18:20:25Z</time>
      </trkpt>
      <trkpt lat="41.558822000" lon="1.797011000">
        <ele>436.50</ele>
        <time>2013-04-30T18:20:31Z</time>
      </trkpt>
      <trkpt lat="41.558662000" lon="1.796849000">
        <ele>437.80</ele>
        <time>2013-04-30T18:20:37Z</time>
      </trkpt>
      <trkpt lat="41.558497000" lon="1.796704000">
        <ele>439.40</ele>
        <time>2013-04-30T18:20:43Z</time>
      </trkpt>
      <trkpt lat="41.558432000" lon="1.796507000">
        <ele>441.00</ele>
        <time>2013-04-30T18:20:50Z</time>
      </trkpt>
      <trkpt lat="41.558618000" lon="1.796485000">
        <ele>442.70</ele>
        <time>2013-04-30T18:20:57Z</time>
      </trkpt>
      <trkpt lat="41.558805000" lon="1.796533000">
        <ele>444.10</ele>
        <time>2013-04-30T18:21:06Z</time>
      </trkpt>
      <trkpt lat="41.558993000" lon="1.796660000">
        <ele>445.50</ele>
        <time>2013-04-30T18:21:15Z</time>
      </trkpt>
      <trkpt lat="41.559157000" lon="1.796799000">
        <ele>447.40</ele>
        <time>2013-04-30T18:21:23Z</time>
      </trkpt>
      <trkpt lat="41.559344000" lon="1.796839000">
        <ele>448.00</ele>
        <time>2013-04-30T18:21:30Z</time>
      </trkpt>
      <trkpt lat="41.559495000" lon="1.796706000">
        <ele>447.50</ele>
        <time>2013-04-30T18:21:36Z</time>
      </trkpt>
      <trkpt lat="41.559684000" lon="1.796732000">
        <ele>446.90</ele>
        <time>2013-04-30T18:21:41Z</time>
      </trkpt>
      <trkpt lat="41.559875000" lon="1.796770000">
        <ele>446.80</ele>
        <time>2013-04-30T18:21:46Z</time>
      </trkpt>
      <trkpt lat="41.560101000" lon="1.796747000">
        <ele>445.60</ele>
        <time>2013-04-30T18:21:51Z</time>
      </trkpt>
      <trkpt lat="41.560316000" lon="1.796752000">
        <ele>447.10</ele>
        <time>2013-04-30T18:21:56Z</time>
      </trkpt>
      <trkpt lat="41.560507000" lon="1.796886000">
        <ele>447.50</ele>
        <time>2013-04-30T18:22:01Z</time>
      </trkpt>
      <trkpt lat="41.560699000" lon="1.796882000">
        <ele>448.80</ele>
        <time>2013-04-30T18:22:06Z</time>
      </trkpt>
      <trkpt lat="41.560830000" lon="1.796722000">
        <ele>448.10</ele>
        <time>2013-04-30T18:22:11Z</time>
      </trkpt>
      <trkpt lat="41.560978000" lon="1.796594000">
        <ele>448.90</ele>
        <time>2013-04-30T18:22:18Z</time>
      </trkpt>
      <trkpt lat="41.561155000" lon="1.796496000">
        <ele>450.40</ele>
        <time>2013-04-30T18:22:26Z</time>
      </trkpt>
      <trkpt lat="41.561314000" lon="1.796387000">
        <ele>451.80</ele>
        <time>2013-04-30T18:22:33Z</time>
      </trkpt>
      <trkpt lat="41.561439000" lon="1.796200000">
        <ele>452.90</ele>
        <time>2013-04-30T18:22:40Z</time>
      </trkpt>
      <trkpt lat="41.561554000" lon="1.795998000">
        <ele>452.40</ele>
        <time>2013-04-30T18:22:47Z</time>
      </trkpt>
      <trkpt lat="41.561733000" lon="1.795850000">
        <ele>451.80</ele>
        <time>2013-04-30T18:22:52Z</time>
      </trkpt>
      <trkpt lat="41.561849000" lon="1.795642000">
        <ele>450.70</ele>
        <time>2013-04-30T18:22:57Z</time>
      </trkpt>
      <trkpt lat="41.561893000" lon="1.795387000">
        <ele>451.10</ele>
        <time>2013-04-30T18:23:02Z</time>
      </trkpt>
      <trkpt lat="41.561874000" lon="1.795123000">
        <ele>454.60</ele>
        <time>2013-04-30T18:23:11Z</time>
      </trkpt>
      <trkpt lat="41.561929000" lon="1.794871000">
        <ele>454.60</ele>
        <time>2013-04-30T18:23:19Z</time>
      </trkpt>
      <trkpt lat="41.562052000" lon="1.794660000">
        <ele>456.70</ele>
        <time>2013-04-30T18:23:29Z</time>
      </trkpt>
      <trkpt lat="41.562221000" lon="1.794516000">
        <ele>457.80</ele>
        <time>2013-04-30T18:23:38Z</time>
      </trkpt>
      <trkpt lat="41.562387000" lon="1.794387000">
        <ele>455.90</ele>
        <time>2013-04-30T18:23:47Z</time>
      </trkpt>
      <trkpt lat="41.562385000" lon="1.794164000">
        <ele>457.20</ele>
        <time>2013-04-30T18:23:56Z</time>
      </trkpt>
      <trkpt lat="41.562234000" lon="1.794004000">
        <ele>458.00</ele>
        <time>2013-04-30T18:24:06Z</time>
      </trkpt>
      <trkpt lat="41.562054000" lon="1.793968000">
        <ele>458.90</ele>
        <time>2013-04-30T18:24:16Z</time>
      </trkpt>
      <trkpt lat="41.561892000" lon="1.793790000">
        <ele>453.90</ele>
        <time>2013-04-30T18:25:09Z</time>
      </trkpt>
      <trkpt lat="41.562108000" lon="1.793657000">
        <ele>449.70</ele>
        <time>2013-04-30T18:25:21Z</time>
      </trkpt>
      <trkpt lat="41.562303000" lon="1.793521000">
        <ele>448.20</ele>
        <time>2013-04-30T18:25:30Z</time>
      </trkpt>
      <trkpt lat="41.562495000" lon="1.793404000">
        <ele>444.90</ele>
        <time>2013-04-30T18:25:39Z</time>
      </trkpt>
      <trkpt lat="41.562681000" lon="1.793468000">
        <ele>441.40</ele>
        <time>2013-04-30T18:25:46Z</time>
      </trkpt>
      <trkpt lat="41.562741000" lon="1.793682000">
        <ele>439.90</ele>
        <time>2013-04-30T18:26:05Z</time>
      </trkpt>
      <trkpt lat="41.562862000" lon="1.793874000">
        <ele>439.40</ele>
        <time>2013-04-30T18:26:13Z</time>
      </trkpt>
      <trkpt lat="41.563038000" lon="1.793943000">
        <ele>436.90</ele>
        <time>2013-04-30T18:26:20Z</time>
      </trkpt>
      <trkpt lat="41.563218000" lon="1.793911000">
        <ele>436.30</ele>
        <time>2013-04-30T18:26:27Z</time>
      </trkpt>
      <trkpt lat="41.563374000" lon="1.793695000">
        <ele>433.90</ele>
        <time>2013-04-30T18:26:36Z</time>
      </trkpt>
      <trkpt lat="41.563534000" lon="1.793518000">
        <ele>432.00</ele>
        <time>2013-04-30T18:26:42Z</time>
      </trkpt>
      <trkpt lat="41.563668000" lon="1.793294000">
        <ele>433.60</ele>
        <time>2013-04-30T18:26:50Z</time>
      </trkpt>
      <trkpt lat="41.563807000" lon="1.793057000">
        <ele>436.50</ele>
        <time>2013-04-30T18:27:00Z</time>
      </trkpt>
      <trkpt lat="41.563834000" lon="1.792798000">
        <ele>438.70</ele>
        <time>2013-04-30T18:27:08Z</time>
      </trkpt>
      <trkpt lat="41.563879000" lon="1.792580000">
        <ele>439.50</ele>
        <time>2013-04-30T18:27:15Z</time>
      </trkpt>
      <trkpt lat="41.563886000" lon="1.792301000">
        <ele>440.10</ele>
        <time>2013-04-30T18:27:22Z</time>
      </trkpt>
      <trkpt lat="41.563830000" lon="1.792048000">
        <ele>439.60</ele>
        <time>2013-04-30T18:27:30Z</time>
      </trkpt>
      <trkpt lat="41.563830000" lon="1.791785000">
        <ele>437.70</ele>
        <time>2013-04-30T18:27:38Z</time>
      </trkpt>
      <trkpt lat="41.563758000" lon="1.791530000">
        <ele>434.80</ele>
        <time>2013-04-30T18:27:44Z</time>
      </trkpt>
      <trkpt lat="41.563743000" lon="1.791288000">
        <ele>432.40</ele>
        <time>2013-04-30T18:27:49Z</time>
      </trkpt>
      <trkpt lat="41.563767000" lon="1.791030000">
        <ele>432.70</ele>
        <time>2013-04-30T18:27:56Z</time>
      </trkpt>
      <trkpt lat="41.563784000" lon="1.790753000">
        <ele>433.70</ele>
        <time>2013-04-30T18:28:03Z</time>
      </trkpt>
      <trkpt lat="41.563633000" lon="1.790597000">
        <ele>431.30</ele>
        <time>2013-04-30T18:28:10Z</time>
      </trkpt>
      <trkpt lat="41.563557000" lon="1.790360000">
        <ele>428.20</ele>
        <time>2013-04-30T18:28:16Z</time>
      </trkpt>
      <trkpt lat="41.563414000" lon="1.790149000">
        <ele>425.20</ele>
        <time>2013-04-30T18:28:21Z</time>
      </trkpt>
      <trkpt lat="41.563417000" lon="1.789927000">
        <ele>424.10</ele>
        <time>2013-04-30T18:28:31Z</time>
      </trkpt>
      <trkpt lat="41.563609000" lon="1.789985000">
        <ele>419.80</ele>
        <time>2013-04-30T18:28:43Z</time>
      </trkpt>
      <trkpt lat="41.563695000" lon="1.789785000">
        <ele>418.20</ele>
        <time>2013-04-30T18:28:49Z</time>
      </trkpt>
      <trkpt lat="41.563803000" lon="1.789591000">
        <ele>417.30</ele>
        <time>2013-04-30T18:28:58Z</time>
      </trkpt>
      <trkpt lat="41.564019000" lon="1.789571000">
        <ele>415.30</ele>
        <time>2013-04-30T18:29:05Z</time>
      </trkpt>
      <trkpt lat="41.564199000" lon="1.789437000">
        <ele>414.70</ele>
        <time>2013-04-30T18:29:10Z</time>
      </trkpt>
      <trkpt lat="41.564373000" lon="1.789345000">
        <ele>413.60</ele>
        <time>2013-04-30T18:29:17Z</time>
      </trkpt>
      <trkpt lat="41.564417000" lon="1.789100000">
        <ele>410.70</ele>
        <time>2013-04-30T18:29:22Z</time>
      </trkpt>
      <trkpt lat="41.564357000" lon="1.788854000">
        <ele>410.20</ele>
        <time>2013-04-30T18:29:27Z</time>
      </trkpt>
      <trkpt lat="41.564306000" lon="1.788590000">
        <ele>414.90</ele>
        <time>2013-04-30T18:29:37Z</time>
      </trkpt>
      <trkpt lat="41.564480000" lon="1.788489000">
        <ele>417.00</ele>
        <time>2013-04-30T18:30:12Z</time>
      </trkpt>
      <trkpt lat="41.564509000" lon="1.788259000">
        <ele>419.50</ele>
        <time>2013-04-30T18:30:24Z</time>
      </trkpt>
      <trkpt lat="41.564456000" lon="1.788005000">
        <ele>420.70</ele>
        <time>2013-04-30T18:30:34Z</time>
      </trkpt>
      <trkpt lat="41.564427000" lon="1.787775000">
        <ele>424.70</ele>
        <time>2013-04-30T18:30:46Z</time>
      </trkpt>
      <trkpt lat="41.564548000" lon="1.787595000">
        <ele>424.60</ele>
        <time>2013-04-30T18:30:57Z</time>
      </trkpt>
      <trkpt lat="41.564666000" lon="1.787408000">
        <ele>425.70</ele>
        <time>2013-04-30T18:31:04Z</time>
      </trkpt>
      <trkpt lat="41.564743000" lon="1.787159000">
        <ele>427.30</ele>
        <time>2013-04-30T18:31:13Z</time>
      </trkpt>
      <trkpt lat="41.564728000" lon="1.786872000">
        <ele>425.10</ele>
        <time>2013-04-30T18:31:20Z</time>
      </trkpt>
      <trkpt lat="41.564725000" lon="1.786589000">
        <ele>428.60</ele>
        <time>2013-04-30T18:31:29Z</time>
      </trkpt>
      <trkpt lat="41.564791000" lon="1.786328000">
        <ele>429.60</ele>
        <time>2013-04-30T18:31:38Z</time>
      </trkpt>
      <trkpt lat="41.564859000" lon="1.786056000">
        <ele>430.20</ele>
        <time>2013-04-30T18:31:47Z</time>
      </trkpt>
      <trkpt lat="41.564993000" lon="1.785892000">
        <ele>430.00</ele>
        <time>2013-04-30T18:31:54Z</time>
      </trkpt>
      <trkpt lat="41.565161000" lon="1.785834000">
        <ele>430.40</ele>
        <time>2013-04-30T18:32:01Z</time>
      </trkpt>
      <trkpt lat="41.565307000" lon="1.785805000">
        <ele>431.60</ele>
        <time>2013-04-30T18:32:12Z</time>
      </trkpt>
      <trkpt lat="41.565460000" lon="1.785636000">
        <ele>432.20</ele>
        <time>2013-04-30T18:32:21Z</time>
      </trkpt>
      <trkpt lat="41.565587000" lon="1.785471000">
        <ele>433.30</ele>
        <time>2013-04-30T18:32:30Z</time>
      </trkpt>
      <trkpt lat="41.565722000" lon="1.785291000">
        <ele>434.20</ele>
        <time>2013-04-30T18:32:39Z</time>
      </trkpt>
      <trkpt lat="41.565873000" lon="1.785128000">
        <ele>435.80</ele>
        <time>2013-04-30T18:32:47Z</time>
      </trkpt>
      <trkpt lat="41.566050000" lon="1.785001000">
        <ele>436.90</ele>
        <time>2013-04-30T18:32:56Z</time>
      </trkpt>
      <trkpt lat="41.566186000" lon="1.784848000">
        <ele>435.20</ele>
        <time>2013-04-30T18:33:03Z</time>
      </trkpt>
      <trkpt lat="41.566345000" lon="1.784689000">
        <ele>435.10</ele>
        <time>2013-04-30T18:33:12Z</time>
      </trkpt>
      <trkpt lat="41.566481000" lon="1.784505000">
        <ele>436.80</ele>
        <time>2013-04-30T18:33:20Z</time>
      </trkpt>
      <trkpt lat="41.566640000" lon="1.784345000">
        <ele>438.60</ele>
        <time>2013-04-30T18:33:30Z</time>
      </trkpt>
      <trkpt lat="41.566770000" lon="1.784191000">
        <ele>439.60</ele>
        <time>2013-04-30T18:33:38Z</time>
      </trkpt>
      <trkpt lat="41.566863000" lon="1.783947000">
        <ele>438.50</ele>
        <time>2013-04-30T18:33:46Z</time>
      </trkpt>
      <trkpt lat="41.566970000" lon="1.783702000">
        <ele>437.00</ele>
        <time>2013-04-30T18:33:52Z</time>
      </trkpt>
      <trkpt lat="41.567145000" lon="1.783621000">
        <ele>436.50</ele>
        <time>2013-04-30T18:33:57Z</time>
      </trkpt>
      <trkpt lat="41.567316000" lon="1.783454000">
        <ele>436.70</ele>
        <time>2013-04-30T18:34:05Z</time>
      </trkpt>
      <trkpt lat="41.567448000" lon="1.783269000">
        <ele>433.00</ele>
        <time>2013-04-30T18:34:08Z</time>
      </trkpt>
      <trkpt lat="41.567593000" lon="1.783013000">
        <ele>430.30</ele>
        <time>2013-04-30T18:34:11Z</time>
      </trkpt>
      <trkpt lat="41.567755000" lon="1.782759000">
        <ele>429.30</ele>
        <time>2013-04-30T18:34:14Z</time>
      </trkpt>
      <trkpt lat="41.567917000" lon="1.782546000">
        <ele>429.30</ele>
        <time>2013-04-30T18:34:17Z</time>
      </trkpt>
      <trkpt lat="41.568109000" lon="1.782380000">
        <ele>432.40</ele>
        <time>2013-04-30T18:34:21Z</time>
      </trkpt>
      <trkpt lat="41.568272000" lon="1.782244000">
        <ele>433.60</ele>
        <time>2013-04-30T18:34:26Z</time>
      </trkpt>
      <trkpt lat="41.568440000" lon="1.782102000">
        <ele>434.60</ele>
        <time>2013-04-30T18:34:32Z</time>
      </trkpt>
      <trkpt lat="41.568605000" lon="1.781943000">
        <ele>435.60</ele>
        <time>2013-04-30T18:34:38Z</time>
      </trkpt>
      <trkpt lat="41.568776000" lon="1.781789000">
        <ele>436.00</ele>
        <time>2013-04-30T18:34:44Z</time>
      </trkpt>
      <trkpt lat="41.568942000" lon="1.781634000">
        <ele>436.90</ele>
        <time>2013-04-30T18:34:50Z</time>
      </trkpt>
      <trkpt lat="41.569112000" lon="1.781490000">
        <ele>438.00</ele>
        <time>2013-04-30T18:34:56Z</time>
      </trkpt>
      <trkpt lat="41.569288000" lon="1.781366000">
        <ele>439.30</ele>
        <time>2013-04-30T18:35:02Z</time>
      </trkpt>
      <trkpt lat="41.569471000" lon="1.781270000">
        <ele>440.30</ele>
        <time>2013-04-30T18:35:08Z</time>
      </trkpt>
      <trkpt lat="41.569666000" lon="1.781207000">
        <ele>441.50</ele>
        <time>2013-04-30T18:35:14Z</time>
      </trkpt>
      <trkpt lat="41.569866000" lon="1.781161000">
        <ele>441.70</ele>
        <time>2013-04-30T18:35:20Z</time>
      </trkpt>
      <trkpt lat="41.570065000" lon="1.781094000">
        <ele>441.50</ele>
        <time>2013-04-30T18:35:26Z</time>
      </trkpt>
      <trkpt lat="41.570250000" lon="1.780996000">
        <ele>442.20</ele>
        <time>2013-04-30T18:35:32Z</time>
      </trkpt>
      <trkpt lat="41.570414000" lon="1.780861000">
        <ele>442.90</ele>
        <time>2013-04-30T18:35:38Z</time>
      </trkpt>
      <trkpt lat="41.570603000" lon="1.780759000">
        <ele>444.40</ele>
        <time>2013-04-30T18:35:44Z</time>
      </trkpt>
      <trkpt lat="41.570791000" lon="1.780733000">
        <ele>445.10</ele>
        <time>2013-04-30T18:35:50Z</time>
      </trkpt>
      <trkpt lat="41.571000000" lon="1.780694000">
        <ele>444.40</ele>
        <time>2013-04-30T18:35:56Z</time>
      </trkpt>
      <trkpt lat="41.571224000" lon="1.780659000">
        <ele>443.80</ele>
        <time>2013-04-30T18:36:01Z</time>
      </trkpt>
      <trkpt lat="41.571402000" lon="1.780733000">
        <ele>443.50</ele>
        <time>2013-04-30T18:36:05Z</time>
      </trkpt>
      <trkpt lat="41.571539000" lon="1.780906000">
        <ele>444.40</ele>
        <time>2013-04-30T18:36:09Z</time>
      </trkpt>
      <trkpt lat="41.571652000" lon="1.781168000">
        <ele>444.70</ele>
        <time>2013-04-30T18:36:14Z</time>
      </trkpt>
      <trkpt lat="41.571818000" lon="1.781357000">
        <ele>445.00</ele>
        <time>2013-04-30T18:36:19Z</time>
      </trkpt>
      <trkpt lat="41.572026000" lon="1.781354000">
        <ele>444.80</ele>
        <time>2013-04-30T18:36:24Z</time>
      </trkpt>
      <trkpt lat="41.572216000" lon="1.781440000">
        <ele>445.30</ele>
        <time>2013-04-30T18:36:29Z</time>
      </trkpt>
      <trkpt lat="41.572297000" lon="1.781707000">
        <ele>445.70</ele>
        <time>2013-04-30T18:36:34Z</time>
      </trkpt>
      <trkpt lat="41.572428000" lon="1.781940000">
        <ele>445.30</ele>
        <time>2013-04-30T18:36:39Z</time>
      </trkpt>
      <trkpt lat="41.572601000" lon="1.782143000">
        <ele>445.80</ele>
        <time>2013-04-30T18:36:44Z</time>
      </trkpt>
      <trkpt lat="41.572749000" lon="1.782296000">
        <ele>445.30</ele>
        <time>2013-04-30T18:36:48Z</time>
      </trkpt>
      <trkpt lat="41.572944000" lon="1.782450000">
        <ele>445.80</ele>
        <time>2013-04-30T18:36:53Z</time>
      </trkpt>
      <trkpt lat="41.573159000" lon="1.782490000">
        <ele>445.40</ele>
        <time>2013-04-30T18:36:58Z</time>
      </trkpt>
      <trkpt lat="41.573350000" lon="1.782357000">
        <ele>445.60</ele>
        <time>2013-04-30T18:37:03Z</time>
      </trkpt>
      <trkpt lat="41.573502000" lon="1.782146000">
        <ele>445.20</ele>
        <time>2013-04-30T18:37:08Z</time>
      </trkpt>
      <trkpt lat="41.573644000" lon="1.781964000">
        <ele>445.40</ele>
        <time>2013-04-30T18:37:13Z</time>
      </trkpt>
      <trkpt lat="41.573794000" lon="1.781813000">
        <ele>444.80</ele>
        <time>2013-04-30T18:37:18Z</time>
      </trkpt>
      <trkpt lat="41.573945000" lon="1.781637000">
        <ele>444.90</ele>
        <time>2013-04-30T18:37:23Z</time>
      </trkpt>
      <trkpt lat="41.574128000" lon="1.781457000">
        <ele>445.20</ele>
        <time>2013-04-30T18:37:28Z</time>
      </trkpt>
      <trkpt lat="41.574277000" lon="1.781243000">
        <ele>444.50</ele>
        <time>2013-04-30T18:37:33Z</time>
      </trkpt>
      <trkpt lat="41.574434000" lon="1.781104000">
        <ele>443.70</ele>
        <time>2013-04-30T18:37:37Z</time>
      </trkpt>
      <trkpt lat="41.574599000" lon="1.781197000">
        <ele>444.30</ele>
        <time>2013-04-30T18:37:42Z</time>
      </trkpt>
      <trkpt lat="41.574621000" lon="1.781472000">
        <ele>443.90</ele>
        <time>2013-04-30T18:37:47Z</time>
      </trkpt>
      <trkpt lat="41.574761000" lon="1.781654000">
        <ele>444.20</ele>
        <time>2013-04-30T18:37:52Z</time>
      </trkpt>
      <trkpt lat="41.574867000" lon="1.781821000">
        <ele>444.40</ele>
        <time>2013-04-30T18:37:56Z</time>
      </trkpt>
      <trkpt lat="41.574950000" lon="1.782014000">
        <ele>447.10</ele>
        <time>2013-04-30T18:38:02Z</time>
      </trkpt>
      <trkpt lat="41.575063000" lon="1.781898000">
        <ele>448.80</ele>
        <time>2013-04-30T18:38:11Z</time>
      </trkpt>
      <trkpt lat="41.575098000" lon="1.781655000">
        <ele>448.80</ele>
        <time>2013-04-30T18:38:17Z</time>
      </trkpt>
      <trkpt lat="41.575250000" lon="1.781488000">
        <ele>451.10</ele>
        <time>2013-04-30T18:38:24Z</time>
      </trkpt>
      <trkpt lat="41.575392000" lon="1.781324000">
        <ele>453.30</ele>
        <time>2013-04-30T18:38:31Z</time>
      </trkpt>
      <trkpt lat="41.575564000" lon="1.781200000">
        <ele>454.70</ele>
        <time>2013-04-30T18:38:38Z</time>
      </trkpt>
      <trkpt lat="41.575759000" lon="1.781100000">
        <ele>456.00</ele>
        <time>2013-04-30T18:38:45Z</time>
      </trkpt>
      <trkpt lat="41.575960000" lon="1.781073000">
        <ele>457.20</ele>
        <time>2013-04-30T18:38:52Z</time>
      </trkpt>
      <trkpt lat="41.576136000" lon="1.780990000">
        <ele>458.40</ele>
        <time>2013-04-30T18:38:59Z</time>
      </trkpt>
      <trkpt lat="41.576390000" lon="1.780843000">
        <ele>459.20</ele>
        <time>2013-04-30T18:39:11Z</time>
      </trkpt>
      <trkpt lat="41.576518000" lon="1.781069000">
        <ele>459.80</ele>
        <time>2013-04-30T18:39:22Z</time>
      </trkpt>
      <trkpt lat="41.576632000" lon="1.781271000">
        <ele>459.80</ele>
        <time>2013-04-30T18:39:32Z</time>
      </trkpt>
      <trkpt lat="41.576719000" lon="1.781494000">
        <ele>460.00</ele>
        <time>2013-04-30T18:39:38Z</time>
      </trkpt>
      <trkpt lat="41.576788000" lon="1.781763000">
        <ele>460.60</ele>
        <time>2013-04-30T18:39:45Z</time>
      </trkpt>
      <trkpt lat="41.576849000" lon="1.782011000">
        <ele>460.70</ele>
        <time>2013-04-30T18:39:52Z</time>
      </trkpt>
      <trkpt lat="41.576952000" lon="1.782200000">
        <ele>460.90</ele>
        <time>2013-04-30T18:40:02Z</time>
      </trkpt>
      <trkpt lat="41.577042000" lon="1.782217000">
        <ele>460.30</ele>
        <time>2013-04-30T18:45:25Z</time>
      </trkpt>
      <trkpt lat="41.577170000" lon="1.782042000">
        <ele>460.70</ele>
        <time>2013-04-30T18:45:31Z</time>
      </trkpt>
      <trkpt lat="41.577315000" lon="1.781898000">
        <ele>461.40</ele>
        <time>2013-04-30T18:45:37Z</time>
      </trkpt>
      <trkpt lat="41.577453000" lon="1.781740000">
        <ele>462.40</ele>
        <time>2013-04-30T18:45:43Z</time>
      </trkpt>
      <trkpt lat="41.577605000" lon="1.781579000">
        <ele>463.50</ele>
        <time>2013-04-30T18:45:49Z</time>
      </trkpt>
      <trkpt lat="41.577750000" lon="1.781413000">
        <ele>465.00</ele>
        <time>2013-04-30T18:45:55Z</time>
      </trkpt>
      <trkpt lat="41.577907000" lon="1.781259000">
        <ele>466.30</ele>
        <time>2013-04-30T18:46:01Z</time>
      </trkpt>
      <trkpt lat="41.578047000" lon="1.781088000">
        <ele>467.20</ele>
        <time>2013-04-30T18:46:07Z</time>
      </trkpt>
      <trkpt lat="41.578193000" lon="1.780931000">
        <ele>468.70</ele>
        <time>2013-04-30T18:46:13Z</time>
      </trkpt>
      <trkpt lat="41.578366000" lon="1.780804000">
        <ele>470.10</ele>
        <time>2013-04-30T18:46:19Z</time>
      </trkpt>
      <trkpt lat="41.578561000" lon="1.780726000">
        <ele>469.60</ele>
        <time>2013-04-30T18:46:25Z</time>
      </trkpt>
      <trkpt lat="41.578769000" lon="1.780661000">
        <ele>470.50</ele>
        <time>2013-04-30T18:46:31Z</time>
      </trkpt>
      <trkpt lat="41.578962000" lon="1.780612000">
        <ele>471.40</ele>
        <time>2013-04-30T18:46:37Z</time>
      </trkpt>
      <trkpt lat="41.579157000" lon="1.780543000">
        <ele>472.10</ele>
        <time>2013-04-30T18:46:43Z</time>
      </trkpt>
      <trkpt lat="41.579355000" lon="1.780463000">
        <ele>473.20</ele>
        <time>2013-04-30T18:46:49Z</time>
      </trkpt>
      <trkpt lat="41.579557000" lon="1.780406000">
        <ele>473.60</ele>
        <time>2013-04-30T18:46:55Z</time>
      </trkpt>
      <trkpt lat="41.579751000" lon="1.780338000">
        <ele>474.00</ele>
        <time>2013-04-30T18:47:01Z</time>
      </trkpt>
      <trkpt lat="41.579950000" lon="1.780272000">
        <ele>475.50</ele>
        <time>2013-04-30T18:47:07Z</time>
      </trkpt>
      <trkpt lat="41.580143000" lon="1.780208000">
        <ele>477.40</ele>
        <time>2013-04-30T18:47:13Z</time>
      </trkpt>
      <trkpt lat="41.580339000" lon="1.780137000">
        <ele>478.50</ele>
        <time>2013-04-30T18:47:19Z</time>
      </trkpt>
      <trkpt lat="41.580540000" lon="1.780088000">
        <ele>479.80</ele>
        <time>2013-04-30T18:47:25Z</time>
      </trkpt>
      <trkpt lat="41.580735000" lon="1.780052000">
        <ele>480.50</ele>
        <time>2013-04-30T18:47:31Z</time>
      </trkpt>
      <trkpt lat="41.580938000" lon="1.780013000">
        <ele>480.60</ele>
        <time>2013-04-30T18:47:37Z</time>
      </trkpt>
      <trkpt lat="41.581132000" lon="1.779957000">
        <ele>481.90</ele>
        <time>2013-04-30T18:47:43Z</time>
      </trkpt>
      <trkpt lat="41.581341000" lon="1.779906000">
        <ele>482.60</ele>
        <time>2013-04-30T18:47:49Z</time>
      </trkpt>
      <trkpt lat="41.581540000" lon="1.779797000">
        <ele>485.10</ele>
        <time>2013-04-30T18:47:55Z</time>
      </trkpt>
      <trkpt lat="41.581715000" lon="1.779661000">
        <ele>486.30</ele>
        <time>2013-04-30T18:48:01Z</time>
      </trkpt>
      <trkpt lat="41.581889000" lon="1.779578000">
        <ele>487.90</ele>
        <time>2013-04-30T18:48:08Z</time>
      </trkpt>
      <trkpt lat="41.582006000" lon="1.779784000">
        <ele>487.30</ele>
        <time>2013-04-30T18:48:30Z</time>
      </trkpt>
      <trkpt lat="41.582090000" lon="1.780011000">
        <ele>485.90</ele>
        <time>2013-04-30T18:48:35Z</time>
      </trkpt>
      <trkpt lat="41.582161000" lon="1.780282000">
        <ele>482.90</ele>
        <time>2013-04-30T18:48:39Z</time>
      </trkpt>
      <trkpt lat="41.582227000" lon="1.780536000">
        <ele>479.00</ele>
        <time>2013-04-30T18:48:42Z</time>
      </trkpt>
      <trkpt lat="41.582269000" lon="1.780795000">
        <ele>475.70</ele>
        <time>2013-04-30T18:48:45Z</time>
      </trkpt>
      <trkpt lat="41.582303000" lon="1.781059000">
        <ele>477.20</ele>
        <time>2013-04-30T18:48:48Z</time>
      </trkpt>
      <trkpt lat="41.582268000" lon="1.781313000">
        <ele>480.10</ele>
        <time>2013-04-30T18:48:53Z</time>
      </trkpt>
      <trkpt lat="41.582308000" lon="1.781553000">
        <ele>482.30</ele>
        <time>2013-04-30T18:49:00Z</time>
      </trkpt>
      <trkpt lat="41.582441000" lon="1.781644000">
        <ele>485.40</ele>
        <time>2013-04-30T18:49:11Z</time>
      </trkpt>
      <trkpt lat="41.582626000" lon="1.781566000">
        <ele>486.70</ele>
        <time>2013-04-30T18:49:21Z</time>
      </trkpt>
      <trkpt lat="41.582791000" lon="1.781644000">
        <ele>487.00</ele>
        <time>2013-04-30T18:49:29Z</time>
      </trkpt>
      <trkpt lat="41.582878000" lon="1.781890000">
        <ele>486.70</ele>
        <time>2013-04-30T18:49:36Z</time>
      </trkpt>
      <trkpt lat="41.582926000" lon="1.782149000">
        <ele>486.50</ele>
        <time>2013-04-30T18:49:42Z</time>
      </trkpt>
      <trkpt lat="41.582998000" lon="1.782384000">
        <ele>486.10</ele>
        <time>2013-04-30T18:49:48Z</time>
      </trkpt>
      <trkpt lat="41.583057000" lon="1.782624000">
        <ele>485.90</ele>
        <time>2013-04-30T18:49:54Z</time>
      </trkpt>
      <trkpt lat="41.583198000" lon="1.782831000">
        <ele>486.30</ele>
        <time>2013-04-30T18:50:00Z</time>
      </trkpt>
      <trkpt lat="41.583363000" lon="1.782958000">
        <ele>485.90</ele>
        <time>2013-04-30T18:50:05Z</time>
      </trkpt>
      <trkpt lat="41.583522000" lon="1.783124000">
        <ele>485.90</ele>
        <time>2013-04-30T18:50:10Z</time>
      </trkpt>
      <trkpt lat="41.583619000" lon="1.783330000">
        <ele>484.80</ele>
        <time>2013-04-30T18:50:15Z</time>
      </trkpt>
      <trkpt lat="41.583520000" lon="1.783554000">
        <ele>484.80</ele>
        <time>2013-04-30T18:50:20Z</time>
      </trkpt>
      <trkpt lat="41.583298000" lon="1.783560000">
        <ele>486.20</ele>
        <time>2013-04-30T18:50:26Z</time>
      </trkpt>
      <trkpt lat="41.583098000" lon="1.783544000">
        <ele>486.50</ele>
        <time>2013-04-30T18:50:32Z</time>
      </trkpt>
      <trkpt lat="41.582880000" lon="1.783533000">
        <ele>487.20</ele>
        <time>2013-04-30T18:50:37Z</time>
      </trkpt>
      <trkpt lat="41.582669000" lon="1.783493000">
        <ele>487.90</ele>
        <time>2013-04-30T18:50:43Z</time>
      </trkpt>
      <trkpt lat="41.582485000" lon="1.783511000">
        <ele>488.40</ele>
        <time>2013-04-30T18:51:40Z</time>
      </trkpt>
      <trkpt lat="41.582296000" lon="1.783600000">
        <ele>489.80</ele>
        <time>2013-04-30T18:51:48Z</time>
      </trkpt>
      <trkpt lat="41.582133000" lon="1.783765000">
        <ele>490.90</ele>
        <time>2013-04-30T18:51:54Z</time>
      </trkpt>
      <trkpt lat="41.582139000" lon="1.784028000">
        <ele>491.50</ele>
        <time>2013-04-30T18:52:00Z</time>
      </trkpt>
      <trkpt lat="41.582205000" lon="1.784278000">
        <ele>490.90</ele>
        <time>2013-04-30T18:52:06Z</time>
      </trkpt>
      <trkpt lat="41.582328000" lon="1.784484000">
        <ele>489.10</ele>
        <time>2013-04-30T18:52:10Z</time>
      </trkpt>
      <trkpt lat="41.582469000" lon="1.784635000">
        <ele>487.20</ele>
        <time>2013-04-30T18:52:13Z</time>
      </trkpt>
      <trkpt lat="41.582570000" lon="1.784840000">
        <ele>486.00</ele>
        <time>2013-04-30T18:52:17Z</time>
      </trkpt>
      <trkpt lat="41.582435000" lon="1.785022000">
        <ele>484.60</ele>
        <time>2013-04-30T18:52:21Z</time>
      </trkpt>
      <trkpt lat="41.582243000" lon="1.785131000">
        <ele>484.80</ele>
        <time>2013-04-30T18:52:25Z</time>
      </trkpt>
      <trkpt lat="41.582101000" lon="1.785297000">
        <ele>483.00</ele>
        <time>2013-04-30T18:52:28Z</time>
      </trkpt>
      <trkpt lat="41.581975000" lon="1.785517000">
        <ele>481.90</ele>
        <time>2013-04-30T18:52:31Z</time>
      </trkpt>
      <trkpt lat="41.581909000" lon="1.785752000">
        <ele>482.70</ele>
        <time>2013-04-30T18:52:34Z</time>
      </trkpt>
      <trkpt lat="41.581984000" lon="1.786031000">
        <ele>484.10</ele>
        <time>2013-04-30T18:52:38Z</time>
      </trkpt>
      <trkpt lat="41.582076000" lon="1.786249000">
        <ele>485.60</ele>
        <time>2013-04-30T18:52:42Z</time>
      </trkpt>
      <trkpt lat="41.582259000" lon="1.786419000">
        <ele>486.60</ele>
        <time>2013-04-30T18:52:47Z</time>
      </trkpt>
      <trkpt lat="41.582450000" lon="1.786540000">
        <ele>487.50</ele>
        <time>2013-04-30T18:52:52Z</time>
      </trkpt>
      <trkpt lat="41.582610000" lon="1.786689000">
        <ele>488.10</ele>
        <time>2013-04-30T18:52:57Z</time>
      </trkpt>
      <trkpt lat="41.582726000" lon="1.786923000">
        <ele>487.30</ele>
        <time>2013-04-30T18:53:02Z</time>
      </trkpt>
      <trkpt lat="41.582737000" lon="1.787169000">
        <ele>486.80</ele>
        <time>2013-04-30T18:53:06Z</time>
      </trkpt>
      <trkpt lat="41.582723000" lon="1.787417000">
        <ele>486.90</ele>
        <time>2013-04-30T18:53:10Z</time>
      </trkpt>
      <trkpt lat="41.582689000" lon="1.787664000">
        <ele>487.00</ele>
        <time>2013-04-30T18:53:14Z</time>
      </trkpt>
      <trkpt lat="41.582616000" lon="1.787897000">
        <ele>489.60</ele>
        <time>2013-04-30T18:53:19Z</time>
      </trkpt>
      <trkpt lat="41.582564000" lon="1.788143000">
        <ele>493.60</ele>
        <time>2013-04-30T18:53:27Z</time>
      </trkpt>
      <trkpt lat="41.582477000" lon="1.788350000">
        <ele>496.50</ele>
        <time>2013-04-30T18:53:35Z</time>
      </trkpt>
      <trkpt lat="41.582334000" lon="1.788503000">
        <ele>499.40</ele>
        <time>2013-04-30T18:53:43Z</time>
      </trkpt>
      <trkpt lat="41.582198000" lon="1.788669000">
        <ele>500.90</ele>
        <time>2013-04-30T18:53:52Z</time>
      </trkpt>
      <trkpt lat="41.582089000" lon="1.788865000">
        <ele>503.20</ele>
        <time>2013-04-30T18:54:01Z</time>
      </trkpt>
      <trkpt lat="41.582061000" lon="1.789120000">
        <ele>504.20</ele>
        <time>2013-04-30T18:54:11Z</time>
      </trkpt>
      <trkpt lat="41.582104000" lon="1.789356000">
        <ele>506.60</ele>
        <time>2013-04-30T18:54:20Z</time>
      </trkpt>
      <trkpt lat="41.582135000" lon="1.789600000">
        <ele>507.90</ele>
        <time>2013-04-30T18:54:32Z</time>
      </trkpt>
      <trkpt lat="41.582226000" lon="1.789816000">
        <ele>508.60</ele>
        <time>2013-04-30T18:54:42Z</time>
      </trkpt>
      <trkpt lat="41.582114000" lon="1.790028000">
        <ele>507.70</ele>
        <time>2013-04-30T18:54:49Z</time>
      </trkpt>
      <trkpt lat="41.581914000" lon="1.790065000">
        <ele>508.90</ele>
        <time>2013-04-30T18:54:58Z</time>
      </trkpt>
      <trkpt lat="41.581708000" lon="1.790085000">
        <ele>507.20</ele>
        <time>2013-04-30T18:55:07Z</time>
      </trkpt>
      <trkpt lat="41.581533000" lon="1.790202000">
        <ele>505.30</ele>
        <time>2013-04-30T18:55:11Z</time>
      </trkpt>
      <trkpt lat="41.581375000" lon="1.790344000">
        <ele>506.80</ele>
        <time>2013-04-30T18:55:15Z</time>
      </trkpt>
      <trkpt lat="41.581235000" lon="1.790495000">
        <ele>505.60</ele>
        <time>2013-04-30T18:55:20Z</time>
      </trkpt>
      <trkpt lat="41.581025000" lon="1.790627000">
        <ele>503.50</ele>
        <time>2013-04-30T18:55:24Z</time>
      </trkpt>
      <trkpt lat="41.580861000" lon="1.790747000">
        <ele>502.70</ele>
        <time>2013-04-30T18:55:27Z</time>
      </trkpt>
      <trkpt lat="41.580703000" lon="1.790887000">
        <ele>501.70</ele>
        <time>2013-04-30T18:55:30Z</time>
      </trkpt>
      <trkpt lat="41.580554000" lon="1.791071000">
        <ele>500.50</ele>
        <time>2013-04-30T18:55:33Z</time>
      </trkpt>
      <trkpt lat="41.580363000" lon="1.791172000">
        <ele>499.50</ele>
        <time>2013-04-30T18:55:36Z</time>
      </trkpt>
      <trkpt lat="41.580134000" lon="1.791109000">
        <ele>498.40</ele>
        <time>2013-04-30T18:55:40Z</time>
      </trkpt>
      <trkpt lat="41.579938000" lon="1.790991000">
        <ele>498.40</ele>
        <time>2013-04-30T18:55:44Z</time>
      </trkpt>
      <trkpt lat="41.579776000" lon="1.791066000">
        <ele>495.50</ele>
        <time>2013-04-30T18:55:50Z</time>
      </trkpt>
      <trkpt lat="41.579652000" lon="1.791257000">
        <ele>491.20</ele>
        <time>2013-04-30T18:55:56Z</time>
      </trkpt>
      <trkpt lat="41.579491000" lon="1.791428000">
        <ele>487.80</ele>
        <time>2013-04-30T18:56:02Z</time>
      </trkpt>
      <trkpt lat="41.579286000" lon="1.791486000">
        <ele>485.30</ele>
        <time>2013-04-30T18:56:07Z</time>
      </trkpt>
      <trkpt lat="41.579083000" lon="1.791538000">
        <ele>485.60</ele>
        <time>2013-04-30T18:56:17Z</time>
      </trkpt>
      <trkpt lat="41.578902000" lon="1.791623000">
        <ele>486.60</ele>
        <time>2013-04-30T18:56:23Z</time>
      </trkpt>
      <trkpt lat="41.578746000" lon="1.791764000">
        <ele>492.40</ele>
        <time>2013-04-30T18:56:34Z</time>
      </trkpt>
      <trkpt lat="41.578566000" lon="1.791877000">
        <ele>493.10</ele>
        <time>2013-04-30T18:56:45Z</time>
      </trkpt>
      <trkpt lat="41.578462000" lon="1.792085000">
        <ele>489.80</ele>
        <time>2013-04-30T18:56:52Z</time>
      </trkpt>
      <trkpt lat="41.578319000" lon="1.792253000">
        <ele>486.10</ele>
        <time>2013-04-30T18:56:58Z</time>
      </trkpt>
      <trkpt lat="41.578190000" lon="1.792470000">
        <ele>483.70</ele>
        <time>2013-04-30T18:57:03Z</time>
      </trkpt>
      <trkpt lat="41.578057000" lon="1.792631000">
        <ele>483.70</ele>
        <time>2013-04-30T18:57:08Z</time>
      </trkpt>
      <trkpt lat="41.577904000" lon="1.792829000">
        <ele>481.20</ele>
        <time>2013-04-30T18:57:19Z</time>
      </trkpt>
      <trkpt lat="41.577840000" lon="1.793097000">
        <ele>475.90</ele>
        <time>2013-04-30T18:57:48Z</time>
      </trkpt>
      <trkpt lat="41.577757000" lon="1.793313000">
        <ele>471.10</ele>
        <time>2013-04-30T18:58:16Z</time>
      </trkpt>
      <trkpt lat="41.577722000" lon="1.793555000">
        <ele>467.20</ele>
        <time>2013-04-30T18:58:29Z</time>
      </trkpt>
      <trkpt lat="41.577626000" lon="1.793774000">
        <ele>462.90</ele>
        <time>2013-04-30T18:58:47Z</time>
      </trkpt>
      <trkpt lat="41.577504000" lon="1.794004000">
        <ele>461.50</ele>
        <time>2013-04-30T18:59:04Z</time>
      </trkpt>
      <trkpt lat="41.577353000" lon="1.794152000">
        <ele>460.80</ele>
        <time>2013-04-30T18:59:13Z</time>
      </trkpt>
      <trkpt lat="41.577234000" lon="1.794358000">
        <ele>459.90</ele>
        <time>2013-04-30T18:59:20Z</time>
      </trkpt>
      <trkpt lat="41.577088000" lon="1.794571000">
        <ele>457.80</ele>
        <time>2013-04-30T18:59:26Z</time>
      </trkpt>
      <trkpt lat="41.576939000" lon="1.794777000">
        <ele>454.20</ele>
        <time>2013-04-30T18:59:32Z</time>
      </trkpt>
      <trkpt lat="41.576868000" lon="1.795024000">
        <ele>451.00</ele>
        <time>2013-04-30T18:59:41Z</time>
      </trkpt>
      <trkpt lat="41.576789000" lon="1.795216000">
        <ele>447.80</ele>
        <time>2013-04-30T18:59:49Z</time>
      </trkpt>
      <trkpt lat="41.576729000" lon="1.795468000">
        <ele>443.90</ele>
        <time>2013-04-30T19:00:00Z</time>
      </trkpt>
      <trkpt lat="41.576609000" lon="1.795708000">
        <ele>439.30</ele>
        <time>2013-04-30T19:00:07Z</time>
      </trkpt>
      <trkpt lat="41.576482000" lon="1.795927000">
        <ele>435.40</ele>
        <time>2013-04-30T19:00:12Z</time>
      </trkpt>
      <trkpt lat="41.576400000" lon="1.796115000">
        <ele>432.60</ele>
        <time>2013-04-30T19:00:20Z</time>
      </trkpt>
      <trkpt lat="41.576486000" lon="1.796296000">
        <ele>427.70</ele>
        <time>2013-04-30T19:00:34Z</time>
      </trkpt>
      <trkpt lat="41.576689000" lon="1.796445000">
        <ele>424.60</ele>
        <time>2013-04-30T19:00:39Z</time>
      </trkpt>
      <trkpt lat="41.576870000" lon="1.796550000">
        <ele>423.60</ele>
        <time>2013-04-30T19:00:44Z</time>
      </trkpt>
      <trkpt lat="41.576987000" lon="1.796775000">
        <ele>426.80</ele>
        <time>2013-04-30T19:00:52Z</time>
      </trkpt>
      <trkpt lat="41.577108000" lon="1.796977000">
        <ele>430.00</ele>
        <time>2013-04-30T19:01:00Z</time>
      </trkpt>
      <trkpt lat="41.577233000" lon="1.797180000">
        <ele>433.00</ele>
        <time>2013-04-30T19:01:08Z</time>
      </trkpt>
      <trkpt lat="41.577202000" lon="1.797356000">
        <ele>433.60</ele>
        <time>2013-04-30T19:01:19Z</time>
      </trkpt>
      <trkpt lat="41.577029000" lon="1.797512000">
        <ele>432.00</ele>
        <time>2013-04-30T19:01:27Z</time>
      </trkpt>
      <trkpt lat="41.576849000" lon="1.797660000">
        <ele>431.00</ele>
        <time>2013-04-30T19:01:33Z</time>
      </trkpt>
      <trkpt lat="41.576664000" lon="1.797810000">
        <ele>429.50</ele>
        <time>2013-04-30T19:01:38Z</time>
      </trkpt>
      <trkpt lat="41.576497000" lon="1.797951000">
        <ele>428.10</ele>
        <time>2013-04-30T19:01:42Z</time>
      </trkpt>
      <trkpt lat="41.576302000" lon="1.798111000">
        <ele>426.80</ele>
        <time>2013-04-30T19:01:46Z</time>
      </trkpt>
      <trkpt lat="41.576140000" lon="1.798243000">
        <ele>425.70</ele>
        <time>2013-04-30T19:01:49Z</time>
      </trkpt>
      <trkpt lat="41.575989000" lon="1.798395000">
        <ele>425.00</ele>
        <time>2013-04-30T19:01:52Z</time>
      </trkpt>
      <trkpt lat="41.575831000" lon="1.798553000">
        <ele>424.00</ele>
        <time>2013-04-30T19:01:55Z</time>
      </trkpt>
      <trkpt lat="41.575658000" lon="1.798682000">
        <ele>423.30</ele>
        <time>2013-04-30T19:01:58Z</time>
      </trkpt>
      <trkpt lat="41.575475000" lon="1.798797000">
        <ele>422.40</ele>
        <time>2013-04-30T19:02:01Z</time>
      </trkpt>
      <trkpt lat="41.575273000" lon="1.798873000">
        <ele>421.60</ele>
        <time>2013-04-30T19:02:04Z</time>
      </trkpt>
      <trkpt lat="41.575064000" lon="1.798939000">
        <ele>420.00</ele>
        <time>2013-04-30T19:02:07Z</time>
      </trkpt>
      <trkpt lat="41.574877000" lon="1.799001000">
        <ele>418.30</ele>
        <time>2013-04-30T19:02:10Z</time>
      </trkpt>
      <trkpt lat="41.574634000" lon="1.799112000">
        <ele>417.90</ele>
        <time>2013-04-30T19:02:14Z</time>
      </trkpt>
      <trkpt lat="41.574428000" lon="1.799272000">
        <ele>418.00</ele>
        <time>2013-04-30T19:02:20Z</time>
      </trkpt>
      <trkpt lat="41.574359000" lon="1.799571000">
        <ele>416.80</ele>
        <time>2013-04-30T19:02:25Z</time>
      </trkpt>
      <trkpt lat="41.574278000" lon="1.799835000">
        <ele>415.90</ele>
        <time>2013-04-30T19:02:29Z</time>
      </trkpt>
      <trkpt lat="41.574225000" lon="1.800141000">
        <ele>413.80</ele>
        <time>2013-04-30T19:02:33Z</time>
      </trkpt>
      <trkpt lat="41.574241000" lon="1.800404000">
        <ele>413.10</ele>
        <time>2013-04-30T19:02:36Z</time>
      </trkpt>
      <trkpt lat="41.574288000" lon="1.800662000">
        <ele>412.30</ele>
        <time>2013-04-30T19:02:39Z</time>
      </trkpt>
      <trkpt lat="41.574282000" lon="1.800914000">
        <ele>412.20</ele>
        <time>2013-04-30T19:02:42Z</time>
      </trkpt>
      <trkpt lat="41.574176000" lon="1.801117000">
        <ele>413.80</ele>
        <time>2013-04-30T19:02:47Z</time>
      </trkpt>
      <trkpt lat="41.573987000" lon="1.801196000">
        <ele>412.00</ele>
        <time>2013-04-30T19:02:52Z</time>
      </trkpt>
      <trkpt lat="41.573825000" lon="1.801306000">
        <ele>411.10</ele>
        <time>2013-04-30T19:02:56Z</time>
      </trkpt>
      <trkpt lat="41.573682000" lon="1.801483000">
        <ele>409.90</ele>
        <time>2013-04-30T19:03:00Z</time>
      </trkpt>
      <trkpt lat="41.573493000" lon="1.801626000">
        <ele>408.80</ele>
        <time>2013-04-30T19:03:04Z</time>
      </trkpt>
      <trkpt lat="41.573311000" lon="1.801825000">
        <ele>407.70</ele>
        <time>2013-04-30T19:03:08Z</time>
      </trkpt>
      <trkpt lat="41.573139000" lon="1.802024000">
        <ele>406.70</ele>
        <time>2013-04-30T19:03:12Z</time>
      </trkpt>
      <trkpt lat="41.572977000" lon="1.802197000">
        <ele>405.80</ele>
        <time>2013-04-30T19:03:16Z</time>
      </trkpt>
      <trkpt lat="41.572802000" lon="1.802389000">
        <ele>404.70</ele>
        <time>2013-04-30T19:03:20Z</time>
      </trkpt>
      <trkpt lat="41.572636000" lon="1.802580000">
        <ele>403.80</ele>
        <time>2013-04-30T19:03:24Z</time>
      </trkpt>
      <trkpt lat="41.572484000" lon="1.802787000">
        <ele>403.40</ele>
        <time>2013-04-30T19:03:28Z</time>
      </trkpt>
      <trkpt lat="41.572323000" lon="1.802968000">
        <ele>402.10</ele>
        <time>2013-04-30T19:03:32Z</time>
      </trkpt>
      <trkpt lat="41.572162000" lon="1.803166000">
        <ele>400.30</ele>
        <time>2013-04-30T19:03:36Z</time>
      </trkpt>
      <trkpt lat="41.571994000" lon="1.803326000">
        <ele>399.00</ele>
        <time>2013-04-30T19:03:40Z</time>
      </trkpt>
      <trkpt lat="41.571808000" lon="1.803520000">
        <ele>396.60</ele>
        <time>2013-04-30T19:03:44Z</time>
      </trkpt>
      <trkpt lat="41.571672000" lon="1.803684000">
        <ele>396.00</ele>
        <time>2013-04-30T19:03:47Z</time>
      </trkpt>
      <trkpt lat="41.571483000" lon="1.803887000">
        <ele>396.00</ele>
        <time>2013-04-30T19:03:51Z</time>
      </trkpt>
      <trkpt lat="41.571347000" lon="1.804072000">
        <ele>395.00</ele>
        <time>2013-04-30T19:03:55Z</time>
      </trkpt>
      <trkpt lat="41.571170000" lon="1.804251000">
        <ele>394.30</ele>
        <time>2013-04-30T19:04:00Z</time>
      </trkpt>
      <trkpt lat="41.571046000" lon="1.804453000">
        <ele>393.40</ele>
        <time>2013-04-30T19:04:04Z</time>
      </trkpt>
      <trkpt lat="41.570954000" lon="1.804637000">
        <ele>391.80</ele>
        <time>2013-04-30T19:04:09Z</time>
      </trkpt>
      <trkpt lat="41.570854000" lon="1.804919000">
        <ele>390.40</ele>
        <time>2013-04-30T19:04:13Z</time>
      </trkpt>
      <trkpt lat="41.570783000" lon="1.805170000">
        <ele>389.30</ele>
        <time>2013-04-30T19:04:17Z</time>
      </trkpt>
      <trkpt lat="41.570748000" lon="1.805445000">
        <ele>388.80</ele>
        <time>2013-04-30T19:04:22Z</time>
      </trkpt>
      <trkpt lat="41.570836000" lon="1.805730000">
        <ele>388.50</ele>
        <time>2013-04-30T19:04:27Z</time>
      </trkpt>
      <trkpt lat="41.570833000" lon="1.805985000">
        <ele>388.00</ele>
        <time>2013-04-30T19:04:33Z</time>
      </trkpt>
      <trkpt lat="41.570637000" lon="1.806111000">
        <ele>386.00</ele>
        <time>2013-04-30T19:04:38Z</time>
      </trkpt>
      <trkpt lat="41.570437000" lon="1.806251000">
        <ele>384.30</ele>
        <time>2013-04-30T19:04:42Z</time>
      </trkpt>
      <trkpt lat="41.570218000" lon="1.806380000">
        <ele>383.30</ele>
        <time>2013-04-30T19:04:46Z</time>
      </trkpt>
      <trkpt lat="41.570049000" lon="1.806496000">
        <ele>382.70</ele>
        <time>2013-04-30T19:04:49Z</time>
      </trkpt>
      <trkpt lat="41.569844000" lon="1.806663000">
        <ele>382.10</ele>
        <time>2013-04-30T19:04:53Z</time>
      </trkpt>
      <trkpt lat="41.569720000" lon="1.806883000">
        <ele>381.50</ele>
        <time>2013-04-30T19:04:57Z</time>
      </trkpt>
      <trkpt lat="41.569731000" lon="1.807150000">
        <ele>380.00</ele>
        <time>2013-04-30T19:05:01Z</time>
      </trkpt>
      <trkpt lat="41.569798000" lon="1.807383000">
        <ele>379.90</ele>
        <time>2013-04-30T19:05:05Z</time>
      </trkpt>
      <trkpt lat="41.569921000" lon="1.807576000">
        <ele>379.80</ele>
        <time>2013-04-30T19:05:10Z</time>
      </trkpt>
      <trkpt lat="41.569960000" lon="1.807833000">
        <ele>380.30</ele>
        <time>2013-04-30T19:05:16Z</time>
      </trkpt>
      <trkpt lat="41.569948000" lon="1.808091000">
        <ele>380.20</ele>
        <time>2013-04-30T19:05:22Z</time>
      </trkpt>
      <trkpt lat="41.569937000" lon="1.808333000">
        <ele>381.10</ele>
        <time>2013-04-30T19:05:29Z</time>
      </trkpt>
      <trkpt lat="41.569922000" lon="1.808609000">
        <ele>381.30</ele>
        <time>2013-04-30T19:05:35Z</time>
      </trkpt>
      <trkpt lat="41.569899000" lon="1.808890000">
        <ele>382.10</ele>
        <time>2013-04-30T19:05:41Z</time>
      </trkpt>
      <trkpt lat="41.569887000" lon="1.809145000">
        <ele>382.80</ele>
        <time>2013-04-30T19:05:48Z</time>
      </trkpt>
      <trkpt lat="41.569871000" lon="1.809425000">
        <ele>382.90</ele>
        <time>2013-04-30T19:05:54Z</time>
      </trkpt>
      <trkpt lat="41.569844000" lon="1.809695000">
        <ele>382.50</ele>
        <time>2013-04-30T19:05:59Z</time>
      </trkpt>
      <trkpt lat="41.569813000" lon="1.809968000">
        <ele>382.10</ele>
        <time>2013-04-30T19:06:04Z</time>
      </trkpt>
      <trkpt lat="41.569793000" lon="1.810246000">
        <ele>381.80</ele>
        <time>2013-04-30T19:06:09Z</time>
      </trkpt>
      <trkpt lat="41.569850000" lon="1.810519000">
        <ele>381.60</ele>
        <time>2013-04-30T19:06:14Z</time>
      </trkpt>
      <trkpt lat="41.569911000" lon="1.810787000">
        <ele>381.70</ele>
        <time>2013-04-30T19:06:19Z</time>
      </trkpt>
      <trkpt lat="41.569968000" lon="1.811016000">
        <ele>381.50</ele>
        <time>2013-04-30T19:06:23Z</time>
      </trkpt>
      <trkpt lat="41.570030000" lon="1.811243000">
        <ele>381.50</ele>
        <time>2013-04-30T19:06:28Z</time>
      </trkpt>
      <trkpt lat="41.570218000" lon="1.811187000">
        <ele>382.30</ele>
        <time>2013-04-30T19:06:35Z</time>
      </trkpt>
      <trkpt lat="41.570397000" lon="1.811102000">
        <ele>383.70</ele>
        <time>2013-04-30T19:06:41Z</time>
      </trkpt>
      <trkpt lat="41.570594000" lon="1.811029000">
        <ele>384.40</ele>
        <time>2013-04-30T19:06:48Z</time>
      </trkpt>
      <trkpt lat="41.570678000" lon="1.811268000">
        <ele>384.80</ele>
        <time>2013-04-30T19:06:54Z</time>
      </trkpt>
      <trkpt lat="41.570731000" lon="1.811509000">
        <ele>384.50</ele>
        <time>2013-04-30T19:06:59Z</time>
      </trkpt>
      <trkpt lat="41.570832000" lon="1.811716000">
        <ele>384.20</ele>
        <time>2013-04-30T19:07:04Z</time>
      </trkpt>
      <trkpt lat="41.570947000" lon="1.811902000">
        <ele>383.80</ele>
        <time>2013-04-30T19:07:09Z</time>
      </trkpt>
      <trkpt lat="41.571083000" lon="1.812117000">
        <ele>383.80</ele>
        <time>2013-04-30T19:07:15Z</time>
      </trkpt>
      <trkpt lat="41.571274000" lon="1.812128000">
        <ele>384.40</ele>
        <time>2013-04-30T19:07:21Z</time>
      </trkpt>
      <trkpt lat="41.571446000" lon="1.812069000">
        <ele>385.90</ele>
        <time>2013-04-30T19:07:27Z</time>
      </trkpt>
      <trkpt lat="41.571611000" lon="1.812077000">
        <ele>387.10</ele>
        <time>2013-04-30T19:07:35Z</time>
      </trkpt>
      <trkpt lat="41.571670000" lon="1.812334000">
        <ele>388.00</ele>
        <time>2013-04-30T19:07:42Z</time>
      </trkpt>
      <trkpt lat="41.571681000" lon="1.812616000">
        <ele>388.20</ele>
        <time>2013-04-30T19:07:49Z</time>
      </trkpt>
      <trkpt lat="41.571702000" lon="1.812899000">
        <ele>388.10</ele>
        <time>2013-04-30T19:07:55Z</time>
      </trkpt>
      <trkpt lat="41.571723000" lon="1.813146000">
        <ele>388.10</ele>
        <time>2013-04-30T19:08:01Z</time>
      </trkpt>
      <trkpt lat="41.571751000" lon="1.813389000">
        <ele>388.20</ele>
        <time>2013-04-30T19:08:09Z</time>
      </trkpt>
      <trkpt lat="41.571690000" lon="1.813614000">
        <ele>387.10</ele>
        <time>2013-04-30T19:08:16Z</time>
      </trkpt>
      <trkpt lat="41.571621000" lon="1.813841000">
        <ele>385.90</ele>
        <time>2013-04-30T19:08:21Z</time>
      </trkpt>
      <trkpt lat="41.571517000" lon="1.814102000">
        <ele>384.90</ele>
        <time>2013-04-30T19:08:26Z</time>
      </trkpt>
      <trkpt lat="41.571422000" lon="1.814339000">
        <ele>383.80</ele>
        <time>2013-04-30T19:08:30Z</time>
      </trkpt>
      <trkpt lat="41.571338000" lon="1.814625000">
        <ele>382.00</ele>
        <time>2013-04-30T19:08:34Z</time>
      </trkpt>
      <trkpt lat="41.571243000" lon="1.814848000">
        <ele>380.60</ele>
        <time>2013-04-30T19:08:37Z</time>
      </trkpt>
      <trkpt lat="41.571203000" lon="1.815094000">
        <ele>380.90</ele>
        <time>2013-04-30T19:08:40Z</time>
      </trkpt>
      <trkpt lat="41.571220000" lon="1.815337000">
        <ele>380.40</ele>
        <time>2013-04-30T19:08:43Z</time>
      </trkpt>
      <trkpt lat="41.571242000" lon="1.815652000">
        <ele>380.00</ele>
        <time>2013-04-30T19:08:47Z</time>
      </trkpt>
      <trkpt lat="41.571204000" lon="1.815928000">
        <ele>379.80</ele>
        <time>2013-04-30T19:08:51Z</time>
      </trkpt>
      <trkpt lat="41.571108000" lon="1.816170000">
        <ele>379.50</ele>
        <time>2013-04-30T19:08:55Z</time>
      </trkpt>
      <trkpt lat="41.571023000" lon="1.816404000">
        <ele>379.20</ele>
        <time>2013-04-30T19:08:59Z</time>
      </trkpt>
      <trkpt lat="41.570900000" lon="1.816663000">
        <ele>376.30</ele>
        <time>2013-04-30T19:09:03Z</time>
      </trkpt>
      <trkpt lat="41.570781000" lon="1.816929000">
        <ele>372.50</ele>
        <time>2013-04-30T19:09:06Z</time>
      </trkpt>
      <trkpt lat="41.570643000" lon="1.817147000">
        <ele>372.90</ele>
        <time>2013-04-30T19:09:09Z</time>
      </trkpt>
      <trkpt lat="41.570536000" lon="1.817384000">
        <ele>374.60</ele>
        <time>2013-04-30T19:09:13Z</time>
      </trkpt>
      <trkpt lat="41.570498000" lon="1.817679000">
        <ele>373.90</ele>
        <time>2013-04-30T19:09:17Z</time>
      </trkpt>
      <trkpt lat="41.570477000" lon="1.817994000">
        <ele>373.10</ele>
        <time>2013-04-30T19:09:21Z</time>
      </trkpt>
      <trkpt lat="41.570470000" lon="1.818251000">
        <ele>372.20</ele>
        <time>2013-04-30T19:09:24Z</time>
      </trkpt>
      <trkpt lat="41.570444000" lon="1.818516000">
        <ele>371.20</ele>
        <time>2013-04-30T19:09:27Z</time>
      </trkpt>
      <trkpt lat="41.570412000" lon="1.818799000">
        <ele>370.30</ele>
        <time>2013-04-30T19:09:30Z</time>
      </trkpt>
      <trkpt lat="41.570403000" lon="1.819083000">
        <ele>369.70</ele>
        <time>2013-04-30T19:09:33Z</time>
      </trkpt>
      <trkpt lat="41.570386000" lon="1.819372000">
        <ele>369.50</ele>
        <time>2013-04-30T19:09:36Z</time>
      </trkpt>
      <trkpt lat="41.570360000" lon="1.819621000">
        <ele>370.80</ele>
        <time>2013-04-30T19:09:39Z</time>
      </trkpt>
      <trkpt lat="41.570315000" lon="1.819916000">
        <ele>371.40</ele>
        <time>2013-04-30T19:09:43Z</time>
      </trkpt>
      <trkpt lat="41.570282000" lon="1.820213000">
        <ele>371.70</ele>
        <time>2013-04-30T19:09:47Z</time>
      </trkpt>
      <trkpt lat="41.570151000" lon="1.820423000">
        <ele>370.20</ele>
        <time>2013-04-30T19:09:51Z</time>
      </trkpt>
      <trkpt lat="41.570079000" lon="1.820609000">
        <ele>370.20</ele>
        <time>2013-04-30T19:09:55Z</time>
      </trkpt>
      <trkpt lat="41.570137000" lon="1.820850000">
        <ele>369.90</ele>
        <time>2013-04-30T19:09:59Z</time>
      </trkpt>
      <trkpt lat="41.570161000" lon="1.821098000">
        <ele>370.30</ele>
        <time>2013-04-30T19:10:03Z</time>
      </trkpt>
      <trkpt lat="41.570162000" lon="1.821388000">
        <ele>371.00</ele>
        <time>2013-04-30T19:10:08Z</time>
      </trkpt>
      <trkpt lat="41.570156000" lon="1.821637000">
        <ele>370.60</ele>
        <time>2013-04-30T19:10:13Z</time>
      </trkpt>
      <trkpt lat="41.570069000" lon="1.821904000">
        <ele>370.30</ele>
        <time>2013-04-30T19:10:18Z</time>
      </trkpt>
      <trkpt lat="41.569979000" lon="1.822167000">
        <ele>370.30</ele>
        <time>2013-04-30T19:10:23Z</time>
      </trkpt>
      <trkpt lat="41.569896000" lon="1.822425000">
        <ele>370.60</ele>
        <time>2013-04-30T19:10:28Z</time>
      </trkpt>
      <trkpt lat="41.569802000" lon="1.822687000">
        <ele>371.10</ele>
        <time>2013-04-30T19:10:33Z</time>
      </trkpt>
      <trkpt lat="41.569713000" lon="1.822962000">
        <ele>370.60</ele>
        <time>2013-04-30T19:10:38Z</time>
      </trkpt>
      <trkpt lat="41.569626000" lon="1.823182000">
        <ele>370.10</ele>
        <time>2013-04-30T19:10:43Z</time>
      </trkpt>
      <trkpt lat="41.569555000" lon="1.823444000">
        <ele>369.50</ele>
        <time>2013-04-30T19:10:48Z</time>
      </trkpt>
      <trkpt lat="41.569570000" lon="1.823687000">
        <ele>370.40</ele>
        <time>2013-04-30T19:10:53Z</time>
      </trkpt>
      <trkpt lat="41.569576000" lon="1.823943000">
        <ele>370.00</ele>
        <time>2013-04-30T19:10:58Z</time>
      </trkpt>
      <trkpt lat="41.569580000" lon="1.824218000">
        <ele>370.10</ele>
        <time>2013-04-30T19:11:03Z</time>
      </trkpt>
      <trkpt lat="41.569596000" lon="1.824478000">
        <ele>371.20</ele>
        <time>2013-04-30T19:11:09Z</time>
      </trkpt>
      <trkpt lat="41.569613000" lon="1.824747000">
        <ele>371.90</ele>
        <time>2013-04-30T19:11:15Z</time>
      </trkpt>
      <trkpt lat="41.569632000" lon="1.825029000">
        <ele>372.90</ele>
        <time>2013-04-30T19:11:22Z</time>
      </trkpt>
      <trkpt lat="41.569657000" lon="1.825309000">
        <ele>372.80</ele>
        <time>2013-04-30T19:11:28Z</time>
      </trkpt>
      <trkpt lat="41.569660000" lon="1.825574000">
        <ele>372.20</ele>
        <time>2013-04-30T19:11:34Z</time>
      </trkpt>
      <trkpt lat="41.569593000" lon="1.825809000">
        <ele>370.60</ele>
        <time>2013-04-30T19:11:40Z</time>
      </trkpt>
      <trkpt lat="41.569517000" lon="1.826070000">
        <ele>368.50</ele>
        <time>2013-04-30T19:11:46Z</time>
      </trkpt>
      <trkpt lat="41.569412000" lon="1.826276000">
        <ele>369.00</ele>
        <time>2013-04-30T19:11:54Z</time>
      </trkpt>
      <trkpt lat="41.569368000" lon="1.826538000">
        <ele>369.20</ele>
        <time>2013-04-30T19:12:01Z</time>
      </trkpt>
      <trkpt lat="41.569264000" lon="1.826772000">
        <ele>368.40</ele>
        <time>2013-04-30T19:12:07Z</time>
      </trkpt>
      <trkpt lat="41.569211000" lon="1.827032000">
        <ele>368.30</ele>
        <time>2013-04-30T19:12:12Z</time>
      </trkpt>
      <trkpt lat="41.569175000" lon="1.827314000">
        <ele>367.40</ele>
        <time>2013-04-30T19:12:17Z</time>
      </trkpt>
      <trkpt lat="41.569142000" lon="1.827562000">
        <ele>367.40</ele>
        <time>2013-04-30T19:12:21Z</time>
      </trkpt>
      <trkpt lat="41.569063000" lon="1.827804000">
        <ele>366.30</ele>
        <time>2013-04-30T19:12:26Z</time>
      </trkpt>
      <trkpt lat="41.568842000" lon="1.827792000">
        <ele>362.50</ele>
        <time>2013-04-30T19:12:30Z</time>
      </trkpt>
      <trkpt lat="41.568602000" lon="1.827762000">
        <ele>359.70</ele>
        <time>2013-04-30T19:12:33Z</time>
      </trkpt>
      <trkpt lat="41.568341000" lon="1.827742000">
        <ele>357.60</ele>
        <time>2013-04-30T19:12:36Z</time>
      </trkpt>
      <trkpt lat="41.568128000" lon="1.827758000">
        <ele>357.50</ele>
        <time>2013-04-30T19:12:39Z</time>
      </trkpt>
      <trkpt lat="41.567959000" lon="1.827852000">
        <ele>357.80</ele>
        <time>2013-04-30T19:12:43Z</time>
      </trkpt>
      <trkpt lat="41.568015000" lon="1.828102000">
        <ele>359.10</ele>
        <time>2013-04-30T19:12:48Z</time>
      </trkpt>
      <trkpt lat="41.568043000" lon="1.828377000">
        <ele>359.70</ele>
        <time>2013-04-30T19:12:54Z</time>
      </trkpt>
      <trkpt lat="41.568039000" lon="1.828640000">
        <ele>360.20</ele>
        <time>2013-04-30T19:12:59Z</time>
      </trkpt>
      <trkpt lat="41.568041000" lon="1.828889000">
        <ele>360.90</ele>
        <time>2013-04-30T19:13:04Z</time>
      </trkpt>
      <trkpt lat="41.568037000" lon="1.829132000">
        <ele>361.80</ele>
        <time>2013-04-30T19:13:09Z</time>
      </trkpt>
      <trkpt lat="41.568024000" lon="1.829395000">
        <ele>362.60</ele>
        <time>2013-04-30T19:13:15Z</time>
      </trkpt>
      <trkpt lat="41.567844000" lon="1.829552000">
        <ele>359.40</ele>
        <time>2013-04-30T19:13:20Z</time>
      </trkpt>
      <trkpt lat="41.567626000" lon="1.829626000">
        <ele>356.60</ele>
        <time>2013-04-30T19:13:24Z</time>
      </trkpt>
      <trkpt lat="41.567395000" lon="1.829626000">
        <ele>353.80</ele>
        <time>2013-04-30T19:13:28Z</time>
      </trkpt>
      <trkpt lat="41.567206000" lon="1.829605000">
        <ele>353.20</ele>
        <time>2013-04-30T19:13:31Z</time>
      </trkpt>
      <trkpt lat="41.566987000" lon="1.829628000">
        <ele>353.80</ele>
        <time>2013-04-30T19:13:35Z</time>
      </trkpt>
      <trkpt lat="41.566792000" lon="1.829736000">
        <ele>349.70</ele>
        <time>2013-04-30T19:13:39Z</time>
      </trkpt>
      <trkpt lat="41.566589000" lon="1.829849000">
        <ele>348.00</ele>
        <time>2013-04-30T19:13:43Z</time>
      </trkpt>
      <trkpt lat="41.566399000" lon="1.829910000">
        <ele>349.00</ele>
        <time>2013-04-30T19:13:47Z</time>
      </trkpt>
      <trkpt lat="41.566212000" lon="1.829971000">
        <ele>347.20</ele>
        <time>2013-04-30T19:13:51Z</time>
      </trkpt>
      <trkpt lat="41.565995000" lon="1.830078000">
        <ele>344.80</ele>
        <time>2013-04-30T19:13:55Z</time>
      </trkpt>
      <trkpt lat="41.565792000" lon="1.830261000">
        <ele>344.40</ele>
        <time>2013-04-30T19:13:59Z</time>
      </trkpt>
      <trkpt lat="41.565630000" lon="1.830415000">
        <ele>341.40</ele>
        <time>2013-04-30T19:14:02Z</time>
      </trkpt>
      <trkpt lat="41.565433000" lon="1.830621000">
        <ele>337.30</ele>
        <time>2013-04-30T19:14:05Z</time>
      </trkpt>
      <trkpt lat="41.565275000" lon="1.830759000">
        <ele>334.10</ele>
        <time>2013-04-30T19:14:07Z</time>
      </trkpt>
      <trkpt lat="41.565109000" lon="1.830904000">
        <ele>332.50</ele>
        <time>2013-04-30T19:14:09Z</time>
      </trkpt>
      <trkpt lat="41.564954000" lon="1.831043000">
        <ele>332.20</ele>
        <time>2013-04-30T19:14:11Z</time>
      </trkpt>
      <trkpt lat="41.564780000" lon="1.831206000">
        <ele>330.20</ele>
        <time>2013-04-30T19:14:14Z</time>
      </trkpt>
      <trkpt lat="41.564598000" lon="1.831361000">
        <ele>328.90</ele>
        <time>2013-04-30T19:14:18Z</time>
      </trkpt>
      <trkpt lat="41.564412000" lon="1.831530000">
        <ele>327.10</ele>
        <time>2013-04-30T19:14:22Z</time>
      </trkpt>
      <trkpt lat="41.564287000" lon="1.831712000">
        <ele>326.00</ele>
        <time>2013-04-30T19:14:27Z</time>
      </trkpt>
      <trkpt lat="41.564162000" lon="1.831915000">
        <ele>322.80</ele>
        <time>2013-04-30T19:14:31Z</time>
      </trkpt>
      <trkpt lat="41.564008000" lon="1.832087000">
        <ele>320.50</ele>
        <time>2013-04-30T19:14:34Z</time>
      </trkpt>
      <trkpt lat="41.563827000" lon="1.832285000">
        <ele>317.60</ele>
        <time>2013-04-30T19:14:37Z</time>
      </trkpt>
      <trkpt lat="41.563619000" lon="1.832385000">
        <ele>315.30</ele>
        <time>2013-04-30T19:14:40Z</time>
      </trkpt>
      <trkpt lat="41.563375000" lon="1.832409000">
        <ele>313.70</ele>
        <time>2013-04-30T19:14:43Z</time>
      </trkpt>
      <trkpt lat="41.563127000" lon="1.832422000">
        <ele>312.10</ele>
        <time>2013-04-30T19:14:46Z</time>
      </trkpt>
      <trkpt lat="41.562896000" lon="1.832455000">
        <ele>312.30</ele>
        <time>2013-04-30T19:14:49Z</time>
      </trkpt>
      <trkpt lat="41.562685000" lon="1.832528000">
        <ele>311.60</ele>
        <time>2013-04-30T19:14:52Z</time>
      </trkpt>
      <trkpt lat="41.562560000" lon="1.832713000">
        <ele>311.90</ele>
        <time>2013-04-30T19:14:56Z</time>
      </trkpt>
      <trkpt lat="41.562500000" lon="1.833003000">
        <ele>310.30</ele>
        <time>2013-04-30T19:15:00Z</time>
      </trkpt>
      <trkpt lat="41.562454000" lon="1.833249000">
        <ele>308.70</ele>
        <time>2013-04-30T19:15:03Z</time>
      </trkpt>
      <trkpt lat="41.562412000" lon="1.833510000">
        <ele>307.20</ele>
        <time>2013-04-30T19:15:06Z</time>
      </trkpt>
      <trkpt lat="41.562388000" lon="1.833752000">
        <ele>306.10</ele>
        <time>2013-04-30T19:15:10Z</time>
      </trkpt>
      <trkpt lat="41.562310000" lon="1.834008000">
        <ele>304.40</ele>
        <time>2013-04-30T19:15:14Z</time>
      </trkpt>
      <trkpt lat="41.562203000" lon="1.834274000">
        <ele>302.00</ele>
        <time>2013-04-30T19:15:18Z</time>
      </trkpt>
      <trkpt lat="41.562087000" lon="1.834512000">
        <ele>301.10</ele>
        <time>2013-04-30T19:15:22Z</time>
      </trkpt>
      <trkpt lat="41.561979000" lon="1.834768000">
        <ele>298.30</ele>
        <time>2013-04-30T19:15:26Z</time>
      </trkpt>
      <trkpt lat="41.561899000" lon="1.834984000">
        <ele>297.70</ele>
        <time>2013-04-30T19:15:29Z</time>
      </trkpt>
      <trkpt lat="41.561831000" lon="1.835212000">
        <ele>296.80</ele>
        <time>2013-04-30T19:15:32Z</time>
      </trkpt>
      <trkpt lat="41.561738000" lon="1.835498000">
        <ele>296.00</ele>
        <time>2013-04-30T19:15:36Z</time>
      </trkpt>
      <trkpt lat="41.561620000" lon="1.835730000">
        <ele>294.50</ele>
        <time>2013-04-30T19:15:40Z</time>
      </trkpt>
      <trkpt lat="41.561485000" lon="1.835999000">
        <ele>293.30</ele>
        <time>2013-04-30T19:15:44Z</time>
      </trkpt>
      <trkpt lat="41.561393000" lon="1.836203000">
        <ele>292.80</ele>
        <time>2013-04-30T19:15:50Z</time>
      </trkpt>
      <trkpt lat="41.561290000" lon="1.836383000">
        <ele>291.20</ele>
        <time>2013-04-30T19:16:02Z</time>
      </trkpt>
      <trkpt lat="41.561166000" lon="1.836587000">
        <ele>289.20</ele>
        <time>2013-04-30T19:16:07Z</time>
      </trkpt>
      <trkpt lat="41.560965000" lon="1.836700000">
        <ele>287.80</ele>
        <time>2013-04-30T19:16:12Z</time>
      </trkpt>
      <trkpt lat="41.560792000" lon="1.836676000">
        <ele>286.80</ele>
        <time>2013-04-30T19:16:17Z</time>
      </trkpt>
      <trkpt lat="41.560655000" lon="1.836508000">
        <ele>286.70</ele>
        <time>2013-04-30T19:16:22Z</time>
      </trkpt>
      <trkpt lat="41.560514000" lon="1.836341000">
        <ele>286.90</ele>
        <time>2013-04-30T19:16:27Z</time>
      </trkpt>
      <trkpt lat="41.560396000" lon="1.836147000">
        <ele>287.30</ele>
        <time>2013-04-30T19:16:32Z</time>
      </trkpt>
      <trkpt lat="41.560246000" lon="1.835953000">
        <ele>286.70</ele>
        <time>2013-04-30T19:16:37Z</time>
      </trkpt>
      <trkpt lat="41.560102000" lon="1.835753000">
        <ele>287.00</ele>
        <time>2013-04-30T19:16:42Z</time>
      </trkpt>
      <trkpt lat="41.559984000" lon="1.835601000">
        <ele>287.40</ele>
        <time>2013-04-30T19:16:46Z</time>
      </trkpt>
      <trkpt lat="41.559759000" lon="1.835865000">
        <ele>287.70</ele>
        <time>2013-04-30T19:16:54Z</time>
      </trkpt>
      <trkpt lat="41.559645000" lon="1.836137000">
        <ele>284.20</ele>
        <time>2013-04-30T19:16:58Z</time>
      </trkpt>
      <trkpt lat="41.559564000" lon="1.836408000">
        <ele>281.90</ele>
        <time>2013-04-30T19:17:02Z</time>
      </trkpt>
      <trkpt lat="41.559412000" lon="1.836589000">
        <ele>279.70</ele>
        <time>2013-04-30T19:17:06Z</time>
      </trkpt>
      <trkpt lat="41.559263000" lon="1.836729000">
        <ele>276.90</ele>
        <time>2013-04-30T19:17:09Z</time>
      </trkpt>
      <trkpt lat="41.559106000" lon="1.836849000">
        <ele>274.40</ele>
        <time>2013-04-30T19:17:12Z</time>
      </trkpt>
      <trkpt lat="41.558890000" lon="1.836910000">
        <ele>275.10</ele>
        <time>2013-04-30T19:17:16Z</time>
      </trkpt>
      <trkpt lat="41.558708000" lon="1.836954000">
        <ele>276.50</ele>
        <time>2013-04-30T19:17:20Z</time>
      </trkpt>
      <trkpt lat="41.558541000" lon="1.837139000">
        <ele>276.40</ele>
        <time>2013-04-30T19:17:25Z</time>
      </trkpt>
      <trkpt lat="41.558441000" lon="1.837395000">
        <ele>274.30</ele>
        <time>2013-04-30T19:17:29Z</time>
      </trkpt>
      <trkpt lat="41.558286000" lon="1.837586000">
        <ele>272.20</ele>
        <time>2013-04-30T19:17:33Z</time>
      </trkpt>
      <trkpt lat="41.558096000" lon="1.837689000">
        <ele>272.50</ele>
        <time>2013-04-30T19:17:37Z</time>
      </trkpt>
      <trkpt lat="41.557914000" lon="1.837836000">
        <ele>271.30</ele>
        <time>2013-04-30T19:17:41Z</time>
      </trkpt>
      <trkpt lat="41.557729000" lon="1.838021000">
        <ele>270.10</ele>
        <time>2013-04-30T19:17:45Z</time>
      </trkpt>
      <trkpt lat="41.557545000" lon="1.838162000">
        <ele>270.20</ele>
        <time>2013-04-30T19:17:49Z</time>
      </trkpt>
      <trkpt lat="41.557385000" lon="1.838292000">
        <ele>269.10</ele>
        <time>2013-04-30T19:17:53Z</time>
      </trkpt>
      <trkpt lat="41.557186000" lon="1.838432000">
        <ele>268.50</ele>
        <time>2013-04-30T19:17:57Z</time>
      </trkpt>
      <trkpt lat="41.556977000" lon="1.838609000">
        <ele>266.50</ele>
        <time>2013-04-30T19:18:01Z</time>
      </trkpt>
      <trkpt lat="41.556811000" lon="1.838768000">
        <ele>265.50</ele>
        <time>2013-04-30T19:18:04Z</time>
      </trkpt>
      <trkpt lat="41.556644000" lon="1.838956000">
        <ele>264.00</ele>
        <time>2013-04-30T19:18:07Z</time>
      </trkpt>
      <trkpt lat="41.556487000" lon="1.839161000">
        <ele>262.70</ele>
        <time>2013-04-30T19:18:10Z</time>
      </trkpt>
      <trkpt lat="41.556327000" lon="1.839363000">
        <ele>261.40</ele>
        <time>2013-04-30T19:18:13Z</time>
      </trkpt>
      <trkpt lat="41.556171000" lon="1.839580000">
        <ele>260.30</ele>
        <time>2013-04-30T19:18:16Z</time>
      </trkpt>
      <trkpt lat="41.556019000" lon="1.839804000">
        <ele>259.40</ele>
        <time>2013-04-30T19:18:19Z</time>
      </trkpt>
      <trkpt lat="41.555867000" lon="1.840033000">
        <ele>258.50</ele>
        <time>2013-04-30T19:18:22Z</time>
      </trkpt>
      <trkpt lat="41.555719000" lon="1.840266000">
        <ele>257.10</ele>
        <time>2013-04-30T19:18:25Z</time>
      </trkpt>
      <trkpt lat="41.555580000" lon="1.840505000">
        <ele>256.40</ele>
        <time>2013-04-30T19:18:28Z</time>
      </trkpt>
      <trkpt lat="41.555441000" lon="1.840740000">
        <ele>255.50</ele>
        <time>2013-04-30T19:18:31Z</time>
      </trkpt>
      <trkpt lat="41.555285000" lon="1.840986000">
        <ele>254.10</ele>
        <time>2013-04-30T19:18:34Z</time>
      </trkpt>
      <trkpt lat="41.555139000" lon="1.841267000">
        <ele>252.40</ele>
        <time>2013-04-30T19:18:37Z</time>
      </trkpt>
      <trkpt lat="41.555006000" lon="1.841575000">
        <ele>251.00</ele>
        <time>2013-04-30T19:18:40Z</time>
      </trkpt>
      <trkpt lat="41.554876000" lon="1.841877000">
        <ele>250.80</ele>
        <time>2013-04-30T19:18:43Z</time>
      </trkpt>
      <trkpt lat="41.554752000" lon="1.842177000">
        <ele>249.40</ele>
        <time>2013-04-30T19:18:46Z</time>
      </trkpt>
      <trkpt lat="41.554629000" lon="1.842466000">
        <ele>248.80</ele>
        <time>2013-04-30T19:18:49Z</time>
      </trkpt>
      <trkpt lat="41.554505000" lon="1.842750000">
        <ele>248.10</ele>
        <time>2013-04-30T19:18:52Z</time>
      </trkpt>
      <trkpt lat="41.554371000" lon="1.843009000">
        <ele>247.10</ele>
        <time>2013-04-30T19:18:55Z</time>
      </trkpt>
      <trkpt lat="41.554233000" lon="1.843245000">
        <ele>247.40</ele>
        <time>2013-04-30T19:18:58Z</time>
      </trkpt>
      <trkpt lat="41.554138000" lon="1.843502000">
        <ele>247.30</ele>
        <time>2013-04-30T19:19:01Z</time>
      </trkpt>
      <trkpt lat="41.554032000" lon="1.843726000">
        <ele>246.60</ele>
        <time>2013-04-30T19:19:04Z</time>
      </trkpt>
      <trkpt lat="41.553935000" lon="1.843985000">
        <ele>246.50</ele>
        <time>2013-04-30T19:19:08Z</time>
      </trkpt>
      <trkpt lat="41.553874000" lon="1.844287000">
        <ele>245.70</ele>
        <time>2013-04-30T19:19:12Z</time>
      </trkpt>
      <trkpt lat="41.553798000" lon="1.844566000">
        <ele>245.00</ele>
        <time>2013-04-30T19:19:16Z</time>
      </trkpt>
      <trkpt lat="41.553770000" lon="1.844845000">
        <ele>244.50</ele>
        <time>2013-04-30T19:19:22Z</time>
      </trkpt>
      <trkpt lat="41.553736000" lon="1.845119000">
        <ele>243.60</ele>
        <time>2013-04-30T19:19:27Z</time>
      </trkpt>
      <trkpt lat="41.553706000" lon="1.845385000">
        <ele>242.40</ele>
        <time>2013-04-30T19:19:31Z</time>
      </trkpt>
      <trkpt lat="41.553682000" lon="1.845709000">
        <ele>240.50</ele>
        <time>2013-04-30T19:19:35Z</time>
      </trkpt>
      <trkpt lat="41.553669000" lon="1.845980000">
        <ele>239.60</ele>
        <time>2013-04-30T19:19:38Z</time>
      </trkpt>
      <trkpt lat="41.553655000" lon="1.846259000">
        <ele>239.40</ele>
        <time>2013-04-30T19:19:41Z</time>
      </trkpt>
      <trkpt lat="41.553662000" lon="1.846519000">
        <ele>239.90</ele>
        <time>2013-04-30T19:19:44Z</time>
      </trkpt>
      <trkpt lat="41.553767000" lon="1.846756000">
        <ele>239.30</ele>
        <time>2013-04-30T19:19:48Z</time>
      </trkpt>
      <trkpt lat="41.553956000" lon="1.846896000">
        <ele>238.50</ele>
        <time>2013-04-30T19:19:52Z</time>
      </trkpt>
      <trkpt lat="41.554091000" lon="1.847119000">
        <ele>238.20</ele>
        <time>2013-04-30T19:19:56Z</time>
      </trkpt>
      <trkpt lat="41.554196000" lon="1.847363000">
        <ele>238.30</ele>
        <time>2013-04-30T19:20:00Z</time>
      </trkpt>
      <trkpt lat="41.554294000" lon="1.847602000">
        <ele>238.50</ele>
        <time>2013-04-30T19:20:04Z</time>
      </trkpt>
      <trkpt lat="41.554328000" lon="1.847830000">
        <ele>238.70</ele>
        <time>2013-04-30T19:20:10Z</time>
      </trkpt>
      <trkpt lat="41.554424000" lon="1.848031000">
        <ele>238.40</ele>
        <time>2013-04-30T19:20:15Z</time>
      </trkpt>
      <trkpt lat="41.554518000" lon="1.848293000">
        <ele>238.60</ele>
        <time>2013-04-30T19:20:20Z</time>
      </trkpt>
      <trkpt lat="41.554502000" lon="1.848559000">
        <ele>238.20</ele>
        <time>2013-04-30T19:20:25Z</time>
      </trkpt>
      <trkpt lat="41.554354000" lon="1.848712000">
        <ele>237.40</ele>
        <time>2013-04-30T19:20:29Z</time>
      </trkpt>
      <trkpt lat="41.554205000" lon="1.848882000">
        <ele>237.00</ele>
        <time>2013-04-30T19:20:33Z</time>
      </trkpt>
      <trkpt lat="41.554045000" lon="1.849066000">
        <ele>235.30</ele>
        <time>2013-04-30T19:20:37Z</time>
      </trkpt>
      <trkpt lat="41.553876000" lon="1.849261000">
        <ele>234.60</ele>
        <time>2013-04-30T19:20:41Z</time>
      </trkpt>
      <trkpt lat="41.553683000" lon="1.849374000">
        <ele>234.00</ele>
        <time>2013-04-30T19:20:45Z</time>
      </trkpt>
      <trkpt lat="41.553462000" lon="1.849321000">
        <ele>233.50</ele>
        <time>2013-04-30T19:20:49Z</time>
      </trkpt>
      <trkpt lat="41.553300000" lon="1.849444000">
        <ele>233.40</ele>
        <time>2013-04-30T19:20:53Z</time>
      </trkpt>
      <trkpt lat="41.553291000" lon="1.849703000">
        <ele>233.50</ele>
        <time>2013-04-30T19:20:58Z</time>
      </trkpt>
      <trkpt lat="41.553268000" lon="1.849986000">
        <ele>233.00</ele>
        <time>2013-04-30T19:21:03Z</time>
      </trkpt>
      <trkpt lat="41.553235000" lon="1.850264000">
        <ele>232.90</ele>
        <time>2013-04-30T19:21:08Z</time>
      </trkpt>
      <trkpt lat="41.553252000" lon="1.850505000">
        <ele>232.40</ele>
        <time>2013-04-30T19:21:12Z</time>
      </trkpt>
      <trkpt lat="41.553321000" lon="1.850732000">
        <ele>235.10</ele>
        <time>2013-04-30T19:21:17Z</time>
      </trkpt>
      <trkpt lat="41.553390000" lon="1.850967000">
        <ele>237.70</ele>
        <time>2013-04-30T19:21:26Z</time>
      </trkpt>
      <trkpt lat="41.553557000" lon="1.850977000">
        <ele>238.60</ele>
        <time>2013-04-30T19:21:36Z</time>
      </trkpt>
      <trkpt lat="41.553687000" lon="1.850774000">
        <ele>240.20</ele>
        <time>2013-04-30T19:21:43Z</time>
      </trkpt>
      <trkpt lat="41.553810000" lon="1.850571000">
        <ele>241.40</ele>
        <time>2013-04-30T19:21:50Z</time>
      </trkpt>
      <trkpt lat="41.553959000" lon="1.850375000">
        <ele>243.00</ele>
        <time>2013-04-30T19:21:59Z</time>
      </trkpt>
      <trkpt lat="41.554020000" lon="1.850605000">
        <ele>241.10</ele>
        <time>2013-04-30T19:22:06Z</time>
      </trkpt>
      <trkpt lat="41.554013000" lon="1.850858000">
        <ele>237.20</ele>
        <time>2013-04-30T19:22:12Z</time>
      </trkpt>
      <trkpt lat="41.554078000" lon="1.851125000">
        <ele>236.70</ele>
        <time>2013-04-30T19:22:16Z</time>
      </trkpt>
      <trkpt lat="41.554192000" lon="1.851381000">
        <ele>237.20</ele>
        <time>2013-04-30T19:22:21Z</time>
      </trkpt>
      <trkpt lat="41.554169000" lon="1.851605000">
        <ele>238.90</ele>
        <time>2013-04-30T19:22:26Z</time>
      </trkpt>
      <trkpt lat="41.554120000" lon="1.851882000">
        <ele>240.00</ele>
        <time>2013-04-30T19:22:32Z</time>
      </trkpt>
      <trkpt lat="41.554054000" lon="1.852106000">
        <ele>239.90</ele>
        <time>2013-04-30T19:22:37Z</time>
      </trkpt>
      <trkpt lat="41.553925000" lon="1.852318000">
        <ele>240.40</ele>
        <time>2013-04-30T19:22:42Z</time>
      </trkpt>
      <trkpt lat="41.553835000" lon="1.852553000">
        <ele>240.60</ele>
        <time>2013-04-30T19:22:47Z</time>
      </trkpt>
      <trkpt lat="41.553767000" lon="1.852800000">
        <ele>241.50</ele>
        <time>2013-04-30T19:22:53Z</time>
      </trkpt>
      <trkpt lat="41.553794000" lon="1.853048000">
        <ele>244.30</ele>
        <time>2013-04-30T19:22:59Z</time>
      </trkpt>
      <trkpt lat="41.553924000" lon="1.853280000">
        <ele>245.70</ele>
        <time>2013-04-30T19:23:06Z</time>
      </trkpt>
      <trkpt lat="41.553994000" lon="1.853490000">
        <ele>245.50</ele>
        <time>2013-04-30T19:23:11Z</time>
      </trkpt>
      <trkpt lat="41.553956000" lon="1.853787000">
        <ele>243.40</ele>
        <time>2013-04-30T19:23:17Z</time>
      </trkpt>
      <trkpt lat="41.553845000" lon="1.854015000">
        <ele>239.90</ele>
        <time>2013-04-30T19:23:20Z</time>
      </trkpt>
      <trkpt lat="41.553672000" lon="1.854221000">
        <ele>239.10</ele>
        <time>2013-04-30T19:23:23Z</time>
      </trkpt>
      <trkpt lat="41.553484000" lon="1.854402000">
        <ele>237.70</ele>
        <time>2013-04-30T19:23:26Z</time>
      </trkpt>
      <trkpt lat="41.553301000" lon="1.854578000">
        <ele>237.10</ele>
        <time>2013-04-30T19:23:29Z</time>
      </trkpt>
      <trkpt lat="41.553128000" lon="1.854774000">
        <ele>235.60</ele>
        <time>2013-04-30T19:23:32Z</time>
      </trkpt>
      <trkpt lat="41.552943000" lon="1.854941000">
        <ele>235.30</ele>
        <time>2013-04-30T19:23:35Z</time>
      </trkpt>
      <trkpt lat="41.552737000" lon="1.855170000">
        <ele>232.20</ele>
        <time>2013-04-30T19:23:38Z</time>
      </trkpt>
      <trkpt lat="41.552616000" lon="1.855377000">
        <ele>229.50</ele>
        <time>2013-04-30T19:23:40Z</time>
      </trkpt>
      <trkpt lat="41.552518000" lon="1.855623000">
        <ele>227.20</ele>
        <time>2013-04-30T19:23:42Z</time>
      </trkpt>
      <trkpt lat="41.552431000" lon="1.855875000">
        <ele>226.60</ele>
        <time>2013-04-30T19:23:44Z</time>
      </trkpt>
      <trkpt lat="41.552350000" lon="1.856120000">
        <ele>226.40</ele>
        <time>2013-04-30T19:23:46Z</time>
      </trkpt>
      <trkpt lat="41.552272000" lon="1.856347000">
        <ele>225.80</ele>
        <time>2013-04-30T19:23:48Z</time>
      </trkpt>
      <trkpt lat="41.552155000" lon="1.856647000">
        <ele>226.60</ele>
        <time>2013-04-30T19:23:51Z</time>
      </trkpt>
      <trkpt lat="41.552039000" lon="1.856902000">
        <ele>227.60</ele>
        <time>2013-04-30T19:23:54Z</time>
      </trkpt>
      <trkpt lat="41.551924000" lon="1.857119000">
        <ele>228.50</ele>
        <time>2013-04-30T19:23:57Z</time>
      </trkpt>
      <trkpt lat="41.551804000" lon="1.857304000">
        <ele>229.20</ele>
        <time>2013-04-30T19:24:00Z</time>
      </trkpt>
      <trkpt lat="41.551655000" lon="1.857550000">
        <ele>228.90</ele>
        <time>2013-04-30T19:24:04Z</time>
      </trkpt>
      <trkpt lat="41.551543000" lon="1.857746000">
        <ele>228.70</ele>
        <time>2013-04-30T19:24:07Z</time>
      </trkpt>
      <trkpt lat="41.551424000" lon="1.857953000">
        <ele>227.50</ele>
        <time>2013-04-30T19:24:10Z</time>
      </trkpt>
      <trkpt lat="41.551299000" lon="1.858173000">
        <ele>227.20</ele>
        <time>2013-04-30T19:24:13Z</time>
      </trkpt>
      <trkpt lat="41.551163000" lon="1.858377000">
        <ele>227.40</ele>
        <time>2013-04-30T19:24:16Z</time>
      </trkpt>
      <trkpt lat="41.551017000" lon="1.858569000">
        <ele>225.90</ele>
        <time>2013-04-30T19:24:19Z</time>
      </trkpt>
      <trkpt lat="41.550852000" lon="1.858754000">
        <ele>224.80</ele>
        <time>2013-04-30T19:24:22Z</time>
      </trkpt>
      <trkpt lat="41.550677000" lon="1.858959000">
        <ele>222.20</ele>
        <time>2013-04-30T19:24:25Z</time>
      </trkpt>
      <trkpt lat="41.550507000" lon="1.859189000">
        <ele>221.80</ele>
        <time>2013-04-30T19:24:28Z</time>
      </trkpt>
      <trkpt lat="41.550383000" lon="1.859450000">
        <ele>221.50</ele>
        <time>2013-04-30T19:24:31Z</time>
      </trkpt>
      <trkpt lat="41.550275000" lon="1.859705000">
        <ele>221.20</ele>
        <time>2013-04-30T19:24:34Z</time>
      </trkpt>
      <trkpt lat="41.550170000" lon="1.859952000">
        <ele>221.00</ele>
        <time>2013-04-30T19:24:37Z</time>
      </trkpt>
      <trkpt lat="41.550061000" lon="1.860197000">
        <ele>220.20</ele>
        <time>2013-04-30T19:24:40Z</time>
      </trkpt>
      <trkpt lat="41.549944000" lon="1.860454000">
        <ele>219.30</ele>
        <time>2013-04-30T19:24:43Z</time>
      </trkpt>
      <trkpt lat="41.549820000" lon="1.860707000">
        <ele>218.70</ele>
        <time>2013-04-30T19:24:46Z</time>
      </trkpt>
      <trkpt lat="41.549692000" lon="1.860942000">
        <ele>218.00</ele>
        <time>2013-04-30T19:24:49Z</time>
      </trkpt>
      <trkpt lat="41.549542000" lon="1.861123000">
        <ele>217.60</ele>
        <time>2013-04-30T19:24:52Z</time>
      </trkpt>
      <trkpt lat="41.549372000" lon="1.861088000">
        <ele>216.40</ele>
        <time>2013-04-30T19:24:55Z</time>
      </trkpt>
      <trkpt lat="41.549233000" lon="1.860902000">
        <ele>214.80</ele>
        <time>2013-04-30T19:24:58Z</time>
      </trkpt>
      <trkpt lat="41.549079000" lon="1.860710000">
        <ele>213.00</ele>
        <time>2013-04-30T19:25:01Z</time>
      </trkpt>
      <trkpt lat="41.548912000" lon="1.860511000">
        <ele>211.70</ele>
        <time>2013-04-30T19:25:04Z</time>
      </trkpt>
      <trkpt lat="41.548741000" lon="1.860295000">
        <ele>210.10</ele>
        <time>2013-04-30T19:25:07Z</time>
      </trkpt>
      <trkpt lat="41.548562000" lon="1.860070000">
        <ele>208.10</ele>
        <time>2013-04-30T19:25:10Z</time>
      </trkpt>
      <trkpt lat="41.548382000" lon="1.859825000">
        <ele>206.20</ele>
        <time>2013-04-30T19:25:13Z</time>
      </trkpt>
      <trkpt lat="41.548164000" lon="1.859651000">
        <ele>204.60</ele>
        <time>2013-04-30T19:25:16Z</time>
      </trkpt>
      <trkpt lat="41.547949000" lon="1.859767000">
        <ele>205.40</ele>
        <time>2013-04-30T19:25:19Z</time>
      </trkpt>
      <trkpt lat="41.547782000" lon="1.859992000">
        <ele>204.80</ele>
        <time>2013-04-30T19:25:22Z</time>
      </trkpt>
      <trkpt lat="41.547615000" lon="1.860194000">
        <ele>205.10</ele>
        <time>2013-04-30T19:25:25Z</time>
      </trkpt>
      <trkpt lat="41.547453000" lon="1.860405000">
        <ele>204.20</ele>
        <time>2013-04-30T19:25:28Z</time>
      </trkpt>
      <trkpt lat="41.547294000" lon="1.860612000">
        <ele>204.20</ele>
        <time>2013-04-30T19:25:31Z</time>
      </trkpt>
      <trkpt lat="41.547132000" lon="1.860808000">
        <ele>203.20</ele>
        <time>2013-04-30T19:25:34Z</time>
      </trkpt>
      <trkpt lat="41.546979000" lon="1.861006000">
        <ele>202.60</ele>
        <time>2013-04-30T19:25:37Z</time>
      </trkpt>
      <trkpt lat="41.546824000" lon="1.861190000">
        <ele>202.20</ele>
        <time>2013-04-30T19:25:40Z</time>
      </trkpt>
      <trkpt lat="41.546664000" lon="1.861363000">
        <ele>202.00</ele>
        <time>2013-04-30T19:25:43Z</time>
      </trkpt>
      <trkpt lat="41.546512000" lon="1.861537000">
        <ele>201.40</ele>
        <time>2013-04-30T19:25:46Z</time>
      </trkpt>
      <trkpt lat="41.546362000" lon="1.861715000">
        <ele>200.70</ele>
        <time>2013-04-30T19:25:49Z</time>
      </trkpt>
      <trkpt lat="41.546208000" lon="1.861888000">
        <ele>200.10</ele>
        <time>2013-04-30T19:25:52Z</time>
      </trkpt>
      <trkpt lat="41.546047000" lon="1.862056000">
        <ele>199.40</ele>
        <time>2013-04-30T19:25:55Z</time>
      </trkpt>
      <trkpt lat="41.545876000" lon="1.862214000">
        <ele>198.70</ele>
        <time>2013-04-30T19:25:58Z</time>
      </trkpt>
      <trkpt lat="41.545714000" lon="1.862380000">
        <ele>197.60</ele>
        <time>2013-04-30T19:26:01Z</time>
      </trkpt>
      <trkpt lat="41.545543000" lon="1.862525000">
        <ele>197.50</ele>
        <time>2013-04-30T19:26:04Z</time>
      </trkpt>
      <trkpt lat="41.545390000" lon="1.862704000">
        <ele>196.80</ele>
        <time>2013-04-30T19:26:07Z</time>
      </trkpt>
      <trkpt lat="41.545240000" lon="1.862886000">
        <ele>196.10</ele>
        <time>2013-04-30T19:26:10Z</time>
      </trkpt>
      <trkpt lat="41.545088000" lon="1.863055000">
        <ele>195.60</ele>
        <time>2013-04-30T19:26:13Z</time>
      </trkpt>
      <trkpt lat="41.544944000" lon="1.863233000">
        <ele>195.20</ele>
        <time>2013-04-30T19:26:16Z</time>
      </trkpt>
      <trkpt lat="41.544802000" lon="1.863427000">
        <ele>194.60</ele>
        <time>2013-04-30T19:26:19Z</time>
      </trkpt>
      <trkpt lat="41.544643000" lon="1.863628000">
        <ele>194.70</ele>
        <time>2013-04-30T19:26:23Z</time>
      </trkpt>
      <trkpt lat="41.544488000" lon="1.863827000">
        <ele>194.30</ele>
        <time>2013-04-30T19:26:28Z</time>
      </trkpt>
      <trkpt lat="41.544329000" lon="1.864039000">
        <ele>193.40</ele>
        <time>2013-04-30T19:26:33Z</time>
      </trkpt>
      <trkpt lat="41.544183000" lon="1.864187000">
        <ele>192.50</ele>
        <time>2013-04-30T19:26:37Z</time>
      </trkpt>
      <trkpt lat="41.544050000" lon="1.864366000">
        <ele>192.00</ele>
        <time>2013-04-30T19:26:41Z</time>
      </trkpt>
      <trkpt lat="41.543909000" lon="1.864554000">
        <ele>191.00</ele>
        <time>2013-04-30T19:26:51Z</time>
      </trkpt>
      <trkpt lat="41.543761000" lon="1.864720000">
        <ele>189.90</ele>
        <time>2013-04-30T19:26:55Z</time>
      </trkpt>
      <trkpt lat="41.543601000" lon="1.864901000">
        <ele>189.60</ele>
        <time>2013-04-30T19:26:59Z</time>
      </trkpt>
      <trkpt lat="41.543452000" lon="1.865097000">
        <ele>189.00</ele>
        <time>2013-04-30T19:27:03Z</time>
      </trkpt>
      <trkpt lat="41.543311000" lon="1.865264000">
        <ele>188.70</ele>
        <time>2013-04-30T19:27:07Z</time>
      </trkpt>
      <trkpt lat="41.543150000" lon="1.865457000">
        <ele>187.60</ele>
        <time>2013-04-30T19:27:11Z</time>
      </trkpt>
      <trkpt lat="41.542980000" lon="1.865646000">
        <ele>186.60</ele>
        <time>2013-04-30T19:27:15Z</time>
      </trkpt>
      <trkpt lat="41.542824000" lon="1.865865000">
        <ele>186.60</ele>
        <time>2013-04-30T19:27:19Z</time>
      </trkpt>
      <trkpt lat="41.542694000" lon="1.866039000">
        <ele>185.80</ele>
        <time>2013-04-30T19:27:22Z</time>
      </trkpt>
      <trkpt lat="41.542550000" lon="1.866216000">
        <ele>184.70</ele>
        <time>2013-04-30T19:27:25Z</time>
      </trkpt>
      <trkpt lat="41.542398000" lon="1.866366000">
        <ele>184.10</ele>
        <time>2013-04-30T19:27:28Z</time>
      </trkpt>
      <trkpt lat="41.542249000" lon="1.866540000">
        <ele>182.30</ele>
        <time>2013-04-30T19:27:31Z</time>
      </trkpt>
      <trkpt lat="41.542095000" lon="1.866721000">
        <ele>180.60</ele>
        <time>2013-04-30T19:27:34Z</time>
      </trkpt>
      <trkpt lat="41.541932000" lon="1.866908000">
        <ele>180.70</ele>
        <time>2013-04-30T19:27:37Z</time>
      </trkpt>
      <trkpt lat="41.541777000" lon="1.867117000">
        <ele>178.90</ele>
        <time>2013-04-30T19:27:40Z</time>
      </trkpt>
      <trkpt lat="41.541630000" lon="1.867308000">
        <ele>178.70</ele>
        <time>2013-04-30T19:27:43Z</time>
      </trkpt>
      <trkpt lat="41.541468000" lon="1.867512000">
        <ele>179.10</ele>
        <time>2013-04-30T19:27:47Z</time>
      </trkpt>
      <trkpt lat="41.541294000" lon="1.867711000">
        <ele>177.80</ele>
        <time>2013-04-30T19:27:51Z</time>
      </trkpt>
      <trkpt lat="41.541164000" lon="1.867879000">
        <ele>176.80</ele>
        <time>2013-04-30T19:27:54Z</time>
      </trkpt>
      <trkpt lat="41.541025000" lon="1.868142000">
        <ele>176.00</ele>
        <time>2013-04-30T19:27:58Z</time>
      </trkpt>
      <trkpt lat="41.540868000" lon="1.868308000">
        <ele>176.40</ele>
        <time>2013-04-30T19:28:03Z</time>
      </trkpt>
      <trkpt lat="41.540729000" lon="1.868445000">
        <ele>176.20</ele>
        <time>2013-04-30T19:28:08Z</time>
      </trkpt>
      <trkpt lat="41.540571000" lon="1.868620000">
        <ele>175.60</ele>
        <time>2013-04-30T19:28:14Z</time>
      </trkpt>
      <trkpt lat="41.540421000" lon="1.868809000">
        <ele>174.80</ele>
        <time>2013-04-30T19:28:20Z</time>
      </trkpt>
      <trkpt lat="41.540269000" lon="1.868986000">
        <ele>174.20</ele>
        <time>2013-04-30T19:28:25Z</time>
      </trkpt>
      <trkpt lat="41.540125000" lon="1.869177000">
        <ele>173.70</ele>
        <time>2013-04-30T19:28:30Z</time>
      </trkpt>
      <trkpt lat="41.539997000" lon="1.869360000">
        <ele>173.10</ele>
        <time>2013-04-30T19:28:35Z</time>
      </trkpt>
      <trkpt lat="41.539847000" lon="1.869587000">
        <ele>172.10</ele>
        <time>2013-04-30T19:28:41Z</time>
      </trkpt>
      <trkpt lat="41.539688000" lon="1.869738000">
        <ele>171.70</ele>
        <time>2013-04-30T19:28:46Z</time>
      </trkpt>
      <trkpt lat="41.539548000" lon="1.869917000">
        <ele>171.50</ele>
        <time>2013-04-30T19:28:51Z</time>
      </trkpt>
      <trkpt lat="41.539409000" lon="1.870103000">
        <ele>171.10</ele>
        <time>2013-04-30T19:28:57Z</time>
      </trkpt>
      <trkpt lat="41.539284000" lon="1.870361000">
        <ele>170.20</ele>
        <time>2013-04-30T19:29:05Z</time>
      </trkpt>
      <trkpt lat="41.539076000" lon="1.870420000">
        <ele>170.20</ele>
        <time>2013-04-30T19:29:12Z</time>
      </trkpt>
      <trkpt lat="41.538924000" lon="1.870606000">
        <ele>169.90</ele>
        <time>2013-04-30T19:29:21Z</time>
      </trkpt>
      <trkpt lat="41.538758000" lon="1.870786000">
        <ele>169.50</ele>
        <time>2013-04-30T19:29:27Z</time>
      </trkpt>
      <trkpt lat="41.538577000" lon="1.870924000">
        <ele>169.70</ele>
        <time>2013-04-30T19:29:32Z</time>
      </trkpt>
      <trkpt lat="41.538413000" lon="1.871058000">
        <ele>170.20</ele>
        <time>2013-04-30T19:29:37Z</time>
      </trkpt>
      <trkpt lat="41.538244000" lon="1.871180000">
        <ele>170.30</ele>
        <time>2013-04-30T19:29:42Z</time>
      </trkpt>
      <trkpt lat="41.538090000" lon="1.871308000">
        <ele>170.00</ele>
        <time>2013-04-30T19:29:47Z</time>
      </trkpt>
      <trkpt lat="41.537924000" lon="1.871456000">
        <ele>170.90</ele>
        <time>2013-04-30T19:29:52Z</time>
      </trkpt>
      <trkpt lat="41.537753000" lon="1.871573000">
        <ele>172.60</ele>
        <time>2013-04-30T19:29:57Z</time>
      </trkpt>
      <trkpt lat="41.537636000" lon="1.871804000">
        <ele>174.20</ele>
        <time>2013-04-30T19:30:03Z</time>
      </trkpt>
      <trkpt lat="41.537577000" lon="1.872056000">
        <ele>175.60</ele>
        <time>2013-04-30T19:30:08Z</time>
      </trkpt>
      <trkpt lat="41.537524000" lon="1.872252000">
        <ele>177.50</ele>
        <time>2013-04-30T19:30:13Z</time>
      </trkpt>
      <trkpt lat="41.537432000" lon="1.872539000">
        <ele>178.60</ele>
        <time>2013-04-30T19:30:18Z</time>
      </trkpt>
      <trkpt lat="41.537308000" lon="1.872847000">
        <ele>179.40</ele>
        <time>2013-04-30T19:30:24Z</time>
      </trkpt>
      <trkpt lat="41.537153000" lon="1.873121000">
        <ele>178.90</ele>
        <time>2013-04-30T19:30:31Z</time>
      </trkpt>
      <trkpt lat="41.537105000" lon="1.873379000">
        <ele>176.70</ele>
        <time>2013-04-30T19:30:35Z</time>
      </trkpt>
      <trkpt lat="41.537034000" lon="1.873675000">
        <ele>176.20</ele>
        <time>2013-04-30T19:30:39Z</time>
      </trkpt>
      <trkpt lat="41.536968000" lon="1.873964000">
        <ele>176.20</ele>
        <time>2013-04-30T19:30:43Z</time>
      </trkpt>
      <trkpt lat="41.536903000" lon="1.874237000">
        <ele>176.80</ele>
        <time>2013-04-30T19:30:47Z</time>
      </trkpt>
      <trkpt lat="41.536844000" lon="1.874495000">
        <ele>177.40</ele>
        <time>2013-04-30T19:30:51Z</time>
      </trkpt>
      <trkpt lat="41.536756000" lon="1.874729000">
        <ele>178.00</ele>
        <time>2013-04-30T19:30:55Z</time>
      </trkpt>
      <trkpt lat="41.536648000" lon="1.874944000">
        <ele>177.80</ele>
        <time>2013-04-30T19:30:59Z</time>
      </trkpt>
      <trkpt lat="41.536536000" lon="1.875147000">
        <ele>178.70</ele>
        <time>2013-04-30T19:31:03Z</time>
      </trkpt>
      <trkpt lat="41.536402000" lon="1.875323000">
        <ele>179.70</ele>
        <time>2013-04-30T19:31:09Z</time>
      </trkpt>
      <trkpt lat="41.536276000" lon="1.875535000">
        <ele>179.60</ele>
        <time>2013-04-30T19:31:16Z</time>
      </trkpt>
      <trkpt lat="41.536121000" lon="1.875752000">
        <ele>180.50</ele>
        <time>2013-04-30T19:31:21Z</time>
      </trkpt>
      <trkpt lat="41.535998000" lon="1.875945000">
        <ele>180.60</ele>
        <time>2013-04-30T19:31:25Z</time>
      </trkpt>
      <trkpt lat="41.535867000" lon="1.876146000">
        <ele>180.70</ele>
        <time>2013-04-30T19:31:29Z</time>
      </trkpt>
      <trkpt lat="41.535745000" lon="1.876368000">
        <ele>180.90</ele>
        <time>2013-04-30T19:31:33Z</time>
      </trkpt>
      <trkpt lat="41.535667000" lon="1.876620000">
        <ele>180.80</ele>
        <time>2013-04-30T19:31:37Z</time>
      </trkpt>
      <trkpt lat="41.535577000" lon="1.876876000">
        <ele>181.10</ele>
        <time>2013-04-30T19:31:41Z</time>
      </trkpt>
      <trkpt lat="41.535484000" lon="1.877155000">
        <ele>180.10</ele>
        <time>2013-04-30T19:31:45Z</time>
      </trkpt>
      <trkpt lat="41.535388000" lon="1.877433000">
        <ele>180.40</ele>
        <time>2013-04-30T19:31:49Z</time>
      </trkpt>
      <trkpt lat="41.535292000" lon="1.877709000">
        <ele>179.70</ele>
        <time>2013-04-30T19:31:53Z</time>
      </trkpt>
      <trkpt lat="41.535175000" lon="1.877956000">
        <ele>179.40</ele>
        <time>2013-04-30T19:31:57Z</time>
      </trkpt>
      <trkpt lat="41.535005000" lon="1.878163000">
        <ele>179.00</ele>
        <time>2013-04-30T19:32:01Z</time>
      </trkpt>
      <trkpt lat="41.534801000" lon="1.878310000">
        <ele>177.40</ele>
        <time>2013-04-30T19:32:05Z</time>
      </trkpt>
      <trkpt lat="41.534591000" lon="1.878466000">
        <ele>176.40</ele>
        <time>2013-04-30T19:32:09Z</time>
      </trkpt>
      <trkpt lat="41.534424000" lon="1.878581000">
        <ele>176.00</ele>
        <time>2013-04-30T19:32:12Z</time>
      </trkpt>
      <trkpt lat="41.534282000" lon="1.878732000">
        <ele>175.00</ele>
        <time>2013-04-30T19:32:15Z</time>
      </trkpt>
      <trkpt lat="41.534131000" lon="1.878886000">
        <ele>175.10</ele>
        <time>2013-04-30T19:32:19Z</time>
      </trkpt>
      <trkpt lat="41.534204000" lon="1.879105000">
        <ele>175.10</ele>
        <time>2013-04-30T19:32:23Z</time>
      </trkpt>
      <trkpt lat="41.534316000" lon="1.879353000">
        <ele>175.00</ele>
        <time>2013-04-30T19:32:28Z</time>
      </trkpt>
      <trkpt lat="41.534419000" lon="1.879609000">
        <ele>174.80</ele>
        <time>2013-04-30T19:32:33Z</time>
      </trkpt>
      <trkpt lat="41.534504000" lon="1.879854000">
        <ele>173.20</ele>
        <time>2013-04-30T19:32:37Z</time>
      </trkpt>
      <trkpt lat="41.534618000" lon="1.880139000">
        <ele>171.00</ele>
        <time>2013-04-30T19:32:41Z</time>
      </trkpt>
      <trkpt lat="41.534704000" lon="1.880371000">
        <ele>168.00</ele>
        <time>2013-04-30T19:32:44Z</time>
      </trkpt>
      <trkpt lat="41.534822000" lon="1.880619000">
        <ele>163.50</ele>
        <time>2013-04-30T19:32:47Z</time>
      </trkpt>
      <trkpt lat="41.534979000" lon="1.880822000">
        <ele>160.40</ele>
        <time>2013-04-30T19:32:50Z</time>
      </trkpt>
      <trkpt lat="41.535127000" lon="1.880959000">
        <ele>156.70</ele>
        <time>2013-04-30T19:32:53Z</time>
      </trkpt>
      <trkpt lat="41.535296000" lon="1.881167000">
        <ele>151.10</ele>
        <time>2013-04-30T19:32:56Z</time>
      </trkpt>
      <trkpt lat="41.535416000" lon="1.881357000">
        <ele>148.70</ele>
        <time>2013-04-30T19:32:58Z</time>
      </trkpt>
      <trkpt lat="41.535544000" lon="1.881547000">
        <ele>147.60</ele>
        <time>2013-04-30T19:33:00Z</time>
      </trkpt>
      <trkpt lat="41.535720000" lon="1.881809000">
        <ele>147.20</ele>
        <time>2013-04-30T19:33:03Z</time>
      </trkpt>
      <trkpt lat="41.535773000" lon="1.882065000">
        <ele>147.80</ele>
        <time>2013-04-30T19:33:06Z</time>
      </trkpt>
      <trkpt lat="41.535673000" lon="1.882276000">
        <ele>151.00</ele>
        <time>2013-04-30T19:33:10Z</time>
      </trkpt>
      <trkpt lat="41.535531000" lon="1.882437000">
        <ele>152.10</ele>
        <time>2013-04-30T19:33:15Z</time>
      </trkpt>
      <trkpt lat="41.535392000" lon="1.882606000">
        <ele>152.50</ele>
        <time>2013-04-30T19:33:20Z</time>
      </trkpt>
      <trkpt lat="41.535247000" lon="1.882816000">
        <ele>151.40</ele>
        <time>2013-04-30T19:33:25Z</time>
      </trkpt>
      <trkpt lat="41.535128000" lon="1.883030000">
        <ele>149.70</ele>
        <time>2013-04-30T19:33:29Z</time>
      </trkpt>
      <trkpt lat="41.535005000" lon="1.883286000">
        <ele>148.00</ele>
        <time>2013-04-30T19:33:33Z</time>
      </trkpt>
      <trkpt lat="41.534907000" lon="1.883582000">
        <ele>145.40</ele>
        <time>2013-04-30T19:33:37Z</time>
      </trkpt>
      <trkpt lat="41.534852000" lon="1.883817000">
        <ele>143.90</ele>
        <time>2013-04-30T19:33:40Z</time>
      </trkpt>
      <trkpt lat="41.534751000" lon="1.884037000">
        <ele>143.00</ele>
        <time>2013-04-30T19:33:43Z</time>
      </trkpt>
      <trkpt lat="41.534629000" lon="1.884236000">
        <ele>142.10</ele>
        <time>2013-04-30T19:33:46Z</time>
      </trkpt>
      <trkpt lat="41.534579000" lon="1.884470000">
        <ele>141.80</ele>
        <time>2013-04-30T19:33:49Z</time>
      </trkpt>
      <trkpt lat="41.534548000" lon="1.884715000">
        <ele>140.60</ele>
        <time>2013-04-30T19:33:52Z</time>
      </trkpt>
      <trkpt lat="41.534493000" lon="1.884985000">
        <ele>140.60</ele>
        <time>2013-04-30T19:33:56Z</time>
      </trkpt>
      <trkpt lat="41.534512000" lon="1.885228000">
        <ele>141.00</ele>
        <time>2013-04-30T19:34:00Z</time>
      </trkpt>
      <trkpt lat="41.534535000" lon="1.885495000">
        <ele>137.20</ele>
        <time>2013-04-30T19:34:04Z</time>
      </trkpt>
      <trkpt lat="41.534473000" lon="1.885767000">
        <ele>133.70</ele>
        <time>2013-04-30T19:34:08Z</time>
      </trkpt>
      <trkpt lat="41.534374000" lon="1.885982000">
        <ele>132.40</ele>
        <time>2013-04-30T19:34:11Z</time>
      </trkpt>
      <trkpt lat="41.534330000" lon="1.886251000">
        <ele>129.60</ele>
        <time>2013-04-30T19:34:15Z</time>
      </trkpt>
      <trkpt lat="41.534400000" lon="1.886527000">
        <ele>125.90</ele>
        <time>2013-04-30T19:34:20Z</time>
      </trkpt>
      <trkpt lat="41.534535000" lon="1.886690000">
        <ele>122.50</ele>
        <time>2013-04-30T19:34:24Z</time>
      </trkpt>
      <trkpt lat="41.534708000" lon="1.886790000">
        <ele>119.50</ele>
        <time>2013-04-30T19:34:29Z</time>
      </trkpt>
      <trkpt lat="41.534909000" lon="1.886753000">
        <ele>116.40</ele>
        <time>2013-04-30T19:34:34Z</time>
      </trkpt>
      <trkpt lat="41.535036000" lon="1.886842000">
        <ele>112.10</ele>
        <time>2013-04-30T19:34:41Z</time>
      </trkpt>
      <trkpt lat="41.535227000" lon="1.886757000">
        <ele>108.50</ele>
        <time>2013-04-30T19:34:46Z</time>
      </trkpt>
      <trkpt lat="41.535298000" lon="1.886502000">
        <ele>107.10</ele>
        <time>2013-04-30T19:34:50Z</time>
      </trkpt>
      <trkpt lat="41.535450000" lon="1.886372000">
        <ele>104.80</ele>
        <time>2013-04-30T19:34:55Z</time>
      </trkpt>
      <trkpt lat="41.535613000" lon="1.886255000">
        <ele>104.30</ele>
        <time>2013-04-30T19:34:59Z</time>
      </trkpt>
      <trkpt lat="41.535680000" lon="1.886012000">
        <ele>103.70</ele>
        <time>2013-04-30T19:35:03Z</time>
      </trkpt>
      <trkpt lat="41.535711000" lon="1.885753000">
        <ele>103.80</ele>
        <time>2013-04-30T19:35:08Z</time>
      </trkpt>
      <trkpt lat="41.535873000" lon="1.885570000">
        <ele>102.20</ele>
        <time>2013-04-30T19:35:13Z</time>
      </trkpt>
      <trkpt lat="41.536012000" lon="1.885412000">
        <ele>101.40</ele>
        <time>2013-04-30T19:35:17Z</time>
      </trkpt>
      <trkpt lat="41.536132000" lon="1.885161000">
        <ele>100.90</ele>
        <time>2013-04-30T19:35:22Z</time>
      </trkpt>
      <trkpt lat="41.536239000" lon="1.884955000">
        <ele>99.60</ele>
        <time>2013-04-30T19:35:26Z</time>
      </trkpt>
      <trkpt lat="41.536429000" lon="1.884887000">
        <ele>99.10</ele>
        <time>2013-04-30T19:35:30Z</time>
      </trkpt>
      <trkpt lat="41.536602000" lon="1.884784000">
        <ele>99.00</ele>
        <time>2013-04-30T19:35:34Z</time>
      </trkpt>
      <trkpt lat="41.536702000" lon="1.884576000">
        <ele>99.30</ele>
        <time>2013-04-30T19:35:38Z</time>
      </trkpt>
      <trkpt lat="41.536711000" lon="1.884311000">
        <ele>101.00</ele>
        <time>2013-04-30T19:35:43Z</time>
      </trkpt>
      <trkpt lat="41.536860000" lon="1.884159000">
        <ele>98.80</ele>
        <time>2013-04-30T19:35:48Z</time>
      </trkpt>
      <trkpt lat="41.537037000" lon="1.884123000">
        <ele>97.20</ele>
        <time>2013-04-30T19:35:53Z</time>
      </trkpt>
      <trkpt lat="41.536903000" lon="1.884259000">
        <ele>95.20</ele>
        <time>2013-04-30T19:35:58Z</time>
      </trkpt>
      <trkpt lat="41.536795000" lon="1.884468000">
        <ele>94.60</ele>
        <time>2013-04-30T19:36:03Z</time>
      </trkpt>
      <trkpt lat="41.536758000" lon="1.884717000">
        <ele>92.90</ele>
        <time>2013-04-30T19:36:07Z</time>
      </trkpt>
      <trkpt lat="41.536716000" lon="1.885003000">
        <ele>88.50</ele>
        <time>2013-04-30T19:36:12Z</time>
      </trkpt>
      <trkpt lat="41.536585000" lon="1.885185000">
        <ele>84.80</ele>
        <time>2013-04-30T19:36:16Z</time>
      </trkpt>
      <trkpt lat="41.536474000" lon="1.885354000">
        <ele>84.00</ele>
        <time>2013-04-30T19:36:21Z</time>
      </trkpt>
      <trkpt lat="41.536647000" lon="1.885340000">
        <ele>82.70</ele>
        <time>2013-04-30T19:36:45Z</time>
      </trkpt>
      <trkpt lat="41.536804000" lon="1.885183000">
        <ele>82.10</ele>
        <time>2013-04-30T19:36:50Z</time>
      </trkpt>
      <trkpt lat="41.536930000" lon="1.884966000">
        <ele>81.30</ele>
        <time>2013-04-30T19:36:54Z</time>
      </trkpt>
      <trkpt lat="41.537021000" lon="1.884755000">
        <ele>79.90</ele>
        <time>2013-04-30T19:36:57Z</time>
      </trkpt>
      <trkpt lat="41.537179000" lon="1.884600000">
        <ele>78.90</ele>
        <time>2013-04-30T19:37:00Z</time>
      </trkpt>
      <trkpt lat="41.537335000" lon="1.884419000">
        <ele>77.90</ele>
        <time>2013-04-30T19:37:03Z</time>
      </trkpt>
      <trkpt lat="41.537489000" lon="1.884231000">
        <ele>77.40</ele>
        <time>2013-04-30T19:37:06Z</time>
      </trkpt>
      <trkpt lat="41.537663000" lon="1.884060000">
        <ele>76.60</ele>
        <time>2013-04-30T19:37:09Z</time>
      </trkpt>
      <trkpt lat="41.537838000" lon="1.883887000">
        <ele>75.60</ele>
        <time>2013-04-30T19:37:12Z</time>
      </trkpt>
      <trkpt lat="41.537997000" lon="1.883701000">
        <ele>75.20</ele>
        <time>2013-04-30T19:37:15Z</time>
      </trkpt>
      <trkpt lat="41.538156000" lon="1.883511000">
        <ele>74.50</ele>
        <time>2013-04-30T19:37:18Z</time>
      </trkpt>
      <trkpt lat="41.538318000" lon="1.883311000">
        <ele>73.70</ele>
        <time>2013-04-30T19:37:21Z</time>
      </trkpt>
      <trkpt lat="41.538470000" lon="1.883098000">
        <ele>73.70</ele>
        <time>2013-04-30T19:37:24Z</time>
      </trkpt>
      <trkpt lat="41.538574000" lon="1.882848000">
        <ele>73.30</ele>
        <time>2013-04-30T19:37:27Z</time>
      </trkpt>
      <trkpt lat="41.538645000" lon="1.882572000">
        <ele>72.70</ele>
        <time>2013-04-30T19:37:30Z</time>
      </trkpt>
      <trkpt lat="41.538738000" lon="1.882303000">
        <ele>71.70</ele>
        <time>2013-04-30T19:37:33Z</time>
      </trkpt>
      <trkpt lat="41.538856000" lon="1.882056000">
        <ele>71.40</ele>
        <time>2013-04-30T19:37:36Z</time>
      </trkpt>
      <trkpt lat="41.538982000" lon="1.881828000">
        <ele>71.60</ele>
        <time>2013-04-30T19:37:39Z</time>
      </trkpt>
      <trkpt lat="41.539117000" lon="1.881622000">
        <ele>71.30</ele>
        <time>2013-04-30T19:37:42Z</time>
      </trkpt>
      <trkpt lat="41.539265000" lon="1.881428000">
        <ele>70.90</ele>
        <time>2013-04-30T19:37:45Z</time>
      </trkpt>
      <trkpt lat="41.539415000" lon="1.881244000">
        <ele>70.50</ele>
        <time>2013-04-30T19:37:48Z</time>
      </trkpt>
      <trkpt lat="41.539560000" lon="1.881072000">
        <ele>70.90</ele>
        <time>2013-04-30T19:37:51Z</time>
      </trkpt>
      <trkpt lat="41.539708000" lon="1.880885000">
        <ele>70.80</ele>
        <time>2013-04-30T19:37:54Z</time>
      </trkpt>
      <trkpt lat="41.539856000" lon="1.880702000">
        <ele>70.80</ele>
        <time>2013-04-30T19:37:57Z</time>
      </trkpt>
      <trkpt lat="41.540003000" lon="1.880514000">
        <ele>70.50</ele>
        <time>2013-04-30T19:38:00Z</time>
      </trkpt>
      <trkpt lat="41.540180000" lon="1.880385000">
        <ele>69.60</ele>
        <time>2013-04-30T19:38:03Z</time>
      </trkpt>
      <trkpt lat="41.540403000" lon="1.880371000">
        <ele>68.60</ele>
        <time>2013-04-30T19:38:06Z</time>
      </trkpt>
      <trkpt lat="41.540634000" lon="1.880397000">
        <ele>67.70</ele>
        <time>2013-04-30T19:38:09Z</time>
      </trkpt>
      <trkpt lat="41.540878000" lon="1.880430000">
        <ele>67.00</ele>
        <time>2013-04-30T19:38:12Z</time>
      </trkpt>
      <trkpt lat="41.541123000" lon="1.880481000">
        <ele>66.50</ele>
        <time>2013-04-30T19:38:15Z</time>
      </trkpt>
      <trkpt lat="41.541353000" lon="1.880591000">
        <ele>66.70</ele>
        <time>2013-04-30T19:38:18Z</time>
      </trkpt>
      <trkpt lat="41.541568000" lon="1.880717000">
        <ele>66.50</ele>
        <time>2013-04-30T19:38:21Z</time>
      </trkpt>
      <trkpt lat="41.541774000" lon="1.880845000">
        <ele>66.60</ele>
        <time>2013-04-30T19:38:24Z</time>
      </trkpt>
      <trkpt lat="41.541974000" lon="1.880964000">
        <ele>66.80</ele>
        <time>2013-04-30T19:38:27Z</time>
      </trkpt>
      <trkpt lat="41.542161000" lon="1.881084000">
        <ele>66.50</ele>
        <time>2013-04-30T19:38:30Z</time>
      </trkpt>
      <trkpt lat="41.542342000" lon="1.881198000">
        <ele>66.50</ele>
        <time>2013-04-30T19:38:33Z</time>
      </trkpt>
      <trkpt lat="41.542514000" lon="1.881307000">
        <ele>66.70</ele>
        <time>2013-04-30T19:38:36Z</time>
      </trkpt>
      <trkpt lat="41.542683000" lon="1.881419000">
        <ele>66.90</ele>
        <time>2013-04-30T19:38:39Z</time>
      </trkpt>
      <trkpt lat="41.542893000" lon="1.881557000">
        <ele>67.90</ele>
        <time>2013-04-30T19:38:43Z</time>
      </trkpt>
      <trkpt lat="41.543087000" lon="1.881670000">
        <ele>69.90</ele>
        <time>2013-04-30T19:38:47Z</time>
      </trkpt>
      <trkpt lat="41.543265000" lon="1.881789000">
        <ele>71.40</ele>
        <time>2013-04-30T19:38:51Z</time>
      </trkpt>
      <trkpt lat="41.543429000" lon="1.881904000">
        <ele>72.80</ele>
        <time>2013-04-30T19:38:55Z</time>
      </trkpt>
      <trkpt lat="41.543619000" lon="1.882024000">
        <ele>74.10</ele>
        <time>2013-04-30T19:39:00Z</time>
      </trkpt>
      <trkpt lat="41.543791000" lon="1.882153000">
        <ele>76.00</ele>
        <time>2013-04-30T19:39:05Z</time>
      </trkpt>
      <trkpt lat="41.543805000" lon="1.882384000">
        <ele>77.30</ele>
        <time>2013-04-30T19:39:10Z</time>
      </trkpt>
      <trkpt lat="41.543804000" lon="1.882639000">
        <ele>77.60</ele>
        <time>2013-04-30T19:39:15Z</time>
      </trkpt>
      <trkpt lat="41.543887000" lon="1.882928000">
        <ele>78.50</ele>
        <time>2013-04-30T19:39:20Z</time>
      </trkpt>
      <trkpt lat="41.544023000" lon="1.883106000">
        <ele>78.90</ele>
        <time>2013-04-30T19:39:24Z</time>
      </trkpt>
      <trkpt lat="41.544192000" lon="1.883205000">
        <ele>79.50</ele>
        <time>2013-04-30T19:39:28Z</time>
      </trkpt>
      <trkpt lat="41.544383000" lon="1.883210000">
        <ele>79.60</ele>
        <time>2013-04-30T19:39:32Z</time>
      </trkpt>
      <trkpt lat="41.544589000" lon="1.883211000">
        <ele>80.50</ele>
        <time>2013-04-30T19:39:37Z</time>
      </trkpt>
      <trkpt lat="41.544730000" lon="1.883376000">
        <ele>79.10</ele>
        <time>2013-04-30T19:39:41Z</time>
      </trkpt>
      <trkpt lat="41.544851000" lon="1.883561000">
        <ele>77.60</ele>
        <time>2013-04-30T19:39:44Z</time>
      </trkpt>
      <trkpt lat="41.545011000" lon="1.883679000">
        <ele>76.70</ele>
        <time>2013-04-30T19:39:47Z</time>
      </trkpt>
      <trkpt lat="41.545180000" lon="1.883774000">
        <ele>77.40</ele>
        <time>2013-04-30T19:39:50Z</time>
      </trkpt>
      <trkpt lat="41.545401000" lon="1.883884000">
        <ele>77.90</ele>
        <time>2013-04-30T19:39:54Z</time>
      </trkpt>
      <trkpt lat="41.545542000" lon="1.884055000">
        <ele>79.40</ele>
        <time>2013-04-30T19:39:58Z</time>
      </trkpt>
      <trkpt lat="41.545550000" lon="1.884335000">
        <ele>80.90</ele>
        <time>2013-04-30T19:40:03Z</time>
      </trkpt>
      <trkpt lat="41.545445000" lon="1.884520000">
        <ele>81.20</ele>
        <time>2013-04-30T19:40:07Z</time>
      </trkpt>
      <trkpt lat="41.545297000" lon="1.884681000">
        <ele>81.50</ele>
        <time>2013-04-30T19:40:11Z</time>
      </trkpt>
      <trkpt lat="41.545161000" lon="1.884848000">
        <ele>82.20</ele>
        <time>2013-04-30T19:40:15Z</time>
      </trkpt>
      <trkpt lat="41.545015000" lon="1.885002000">
        <ele>83.10</ele>
        <time>2013-04-30T19:40:19Z</time>
      </trkpt>
      <trkpt lat="41.544873000" lon="1.885174000">
        <ele>84.20</ele>
        <time>2013-04-30T19:40:23Z</time>
      </trkpt>
      <trkpt lat="41.544731000" lon="1.885335000">
        <ele>85.30</ele>
        <time>2013-04-30T19:40:27Z</time>
      </trkpt>
      <trkpt lat="41.544598000" lon="1.885492000">
        <ele>85.80</ele>
        <time>2013-04-30T19:40:31Z</time>
      </trkpt>
      <trkpt lat="41.544441000" lon="1.885689000">
        <ele>86.80</ele>
        <time>2013-04-30T19:40:36Z</time>
      </trkpt>
      <trkpt lat="41.544263000" lon="1.885807000">
        <ele>87.30</ele>
        <time>2013-04-30T19:40:42Z</time>
      </trkpt>
    </trkseg>
  </trk>
</gpx>
